Darstellungsparameter: Aktuell verwendete Einstellungen:
Skalierung der Graphiken ... ?
xyx+y,   Skalierungsfaktor:      Skalierung: Modus: x, Faktor: 1
Darstellungszeitraum ... ?
Vom - - bis: - -   Zeitraum: 26.03.2019 - 01.04.2019
Min/Max/Avg-Anzeige ... ?
Zeige MMA aktuell
Zeige MMA Monat
Zeige MMA alles
Zeige --A aktuell
Zeige --A Monat
Zeige --A alles
Keine MMA-Anzeige
MMA:
Average (ber die Originaldaten)
MMA-Basis: 26.03.2019 - 01.04.2019
Quicknavigation für Darstellung... ?
Tage:      1T, 2T, 3T, 5T -1T -2T -3T -5T +1T +2T +3T +5T
Wochen: 1W, 2W, 3W -1W -2W -3W +1W +2W +3W
Monate: 1M, 3M, 6M -1M -3M -6M +1M +3M +6M
Jahre:    1J, 3J, 5J, 10J -1J -3J -5J -10J +1J +3J +5J +10J
Nutze für die Darstellung ... ?
Originaldaten oder Mittelwerte auf ...
Stundenbasis Tagesbasis Wochenbasis
Monatsbasis Jahresbasis      Datenbasis: Original-Daten
Darstellen als:
Statistik (Auto) Statistik J:M      Darstellung:
Zur Graphik,    zurück zur Übersicht aller Sensoren.
 
Tabellarische Datenbersicht: ?
 
Sensor: Nr:Datum:Temp:Abs-Feuchte:Windchill:Wind:
Aussen-T/F 1 26-03-2019 00:00:00 4.3 C 6.1 g/m*3 4.3 C 3.2 km/h
2 26-03-2019 00:05:00 4.3 C 6.1 g/m*3 4.3 C 4.8 km/h
3 26-03-2019 00:10:00 4.3 C 6.1 g/m*3 4.3 C 3.2 km/h
4 26-03-2019 00:15:00 4.4 C 6.14 g/m*3 4.4 C 0 km/h
5 26-03-2019 00:20:00 4.4 C 6.14 g/m*3 4.4 C 0 km/h
6 26-03-2019 00:25:00 4.4 C 6.2 g/m*3 4.4 C 3.2 km/h
7 26-03-2019 00:30:00 4.6 C 6.29 g/m*3 4.6 C 1.6 km/h
8 26-03-2019 00:35:00 4.6 C 6.29 g/m*3 4.6 C 1.6 km/h
9 26-03-2019 00:40:00 4.6 C 6.29 g/m*3 4.6 C 1.6 km/h
10 26-03-2019 00:45:00 4.6 C 6.29 g/m*3 4.6 C 3.2 km/h
11 26-03-2019 00:50:00 4.7 C 6.33 g/m*3 4.7 C 1.6 km/h
12 26-03-2019 00:55:00 4.7 C 6.33 g/m*3 4.7 C 0 km/h
13 26-03-2019 01:00:00 4.7 C 6.26 g/m*3 4.7 C 0 km/h
14 26-03-2019 01:05:00 4.7 C 6.26 g/m*3 4.7 C 0 km/h
15 26-03-2019 01:10:00 4.7 C 6.26 g/m*3 4.7 C 0 km/h
16 26-03-2019 01:15:00 4.7 C 6.26 g/m*3 4.7 C 0 km/h
17 26-03-2019 01:20:00 4.7 C 6.26 g/m*3 4.7 C 0 km/h
18 26-03-2019 01:25:00 4.6 C 6.22 g/m*3 4.6 C 0 km/h
19 26-03-2019 01:30:00 4.6 C 6.22 g/m*3 4.6 C 0 km/h
20 26-03-2019 01:35:00 4.4 C 6.14 g/m*3 4.4 C 3.2 km/h
21 26-03-2019 01:40:00 4.3 C 6.1 g/m*3 4.3 C 1.6 km/h
22 26-03-2019 01:45:00 4.3 C 6.1 g/m*3 4.3 C 0 km/h
23 26-03-2019 01:50:00 4.3 C 6.1 g/m*3 4.3 C 0 km/h
24 26-03-2019 01:55:00 4.3 C 6.1 g/m*3 4.3 C 1.6 km/h
25 26-03-2019 02:00:00 4.3 C 6.1 g/m*3 4.3 C 0 km/h
Sensor: Nr:Datum:Temp:Abs-Feuchte:Windchill:Wind:
Aussen-T/F 26 26-03-2019 02:05:00 4.3 C 6.16 g/m*3 4.3 C 0 km/h
27 26-03-2019 02:10:00 4.3 C 6.16 g/m*3 4.3 C 0 km/h
28 26-03-2019 02:15:00 4.4 C 6.2 g/m*3 4.4 C 0 km/h
29 26-03-2019 02:20:00 4.4 C 6.2 g/m*3 4.4 C 0 km/h
30 26-03-2019 02:25:00 4.4 C 6.2 g/m*3 4.4 C 0 km/h
31 26-03-2019 02:30:00 4.4 C 6.2 g/m*3 4.4 C 0 km/h
32 26-03-2019 02:35:00 4.4 C 6.2 g/m*3 4.4 C 0 km/h
33 26-03-2019 02:40:00 4.4 C 6.2 g/m*3 4.4 C 0 km/h
34 26-03-2019 02:45:00 4.4 C 6.2 g/m*3 4.4 C 0 km/h
35 26-03-2019 02:50:00 4.4 C 6.2 g/m*3 4.4 C 0 km/h
36 26-03-2019 02:55:00 4.4 C 6.2 g/m*3 4.4 C 1.6 km/h
37 26-03-2019 03:00:00 4.5 C 6.24 g/m*3 4.5 C 1.6 km/h
38 26-03-2019 03:05:00 4.5 C 6.24 g/m*3 4.5 C 0 km/h
39 26-03-2019 03:10:00 4.6 C 6.29 g/m*3 4.6 C 0 km/h
40 26-03-2019 03:15:00 4.6 C 6.29 g/m*3 4.6 C 0 km/h
41 26-03-2019 03:20:00 4.6 C 6.29 g/m*3 4.6 C 0 km/h
42 26-03-2019 03:25:00 4.6 C 6.29 g/m*3 4.6 C 1.6 km/h
43 26-03-2019 03:30:00 4.6 C 6.29 g/m*3 4.6 C 3.2 km/h
44 26-03-2019 03:35:00 4.7 C 6.33 g/m*3 4.7 C 0 km/h
45 26-03-2019 03:40:00 4.7 C 6.33 g/m*3 4.7 C 1.6 km/h
46 26-03-2019 03:45:00 4.7 C 6.33 g/m*3 4.7 C 0 km/h
47 26-03-2019 03:50:00 4.8 C 6.37 g/m*3 4.8 C 0 km/h
48 26-03-2019 03:55:00 4.8 C 6.37 g/m*3 4.8 C 0 km/h
49 26-03-2019 04:00:00 4.8 C 6.37 g/m*3 4.8 C 0 km/h
50 26-03-2019 04:05:00 4.8 C 6.37 g/m*3 4.8 C 1.6 km/h
Sensor: Nr:Datum:Temp:Abs-Feuchte:Windchill:Wind:
Aussen-T/F 51 26-03-2019 04:10:00 4.8 C 6.37 g/m*3 4.8 C 0 km/h
52 26-03-2019 04:15:00 4.8 C 6.37 g/m*3 4.8 C 3.2 km/h
53 26-03-2019 04:20:00 4.8 C 6.37 g/m*3 4.8 C 0 km/h
54 26-03-2019 04:25:00 4.9 C 6.41 g/m*3 4.9 C 1.6 km/h
55 26-03-2019 04:30:00 4.9 C 6.41 g/m*3 4.9 C 1.6 km/h
56 26-03-2019 04:35:00 5 C 6.46 g/m*3 5 C 1.6 km/h
57 26-03-2019 04:40:00 5 C 6.46 g/m*3 5 C 0 km/h
58 26-03-2019 04:45:00 5 C 6.46 g/m*3 5 C 4.8 km/h
59 26-03-2019 04:50:00 5.1 C 6.5 g/m*3 5.1 C 1.6 km/h
60 26-03-2019 04:55:00 5.1 C 6.5 g/m*3 5.1 C 0 km/h
61 26-03-2019 05:00:00 5.1 C 6.43 g/m*3 5.1 C 1.6 km/h
62 26-03-2019 05:05:00 5 C 6.39 g/m*3 5 C 3.2 km/h
63 26-03-2019 05:10:00 5 C 6.39 g/m*3 5 C 3.2 km/h
64 26-03-2019 05:15:00 5 C 6.39 g/m*3 3.59 C 6.4 km/h
65 26-03-2019 05:20:00 5 C 6.39 g/m*3 5 C 4.8 km/h
66 26-03-2019 05:25:00 5 C 6.39 g/m*3 5 C 3.2 km/h
67 26-03-2019 05:30:00 5 C 6.39 g/m*3 5 C 3.2 km/h
68 26-03-2019 05:35:00 5 C 6.39 g/m*3 3.59 C 6.4 km/h
69 26-03-2019 05:40:00 5 C 6.39 g/m*3 5 C 0 km/h
70 26-03-2019 05:45:00 5 C 6.32 g/m*3 5 C 0 km/h
71 26-03-2019 05:50:00 5 C 6.32 g/m*3 5 C 0 km/h
72 26-03-2019 05:55:00 5 C 6.32 g/m*3 5 C 3.2 km/h
73 26-03-2019 06:00:00 5 C 6.32 g/m*3 5 C 3.2 km/h
74 26-03-2019 06:05:00 4.9 C 6.28 g/m*3 4.9 C 3.2 km/h
75 26-03-2019 06:10:00 4.9 C 6.28 g/m*3 4.9 C 0 km/h
Sensor: Nr:Datum:Temp:Abs-Feuchte:Windchill:Wind:
Aussen-T/F 76 26-03-2019 06:15:00 4.9 C 6.21 g/m*3 3.48 C 6.4 km/h
77 26-03-2019 06:20:00 4.9 C 6.21 g/m*3 4.9 C 3.2 km/h
78 26-03-2019 06:25:00 5 C 6.25 g/m*3 3.11 C 8.1 km/h
79 26-03-2019 06:30:00 5 C 6.18 g/m*3 3.59 C 6.4 km/h
80 26-03-2019 06:35:00 5 C 6.18 g/m*3 5 C 1.6 km/h
81 26-03-2019 06:40:00 5.1 C 6.22 g/m*3 5.1 C 1.6 km/h
82 26-03-2019 06:45:00 5.1 C 6.22 g/m*3 5.1 C 1.6 km/h
83 26-03-2019 06:50:00 5.1 C 6.22 g/m*3 5.1 C 0 km/h
84 26-03-2019 06:55:00 5 C 6.18 g/m*3 5 C 0 km/h
85 26-03-2019 07:00:00 5 C 6.18 g/m*3 5 C 1.6 km/h
86 26-03-2019 07:05:00 5 C 6.18 g/m*3 5 C 3.2 km/h
87 26-03-2019 07:10:00 5 C 6.18 g/m*3 5 C 1.6 km/h
88 26-03-2019 07:15:00 5 C 6.12 g/m*3 5 C 4.8 km/h
89 26-03-2019 07:20:00 5 C 6.12 g/m*3 5 C 1.6 km/h
90 26-03-2019 07:25:00 5.1 C 6.16 g/m*3 5.1 C 0 km/h
91 26-03-2019 07:30:00 5.1 C 6.16 g/m*3 5.1 C 1.6 km/h
92 26-03-2019 07:35:00 5.1 C 6.16 g/m*3 5.1 C 3.2 km/h
93 26-03-2019 07:40:00 5.1 C 6.16 g/m*3 5.1 C 1.6 km/h
94 26-03-2019 07:45:00 5.1 C 6.16 g/m*3 5.1 C 1.6 km/h
95 26-03-2019 07:50:00 5.1 C 6.09 g/m*3 5.1 C 4.8 km/h
96 26-03-2019 07:55:00 5.2 C 6.13 g/m*3 5.2 C 0 km/h
97 26-03-2019 08:00:00 5.2 C 6.13 g/m*3 5.2 C 0 km/h
98 26-03-2019 08:05:00 5.2 C 6.06 g/m*3 3.82 C 6.4 km/h
99 26-03-2019 08:10:00 5.3 C 6.03 g/m*3 3.46 C 8.1 km/h
100 26-03-2019 08:15:00 5.3 C 5.96 g/m*3 5.3 C 1.6 km/h
Sensor: Nr:Datum:Temp:Abs-Feuchte:Windchill:Wind:
Aussen-T/F 101 26-03-2019 08:20:00 5.4 C 5.93 g/m*3 4.06 C 6.4 km/h
102 26-03-2019 08:25:00 5.6 C 6.01 g/m*3 5.6 C 4.8 km/h
103 26-03-2019 08:30:00 5.6 C 6.01 g/m*3 5.6 C 4.8 km/h
104 26-03-2019 08:35:00 5.7 C 5.98 g/m*3 3.93 C 8.1 km/h
105 26-03-2019 08:40:00 5.7 C 5.91 g/m*3 5.7 C 4.8 km/h
106 26-03-2019 08:45:00 5.8 C 6.02 g/m*3 4.52 C 6.4 km/h
107 26-03-2019 08:50:00 5.9 C 5.98 g/m*3 4.63 C 6.4 km/h
108 26-03-2019 08:55:00 5.9 C 5.98 g/m*3 5.9 C 1.6 km/h
109 26-03-2019 09:00:00 6.1 C 6.14 g/m*3 4.4 C 8.1 km/h
110 26-03-2019 09:05:00 6.1 C 5.99 g/m*3 4.4 C 8.1 km/h
111 26-03-2019 09:10:00 6.1 C 5.84 g/m*3 3.72 C 11.3 km/h
112 26-03-2019 09:15:00 6.1 C 5.84 g/m*3 4.04 C 9.7 km/h
113 26-03-2019 09:20:00 6.1 C 5.77 g/m*3 4.04 C 9.7 km/h
114 26-03-2019 09:25:00 6.1 C 5.77 g/m*3 4.04 C 9.7 km/h
115 26-03-2019 09:30:00 6.2 C 5.88 g/m*3 6.2 C 3.2 km/h
116 26-03-2019 09:35:00 6.2 C 5.88 g/m*3 4.98 C 6.4 km/h
117 26-03-2019 09:40:00 6.3 C 5.85 g/m*3 6.3 C 1.6 km/h
118 26-03-2019 09:45:00 6.4 C 5.96 g/m*3 6.4 C 4.8 km/h
119 26-03-2019 09:50:00 6.4 C 5.89 g/m*3 4.39 C 9.7 km/h
120 26-03-2019 09:55:00 6.6 C 6.04 g/m*3 4.99 C 8.1 km/h
121 26-03-2019 10:00:00 6.6 C 6.04 g/m*3 6.6 C 4.8 km/h
122 26-03-2019 10:05:00 6.7 C 5.93 g/m*3 4.44 C 11.3 km/h
123 26-03-2019 10:10:00 6.7 C 6 g/m*3 4.44 C 11.3 km/h
124 26-03-2019 10:15:00 6.8 C 6.04 g/m*3 4.87 C 9.7 km/h
125 26-03-2019 10:20:00 6.9 C 6 g/m*3 3.73 C 17.7 km/h
Sensor: Nr:Datum:Temp:Abs-Feuchte:Windchill:Wind:
Aussen-T/F 126 26-03-2019 10:25:00 7 C 5.89 g/m*3 3.86 C 17.7 km/h
127 26-03-2019 10:30:00 7.1 C 5.93 g/m*3 4.65 C 12.9 km/h
128 26-03-2019 10:35:00 7.2 C 5.89 g/m*3 4.77 C 12.9 km/h
129 26-03-2019 10:40:00 7.2 C 5.89 g/m*3 5.69 C 8.1 km/h
130 26-03-2019 10:45:00 7.2 C 5.81 g/m*3 4.77 C 12.9 km/h
131 26-03-2019 10:50:00 7.2 C 5.73 g/m*3 5.69 C 8.1 km/h
132 26-03-2019 10:55:00 7.2 C 5.81 g/m*3 5.69 C 8.1 km/h
133 26-03-2019 11:00:00 7.2 C 5.73 g/m*3 5.35 C 9.7 km/h
134 26-03-2019 11:05:00 7.1 C 5.69 g/m*3 5.23 C 9.7 km/h
135 26-03-2019 11:10:00 7.1 C 5.69 g/m*3 6.02 C 6.4 km/h
136 26-03-2019 11:15:00 7.1 C 5.77 g/m*3 5.23 C 9.7 km/h
137 26-03-2019 11:20:00 7.1 C 5.85 g/m*3 5.23 C 9.7 km/h
138 26-03-2019 11:25:00 6.9 C 5.54 g/m*3 5.34 C 8.1 km/h
139 26-03-2019 11:30:00 7 C 5.58 g/m*3 5.9 C 6.4 km/h
140 26-03-2019 11:35:00 7.2 C 5.57 g/m*3 6.13 C 6.4 km/h
141 26-03-2019 11:40:00 7.3 C 5.61 g/m*3 7.3 C 4.8 km/h
142 26-03-2019 11:45:00 7.6 C 5.56 g/m*3 5.82 C 9.7 km/h
143 26-03-2019 11:50:00 7.7 C 5.59 g/m*3 5.65 C 11.3 km/h
144 26-03-2019 11:55:00 7.9 C 5.75 g/m*3 6.18 C 9.7 km/h
145 26-03-2019 12:00:00 8.1 C 5.82 g/m*3 6.42 C 9.7 km/h
146 26-03-2019 12:05:00 8.2 C 5.86 g/m*3 6.87 C 8.1 km/h
147 26-03-2019 12:10:00 8.3 C 5.9 g/m*3 6.37 C 11.3 km/h
148 26-03-2019 12:15:00 8.3 C 5.9 g/m*3 6.37 C 11.3 km/h
149 26-03-2019 12:20:00 8.3 C 5.82 g/m*3 6.66 C 9.7 km/h
150 26-03-2019 12:25:00 8.3 C 5.9 g/m*3 6.99 C 8.1 km/h
Sensor: Nr:Datum:Temp:Abs-Feuchte:Windchill:Wind:
Aussen-T/F 151 26-03-2019 12:30:00 8.4 C 5.94 g/m*3 6.78 C 9.7 km/h
152 26-03-2019 12:35:00 8.7 C 6.14 g/m*3 6.38 C 14.5 km/h
153 26-03-2019 12:40:00 8.8 C 6.01 g/m*3 6.72 C 12.9 km/h
154 26-03-2019 12:45:00 8.7 C 5.79 g/m*3 6.38 C 14.5 km/h
155 26-03-2019 12:50:00 8.7 C 5.97 g/m*3 6.6 C 12.9 km/h
156 26-03-2019 12:55:00 8.8 C 6.09 g/m*3 6.97 C 11.3 km/h
157 26-03-2019 13:00:00 8.9 C 6.04 g/m*3 7.37 C 9.7 km/h
158 26-03-2019 13:05:00 9 C 5.64 g/m*3 6.36 C 17.7 km/h
159 26-03-2019 13:10:00 8.9 C 5.78 g/m*3 7.09 C 11.3 km/h
160 26-03-2019 13:15:00 8.7 C 5.53 g/m*3 6.6 C 12.9 km/h
161 26-03-2019 13:20:00 8.7 C 5.62 g/m*3 7.13 C 9.7 km/h
162 26-03-2019 13:25:00 8.7 C 5.88 g/m*3 7.46 C 8.1 km/h
163 26-03-2019 13:30:00 8.8 C 5.83 g/m*3 8.8 C 4.8 km/h
164 26-03-2019 13:35:00 8.9 C 5.78 g/m*3 7.37 C 9.7 km/h
165 26-03-2019 13:40:00 8.9 C 5.87 g/m*3 6.85 C 12.9 km/h
166 26-03-2019 13:45:00 8.9 C 5.78 g/m*3 6.85 C 12.9 km/h
167 26-03-2019 13:50:00 8.9 C 5.61 g/m*3 7.69 C 8.1 km/h
168 26-03-2019 13:55:00 8.9 C 5.78 g/m*3 7.37 C 9.7 km/h
169 26-03-2019 14:00:00 8.8 C 5.83 g/m*3 6.97 C 11.3 km/h
170 26-03-2019 14:05:00 8.9 C 5.61 g/m*3 7.09 C 11.3 km/h
171 26-03-2019 14:10:00 8.8 C 5.57 g/m*3 6.11 C 17.7 km/h
172 26-03-2019 14:15:00 8.9 C 5.69 g/m*3 6.85 C 12.9 km/h
173 26-03-2019 14:20:00 8.9 C 5.78 g/m*3 6.62 C 14.5 km/h
174 26-03-2019 14:25:00 9 C 5.73 g/m*3 6.97 C 12.9 km/h
175 26-03-2019 14:30:00 9.1 C 5.77 g/m*3 7.09 C 12.9 km/h
Sensor: Nr:Datum:Temp:Abs-Feuchte:Windchill:Wind:
Aussen-T/F 176 26-03-2019 14:35:00 8.9 C 5.61 g/m*3 6.62 C 14.5 km/h
177 26-03-2019 14:40:00 8.9 C 5.78 g/m*3 7.09 C 11.3 km/h
178 26-03-2019 14:45:00 8.8 C 5.57 g/m*3 6.72 C 12.9 km/h
179 26-03-2019 14:50:00 8.8 C 5.57 g/m*3 6.97 C 11.3 km/h
180 26-03-2019 14:55:00 8.7 C 5.71 g/m*3 7.87 C 6.4 km/h
181 26-03-2019 15:00:00 8.7 C 5.62 g/m*3 7.46 C 8.1 km/h
182 26-03-2019 15:05:00 8.7 C 5.88 g/m*3 7.13 C 9.7 km/h
183 26-03-2019 15:10:00 8.8 C 5.83 g/m*3 7.58 C 8.1 km/h
184 26-03-2019 15:15:00 8.9 C 5.78 g/m*3 7.69 C 8.1 km/h
185 26-03-2019 15:20:00 8.9 C 5.87 g/m*3 7.09 C 11.3 km/h
186 26-03-2019 15:25:00 8.9 C 5.87 g/m*3 7.69 C 8.1 km/h
187 26-03-2019 15:30:00 8.9 C 5.96 g/m*3 8.1 C 6.4 km/h
188 26-03-2019 15:35:00 9 C 5.91 g/m*3 7.21 C 11.3 km/h
189 26-03-2019 15:40:00 9.1 C 6.03 g/m*3 8.33 C 6.4 km/h
190 26-03-2019 15:45:00 9.2 C 5.89 g/m*3 8.05 C 8.1 km/h
191 26-03-2019 15:50:00 9.5 C 6.01 g/m*3 8.79 C 6.4 km/h
192 26-03-2019 15:55:00 9.8 C 5.94 g/m*3 8.75 C 8.1 km/h
193 26-03-2019 16:00:00 9.9 C 5.98 g/m*3 8.3 C 11.3 km/h
194 26-03-2019 16:05:00 9.9 C 5.79 g/m*3 8.06 C 12.9 km/h
195 26-03-2019 16:10:00 9.8 C 5.75 g/m*3 7.94 C 12.9 km/h
196 26-03-2019 16:15:00 9.7 C 5.9 g/m*3 7.82 C 12.9 km/h
197 26-03-2019 16:20:00 9.6 C 5.77 g/m*3 7.7 C 12.9 km/h
198 26-03-2019 16:25:00 9.5 C 5.92 g/m*3 7.82 C 11.3 km/h
199 26-03-2019 16:30:00 9.4 C 5.88 g/m*3 7.7 C 11.3 km/h
200 26-03-2019 16:35:00 9.4 C 5.79 g/m*3 7.24 C 14.5 km/h
Sensor: Nr:Datum:Temp:Abs-Feuchte:Windchill:Wind:
Aussen-T/F 201 26-03-2019 16:40:00 9.3 C 5.93 g/m*3 7.58 C 11.3 km/h
202 26-03-2019 16:45:00 9.2 C 5.89 g/m*3 7.73 C 9.7 km/h
203 26-03-2019 16:50:00 9.2 C 6.07 g/m*3 6.99 C 14.5 km/h
204 26-03-2019 16:55:00 9 C 5.99 g/m*3 6.75 C 14.5 km/h
205 26-03-2019 17:00:00 8.8 C 6.01 g/m*3 6.97 C 11.3 km/h
206 26-03-2019 17:05:00 8.7 C 6.05 g/m*3 7.87 C 6.4 km/h
207 26-03-2019 17:10:00 8.6 C 6.02 g/m*3 7.34 C 8.1 km/h
208 26-03-2019 17:15:00 8.5 C 6.06 g/m*3 6.9 C 9.7 km/h
209 26-03-2019 17:20:00 8.4 C 6.11 g/m*3 7.52 C 6.4 km/h
210 26-03-2019 17:25:00 8.4 C 6.02 g/m*3 7.11 C 8.1 km/h
211 26-03-2019 17:30:00 8.4 C 6.11 g/m*3 6.78 C 9.7 km/h
212 26-03-2019 17:35:00 8.3 C 6.07 g/m*3 7.41 C 6.4 km/h
213 26-03-2019 17:40:00 8.3 C 5.98 g/m*3 5.68 C 16.1 km/h
214 26-03-2019 17:45:00 8.3 C 6.07 g/m*3 7.41 C 6.4 km/h
215 26-03-2019 17:50:00 8.3 C 6.07 g/m*3 8.3 C 4.8 km/h
216 26-03-2019 17:55:00 8.2 C 6.03 g/m*3 8.2 C 3.2 km/h
217 26-03-2019 18:00:00 8.2 C 6.11 g/m*3 8.2 C 1.6 km/h
218 26-03-2019 18:05:00 8.2 C 6.11 g/m*3 8.2 C 3.2 km/h
219 26-03-2019 18:10:00 8.2 C 6.11 g/m*3 8.2 C 3.2 km/h
220 26-03-2019 18:15:00 8.2 C 6.11 g/m*3 6.54 C 9.7 km/h
221 26-03-2019 18:20:00 8.2 C 6.11 g/m*3 6.87 C 8.1 km/h
222 26-03-2019 18:25:00 8.2 C 6.2 g/m*3 7.29 C 6.4 km/h
223 26-03-2019 18:30:00 8.2 C 6.2 g/m*3 7.29 C 6.4 km/h
224 26-03-2019 18:35:00 8.1 C 6.16 g/m*3 7.17 C 6.4 km/h
225 26-03-2019 18:40:00 8.1 C 6.24 g/m*3 6.75 C 8.1 km/h
Sensor: Nr:Datum:Temp:Abs-Feuchte:Windchill:Wind:
Aussen-T/F 226 26-03-2019 18:45:00 8 C 6.2 g/m*3 7.06 C 6.4 km/h
227 26-03-2019 18:50:00 7.9 C 6.16 g/m*3 7.9 C 4.8 km/h
228 26-03-2019 18:55:00 7.9 C 6.16 g/m*3 7.9 C 4.8 km/h
229 26-03-2019 19:00:00 7.9 C 6.16 g/m*3 6.94 C 6.4 km/h
230 26-03-2019 19:05:00 7.9 C 6.24 g/m*3 7.9 C 1.6 km/h
231 26-03-2019 19:10:00 7.9 C 6.32 g/m*3 7.9 C 1.6 km/h
232 26-03-2019 19:15:00 7.8 C 6.37 g/m*3 7.8 C 0 km/h
233 26-03-2019 19:20:00 7.7 C 6.24 g/m*3 7.7 C 0 km/h
234 26-03-2019 19:25:00 7.6 C 6.28 g/m*3 7.6 C 0 km/h
235 26-03-2019 19:30:00 7.6 C 6.36 g/m*3 7.6 C 0 km/h
236 26-03-2019 19:35:00 7.5 C 6.4 g/m*3 7.5 C 0 km/h
237 26-03-2019 19:40:00 7.4 C 6.44 g/m*3 7.4 C 0 km/h
238 26-03-2019 19:45:00 7.3 C 6.4 g/m*3 7.3 C 0 km/h
239 26-03-2019 19:50:00 7.3 C 6.4 g/m*3 7.3 C 0 km/h
240 26-03-2019 19:55:00 7.2 C 6.36 g/m*3 7.2 C 0 km/h
241 26-03-2019 20:00:00 7.2 C 6.44 g/m*3 7.2 C 0 km/h
242 26-03-2019 20:05:00 7.1 C 6.32 g/m*3 7.1 C 0 km/h
243 26-03-2019 20:10:00 7.1 C 6.4 g/m*3 7.1 C 0 km/h
244 26-03-2019 20:15:00 7.1 C 6.4 g/m*3 7.1 C 0 km/h
245 26-03-2019 20:20:00 7.1 C 6.4 g/m*3 7.1 C 0 km/h
246 26-03-2019 20:25:00 7.1 C 6.4 g/m*3 7.1 C 0 km/h
247 26-03-2019 20:30:00 7.1 C 6.4 g/m*3 7.1 C 0 km/h
248 26-03-2019 20:35:00 7.1 C 6.4 g/m*3 7.1 C 0 km/h
249 26-03-2019 20:40:00 7 C 6.35 g/m*3 7 C 0 km/h
250 26-03-2019 20:45:00 7 C 6.43 g/m*3 7 C 0 km/h
Sensor: Nr:Datum:Temp:Abs-Feuchte:Windchill:Wind:
Aussen-T/F 251 26-03-2019 20:50:00 7 C 6.43 g/m*3 7 C 3.2 km/h
252 26-03-2019 20:55:00 7 C 6.43 g/m*3 7 C 1.6 km/h
253 26-03-2019 21:00:00 6.9 C 6.39 g/m*3 6.9 C 1.6 km/h
254 26-03-2019 21:05:00 6.9 C 6.39 g/m*3 6.9 C 0 km/h
255 26-03-2019 21:10:00 6.9 C 6.39 g/m*3 6.9 C 0 km/h
256 26-03-2019 21:15:00 6.9 C 6.47 g/m*3 6.9 C 0 km/h
257 26-03-2019 21:20:00 6.9 C 6.47 g/m*3 6.9 C 0 km/h
258 26-03-2019 21:25:00 6.8 C 6.42 g/m*3 6.8 C 0 km/h
259 26-03-2019 21:30:00 6.8 C 6.42 g/m*3 6.8 C 0 km/h
260 26-03-2019 21:35:00 6.8 C 6.42 g/m*3 6.8 C 0 km/h
261 26-03-2019 21:40:00 6.8 C 6.5 g/m*3 6.8 C 0 km/h
262 26-03-2019 21:45:00 6.7 C 6.46 g/m*3 6.7 C 0 km/h
263 26-03-2019 21:50:00 6.7 C 6.46 g/m*3 6.7 C 0 km/h
264 26-03-2019 21:55:00 6.7 C 6.46 g/m*3 6.7 C 0 km/h
265 26-03-2019 22:00:00 6.6 C 6.42 g/m*3 6.6 C 0 km/h
266 26-03-2019 22:05:00 6.6 C 6.42 g/m*3 6.6 C 0 km/h
267 26-03-2019 22:10:00 6.6 C 6.49 g/m*3 6.6 C 0 km/h
268 26-03-2019 22:15:00 6.6 C 6.49 g/m*3 6.6 C 0 km/h
269 26-03-2019 22:20:00 6.6 C 6.49 g/m*3 6.6 C 0 km/h
270 26-03-2019 22:25:00 6.6 C 6.49 g/m*3 6.6 C 0 km/h
271 26-03-2019 22:30:00 6.5 C 6.45 g/m*3 6.5 C 0 km/h
272 26-03-2019 22:35:00 6.5 C 6.52 g/m*3 6.5 C 0 km/h
273 26-03-2019 22:40:00 6.4 C 6.48 g/m*3 6.4 C 0 km/h
274 26-03-2019 22:45:00 6.4 C 6.48 g/m*3 6.4 C 0 km/h
275 26-03-2019 22:50:00 6.4 C 6.48 g/m*3 6.4 C 0 km/h
Sensor: Nr:Datum:Temp:Abs-Feuchte:Windchill:Wind:
Aussen-T/F 276 26-03-2019 22:55:00 6.4 C 6.48 g/m*3 6.4 C 0 km/h
277 26-03-2019 23:00:00 6.3 C 6.44 g/m*3 6.3 C 0 km/h
278 26-03-2019 23:05:00 6.3 C 6.44 g/m*3 6.3 C 0 km/h
279 26-03-2019 23:10:00 6.3 C 6.44 g/m*3 6.3 C 0 km/h
280 26-03-2019 23:15:00 6.3 C 6.44 g/m*3 6.3 C 0 km/h
281 26-03-2019 23:20:00 6.3 C 6.44 g/m*3 6.3 C 0 km/h
282 26-03-2019 23:25:00 6.2 C 6.4 g/m*3 6.2 C 0 km/h
283 26-03-2019 23:30:00 6.2 C 6.4 g/m*3 6.2 C 0 km/h
284 26-03-2019 23:35:00 6.2 C 6.4 g/m*3 6.2 C 0 km/h
285 26-03-2019 23:40:00 6.2 C 6.47 g/m*3 6.2 C 0 km/h
286 26-03-2019 23:45:00 6.2 C 6.4 g/m*3 6.2 C 0 km/h
287 26-03-2019 23:50:00 6.2 C 6.4 g/m*3 6.2 C 1.6 km/h
288 26-03-2019 23:55:00 6.2 C 6.4 g/m*3 6.2 C 1.6 km/h
289 27-03-2019 00:00:00 6.2 C 6.47 g/m*3 6.2 C 1.6 km/h
290 27-03-2019 00:05:00 6.2 C 6.4 g/m*3 6.2 C 3.2 km/h
291 27-03-2019 00:10:00 6.2 C 6.4 g/m*3 6.2 C 3.2 km/h
292 27-03-2019 00:15:00 6.2 C 6.4 g/m*3 6.2 C 0 km/h
293 27-03-2019 00:20:00 6.2 C 6.4 g/m*3 6.2 C 0 km/h
294 27-03-2019 00:25:00 6.2 C 6.4 g/m*3 6.2 C 1.6 km/h
295 27-03-2019 00:30:00 6.1 C 6.36 g/m*3 6.1 C 0 km/h
296 27-03-2019 00:35:00 6.1 C 6.43 g/m*3 6.1 C 0 km/h
297 27-03-2019 00:40:00 6.1 C 6.43 g/m*3 6.1 C 0 km/h
298 27-03-2019 00:45:00 6 C 6.39 g/m*3 6 C 0 km/h
299 27-03-2019 00:50:00 5.9 C 6.35 g/m*3 5.9 C 0 km/h
300 27-03-2019 00:55:00 5.9 C 6.35 g/m*3 5.9 C 0 km/h
Sensor: Nr:Datum:Temp:Abs-Feuchte:Windchill:Wind:
Aussen-T/F 301 27-03-2019 01:00:00 5.8 C 6.3 g/m*3 5.8 C 0 km/h
302 27-03-2019 01:05:00 5.8 C 6.38 g/m*3 5.8 C 0 km/h
303 27-03-2019 01:10:00 5.8 C 6.38 g/m*3 5.8 C 0 km/h
304 27-03-2019 01:15:00 5.7 C 6.33 g/m*3 5.7 C 0 km/h
305 27-03-2019 01:20:00 5.7 C 6.33 g/m*3 5.7 C 0 km/h
306 27-03-2019 01:25:00 5.7 C 6.33 g/m*3 5.7 C 0 km/h
307 27-03-2019 01:30:00 5.6 C 6.29 g/m*3 5.6 C 0 km/h
308 27-03-2019 01:35:00 5.5 C 6.25 g/m*3 5.5 C 0 km/h
309 27-03-2019 01:40:00 5.4 C 6.21 g/m*3 5.4 C 0 km/h
310 27-03-2019 01:45:00 5.3 C 6.17 g/m*3 5.3 C 0 km/h
311 27-03-2019 01:50:00 5.3 C 6.24 g/m*3 5.3 C 0 km/h
312 27-03-2019 01:55:00 5.3 C 6.24 g/m*3 5.3 C 0 km/h
313 27-03-2019 02:00:00 5.3 C 6.24 g/m*3 5.3 C 0 km/h
314 27-03-2019 02:05:00 5.3 C 6.24 g/m*3 5.3 C 0 km/h
315 27-03-2019 02:10:00 5.3 C 6.24 g/m*3 5.3 C 0 km/h
316 27-03-2019 02:15:00 5.3 C 6.24 g/m*3 5.3 C 0 km/h
317 27-03-2019 02:20:00 5.3 C 6.24 g/m*3 5.3 C 0 km/h
318 27-03-2019 02:25:00 5.3 C 6.31 g/m*3 5.3 C 0 km/h
319 27-03-2019 02:30:00 5.3 C 6.31 g/m*3 5.3 C 0 km/h
320 27-03-2019 02:35:00 5.2 C 6.27 g/m*3 5.2 C 0 km/h
321 27-03-2019 02:40:00 5.2 C 6.27 g/m*3 5.2 C 0 km/h
322 27-03-2019 02:45:00 5.2 C 6.27 g/m*3 5.2 C 0 km/h
323 27-03-2019 02:50:00 5.2 C 6.2 g/m*3 5.2 C 0 km/h
324 27-03-2019 02:55:00 5.1 C 6.22 g/m*3 5.1 C 0 km/h
325 27-03-2019 03:00:00 5.1 C 6.16 g/m*3 5.1 C 0 km/h
Sensor: Nr:Datum:Temp:Abs-Feuchte:Windchill:Wind:
Aussen-T/F 326 27-03-2019 03:05:00 5 C 6.12 g/m*3 5 C 0 km/h
327 27-03-2019 03:10:00 5 C 6.18 g/m*3 5 C 0 km/h
328 27-03-2019 03:15:00 5 C 6.18 g/m*3 5 C 0 km/h
329 27-03-2019 03:20:00 5 C 6.18 g/m*3 5 C 0 km/h
330 27-03-2019 03:25:00 4.9 C 6.14 g/m*3 4.9 C 0 km/h
331 27-03-2019 03:30:00 4.9 C 6.14 g/m*3 4.9 C 0 km/h
332 27-03-2019 03:35:00 4.9 C 6.14 g/m*3 4.9 C 0 km/h
333 27-03-2019 03:40:00 4.9 C 6.14 g/m*3 4.9 C 0 km/h
334 27-03-2019 03:45:00 4.8 C 6.1 g/m*3 4.8 C 0 km/h
335 27-03-2019 03:50:00 4.7 C 6 g/m*3 4.7 C 0 km/h
336 27-03-2019 03:55:00 4.6 C 5.96 g/m*3 4.6 C 0 km/h
337 27-03-2019 04:00:00 4.5 C 5.98 g/m*3 4.5 C 0 km/h
338 27-03-2019 04:05:00 4.4 C 5.94 g/m*3 4.4 C 0 km/h
339 27-03-2019 04:10:00 4.3 C 5.9 g/m*3 4.3 C 0 km/h
340 27-03-2019 04:15:00 4.2 C 5.86 g/m*3 4.2 C 0 km/h
341 27-03-2019 04:20:00 4.2 C 5.86 g/m*3 4.2 C 0 km/h
342 27-03-2019 04:25:00 4.2 C 5.86 g/m*3 4.2 C 0 km/h
343 27-03-2019 04:30:00 4.1 C 5.82 g/m*3 4.1 C 0 km/h
344 27-03-2019 04:35:00 4 C 5.79 g/m*3 4 C 0 km/h
345 27-03-2019 04:40:00 3.8 C 5.71 g/m*3 3.8 C 0 km/h
346 27-03-2019 04:45:00 3.8 C 5.71 g/m*3 3.8 C 1.6 km/h
347 27-03-2019 04:50:00 3.7 C 5.67 g/m*3 3.7 C 0 km/h
348 27-03-2019 04:55:00 3.5 C 5.6 g/m*3 3.5 C 0 km/h
349 27-03-2019 05:00:00 3.3 C 5.52 g/m*3 3.3 C 0 km/h
350 27-03-2019 05:05:00 3.2 C 5.48 g/m*3 3.2 C 0 km/h
Sensor: Nr:Datum:Temp:Abs-Feuchte:Windchill:Wind:
Aussen-T/F 351 27-03-2019 05:10:00 3.2 C 5.54 g/m*3 3.2 C 1.6 km/h
352 27-03-2019 05:15:00 3.1 C 5.51 g/m*3 3.1 C 0 km/h
353 27-03-2019 05:20:00 3 C 5.47 g/m*3 3 C 1.6 km/h
354 27-03-2019 05:25:00 2.9 C 5.43 g/m*3 2.9 C 1.6 km/h
355 27-03-2019 05:30:00 2.9 C 5.43 g/m*3 2.9 C 0 km/h
356 27-03-2019 05:35:00 2.9 C 5.43 g/m*3 2.9 C 0 km/h
357 27-03-2019 05:40:00 2.8 C 5.46 g/m*3 2.8 C 1.6 km/h
358 27-03-2019 05:45:00 2.7 C 5.36 g/m*3 2.7 C 0 km/h
359 27-03-2019 05:50:00 2.6 C 5.32 g/m*3 2.6 C 0 km/h
360 27-03-2019 05:55:00 2.4 C 5.25 g/m*3 2.4 C 0 km/h
361 27-03-2019 06:00:00 2.4 C 5.31 g/m*3 2.4 C 0 km/h
362 27-03-2019 06:05:00 2.3 C 5.27 g/m*3 2.3 C 0 km/h
363 27-03-2019 06:10:00 2.2 C 5.24 g/m*3 2.2 C 0 km/h
364 27-03-2019 06:15:00 2.1 C 5.2 g/m*3 2.1 C 0 km/h
365 27-03-2019 06:20:00 2.1 C 5.2 g/m*3 2.1 C 0 km/h
366 27-03-2019 06:25:00 2.1 C 5.2 g/m*3 2.1 C 0 km/h
367 27-03-2019 06:30:00 2.1 C 5.2 g/m*3 2.1 C 0 km/h
368 27-03-2019 06:35:00 2.1 C 5.26 g/m*3 2.1 C 0 km/h
369 27-03-2019 06:40:00 2 C 5.22 g/m*3 2 C 0 km/h
370 27-03-2019 06:45:00 1.9 C 5.19 g/m*3 1.9 C 0 km/h
371 27-03-2019 06:50:00 1.9 C 5.19 g/m*3 1.9 C 0 km/h
372 27-03-2019 06:55:00 2 C 5.22 g/m*3 2 C 0 km/h
373 27-03-2019 07:00:00 2.1 C 5.26 g/m*3 2.1 C 0 km/h
374 27-03-2019 07:05:00 2.2 C 5.29 g/m*3 2.2 C 0 km/h
375 27-03-2019 07:10:00 2.2 C 5.29 g/m*3 2.2 C 0 km/h
Sensor: Nr:Datum:Temp:Abs-Feuchte:Windchill:Wind:
Aussen-T/F 376 27-03-2019 07:15:00 2.2 C 5.29 g/m*3 2.2 C 0 km/h
377 27-03-2019 07:20:00 2.3 C 5.33 g/m*3 2.3 C 0 km/h
378 27-03-2019 07:25:00 2.3 C 5.39 g/m*3 2.3 C 0 km/h
379 27-03-2019 07:30:00 2.5 C 5.46 g/m*3 2.5 C 0 km/h
380 27-03-2019 07:35:00 2.7 C 5.54 g/m*3 2.7 C 1.6 km/h
381 27-03-2019 07:40:00 2.9 C 5.61 g/m*3 2.9 C 0 km/h
382 27-03-2019 07:45:00 3.1 C 5.69 g/m*3 3.1 C 0 km/h
383 27-03-2019 07:50:00 3.3 C 5.76 g/m*3 3.3 C 0 km/h
384 27-03-2019 07:55:00 3.4 C 5.8 g/m*3 3.4 C 1.6 km/h
385 27-03-2019 08:00:00 3.6 C 5.88 g/m*3 3.6 C 3.2 km/h
386 27-03-2019 08:05:00 3.6 C 5.88 g/m*3 3.6 C 3.2 km/h
387 27-03-2019 08:10:00 3.7 C 5.92 g/m*3 3.7 C 0 km/h
388 27-03-2019 08:15:00 3.7 C 5.86 g/m*3 3.7 C 0 km/h
389 27-03-2019 08:20:00 3.7 C 5.86 g/m*3 3.7 C 0 km/h
390 27-03-2019 08:25:00 3.8 C 5.9 g/m*3 3.8 C 0 km/h
391 27-03-2019 08:30:00 3.8 C 5.96 g/m*3 3.8 C 0 km/h
392 27-03-2019 08:35:00 3.9 C 6 g/m*3 3.9 C 0 km/h
393 27-03-2019 08:40:00 4.1 C 6.02 g/m*3 4.1 C 0 km/h
394 27-03-2019 08:45:00 4.1 C 6.08 g/m*3 4.1 C 0 km/h
395 27-03-2019 08:50:00 4.2 C 6.12 g/m*3 4.2 C 0 km/h
396 27-03-2019 08:55:00 4.4 C 6.2 g/m*3 4.4 C 0 km/h
397 27-03-2019 09:00:00 4.6 C 6.29 g/m*3 4.6 C 3.2 km/h
398 27-03-2019 09:05:00 4.8 C 6.3 g/m*3 4.8 C 0 km/h
399 27-03-2019 09:10:00 4.9 C 6.35 g/m*3 4.9 C 0 km/h
400 27-03-2019 09:15:00 5.2 C 6.4 g/m*3 5.2 C 0 km/h
Sensor: Nr:Datum:Temp:Abs-Feuchte:Windchill:Wind:
Aussen-T/F 401 27-03-2019 09:20:00 5.4 C 6.49 g/m*3 5.4 C 0 km/h
402 27-03-2019 09:25:00 5.7 C 6.62 g/m*3 5.7 C 1.6 km/h
403 27-03-2019 09:30:00 5.8 C 6.59 g/m*3 5.8 C 0 km/h
404 27-03-2019 09:35:00 6.1 C 6.65 g/m*3 6.1 C 3.2 km/h
405 27-03-2019 09:40:00 6.3 C 6.74 g/m*3 6.3 C 1.6 km/h
406 27-03-2019 09:45:00 6.7 C 6.76 g/m*3 6.7 C 3.2 km/h
407 27-03-2019 09:50:00 6.9 C 6.85 g/m*3 6.9 C 4.8 km/h
408 27-03-2019 09:55:00 7.2 C 6.91 g/m*3 7.2 C 1.6 km/h
409 27-03-2019 10:00:00 7.4 C 6.92 g/m*3 7.4 C 0 km/h
410 27-03-2019 10:05:00 7.7 C 6.97 g/m*3 7.7 C 3.2 km/h
411 27-03-2019 10:10:00 7.8 C 6.86 g/m*3 7.8 C 1.6 km/h
412 27-03-2019 10:15:00 7.9 C 6.9 g/m*3 7.9 C 0 km/h
413 27-03-2019 10:20:00 7.9 C 6.9 g/m*3 7.9 C 1.6 km/h
414 27-03-2019 10:25:00 8.1 C 6.99 g/m*3 8.1 C 3.2 km/h
415 27-03-2019 10:30:00 8.2 C 6.95 g/m*3 8.2 C 4.8 km/h
416 27-03-2019 10:35:00 8.3 C 7 g/m*3 8.3 C 4.8 km/h
417 27-03-2019 10:40:00 8.5 C 7.09 g/m*3 8.5 C 4.8 km/h
418 27-03-2019 10:45:00 8.6 C 7.13 g/m*3 8.6 C 3.2 km/h
419 27-03-2019 10:50:00 8.7 C 7.09 g/m*3 8.7 C 3.2 km/h
420 27-03-2019 10:55:00 8.9 C 7.18 g/m*3 8.9 C 4.8 km/h
421 27-03-2019 11:00:00 9 C 6.96 g/m*3 8.21 C 6.4 km/h
422 27-03-2019 11:05:00 9 C 6.96 g/m*3 9 C 1.6 km/h
423 27-03-2019 11:10:00 9 C 6.88 g/m*3 9 C 4.8 km/h
424 27-03-2019 11:15:00 9 C 6.96 g/m*3 9 C 1.6 km/h
425 27-03-2019 11:20:00 9 C 6.79 g/m*3 7.81 C 8.1 km/h
Sensor: Nr:Datum:Temp:Abs-Feuchte:Windchill:Wind:
Aussen-T/F 426 27-03-2019 11:25:00 9 C 6.7 g/m*3 7.81 C 8.1 km/h
427 27-03-2019 11:30:00 9.1 C 6.83 g/m*3 8.33 C 6.4 km/h
428 27-03-2019 11:35:00 9.1 C 6.74 g/m*3 9.1 C 4.8 km/h
429 27-03-2019 11:40:00 9.3 C 6.83 g/m*3 9.3 C 4.8 km/h
430 27-03-2019 11:45:00 9.4 C 6.78 g/m*3 8.68 C 6.4 km/h
431 27-03-2019 11:50:00 9.4 C 6.6 g/m*3 8.68 C 6.4 km/h
432 27-03-2019 11:55:00 9.3 C 6.56 g/m*3 8.16 C 8.1 km/h
433 27-03-2019 12:00:00 9.3 C 6.65 g/m*3 9.3 C 4.8 km/h
434 27-03-2019 12:05:00 9.3 C 6.56 g/m*3 9.3 C 4.8 km/h
435 27-03-2019 12:10:00 9.4 C 6.42 g/m*3 9.4 C 3.2 km/h
436 27-03-2019 12:15:00 9.5 C 6.46 g/m*3 9.5 C 4.8 km/h
437 27-03-2019 12:20:00 9.7 C 6.64 g/m*3 9.7 C 3.2 km/h
438 27-03-2019 12:25:00 9.9 C 6.63 g/m*3 9.9 C 3.2 km/h
439 27-03-2019 12:30:00 10.2 C 6.76 g/m*3 9.6 C 6.4 km/h
440 27-03-2019 12:35:00 10.4 C 6.75 g/m*3 10.4 C 4.8 km/h
441 27-03-2019 12:40:00 10.6 C 6.54 g/m*3 9.69 C 8.1 km/h
442 27-03-2019 12:45:00 10.8 C 6.62 g/m*3 9.64 C 9.7 km/h
443 27-03-2019 12:50:00 10.8 C 6.23 g/m*3 9.38 C 11.3 km/h
444 27-03-2019 12:55:00 10.7 C 6.29 g/m*3 9.52 C 9.7 km/h
445 27-03-2019 13:00:00 10.6 C 6.34 g/m*3 9.69 C 8.1 km/h
446 27-03-2019 13:05:00 10.6 C 6.15 g/m*3 10.06 C 6.4 km/h
447 27-03-2019 13:10:00 10.7 C 6.29 g/m*3 9.52 C 9.7 km/h
448 27-03-2019 13:15:00 11.1 C 6.25 g/m*3 11.1 C 6.4 km/h
449 27-03-2019 13:20:00 11.2 C 6.28 g/m*3 11.2 C 9.7 km/h
450 27-03-2019 13:25:00 11.1 C 6.14 g/m*3 11.1 C 11.3 km/h
Sensor: Nr:Datum:Temp:Abs-Feuchte:Windchill:Wind:
Aussen-T/F 451 27-03-2019 13:30:00 10.8 C 6.23 g/m*3 9.38 C 11.3 km/h
452 27-03-2019 13:35:00 10.7 C 6.38 g/m*3 9.52 C 9.7 km/h
453 27-03-2019 13:40:00 10.7 C 6.38 g/m*3 9.26 C 11.3 km/h
454 27-03-2019 13:45:00 10.6 C 6.34 g/m*3 9.14 C 11.3 km/h
455 27-03-2019 13:50:00 10.7 C 6.29 g/m*3 9.52 C 9.7 km/h
456 27-03-2019 13:55:00 10.8 C 6.33 g/m*3 9.38 C 11.3 km/h
457 27-03-2019 14:00:00 10.8 C 6.23 g/m*3 9.64 C 9.7 km/h
458 27-03-2019 14:05:00 10.7 C 6.19 g/m*3 9.81 C 8.1 km/h
459 27-03-2019 14:10:00 10.8 C 6.23 g/m*3 10.29 C 6.4 km/h
460 27-03-2019 14:15:00 10.8 C 6.23 g/m*3 10.8 C 1.6 km/h
461 27-03-2019 14:20:00 10.8 C 6.03 g/m*3 10.29 C 6.4 km/h
462 27-03-2019 14:25:00 10.9 C 6.17 g/m*3 10.41 C 6.4 km/h
463 27-03-2019 14:30:00 10.9 C 6.17 g/m*3 10.41 C 6.4 km/h
464 27-03-2019 14:35:00 11.1 C 5.94 g/m*3 11.1 C 8.1 km/h
465 27-03-2019 14:40:00 11.3 C 6.12 g/m*3 11.3 C 8.1 km/h
466 27-03-2019 14:45:00 11.5 C 6.09 g/m*3 11.5 C 4.8 km/h
467 27-03-2019 14:50:00 11.6 C 6.13 g/m*3 11.6 C 1.6 km/h
468 27-03-2019 14:55:00 11.4 C 5.95 g/m*3 11.4 C 9.7 km/h
469 27-03-2019 15:00:00 11.3 C 6.22 g/m*3 11.3 C 4.8 km/h
470 27-03-2019 15:05:00 11.3 C 6.22 g/m*3 11.3 C 3.2 km/h
471 27-03-2019 15:10:00 11.3 C 6.02 g/m*3 11.3 C 6.4 km/h
472 27-03-2019 15:15:00 11.2 C 5.98 g/m*3 11.2 C 3.2 km/h
473 27-03-2019 15:20:00 11.1 C 5.74 g/m*3 11.1 C 3.2 km/h
474 27-03-2019 15:25:00 11.1 C 5.94 g/m*3 11.1 C 11.3 km/h
475 27-03-2019 15:30:00 11.1 C 6.14 g/m*3 11.1 C 11.3 km/h
Sensor: Nr:Datum:Temp:Abs-Feuchte:Windchill:Wind:
Aussen-T/F 476 27-03-2019 15:35:00 11 C 6.11 g/m*3 9.88 C 9.7 km/h
477 27-03-2019 15:40:00 11 C 6.21 g/m*3 9.88 C 9.7 km/h
478 27-03-2019 15:45:00 11 C 6.11 g/m*3 10.52 C 6.4 km/h
479 27-03-2019 15:50:00 11 C 6.11 g/m*3 9.63 C 11.3 km/h
480 27-03-2019 15:55:00 10.9 C 6.07 g/m*3 9.76 C 9.7 km/h
481 27-03-2019 16:00:00 11 C 6.11 g/m*3 10.16 C 8.1 km/h
482 27-03-2019 16:05:00 11 C 6.11 g/m*3 10.52 C 6.4 km/h
483 27-03-2019 16:10:00 11.1 C 6.14 g/m*3 11.1 C 6.4 km/h
484 27-03-2019 16:15:00 11.1 C 6.04 g/m*3 11.1 C 9.7 km/h
485 27-03-2019 16:20:00 11.1 C 5.94 g/m*3 11.1 C 4.8 km/h
486 27-03-2019 16:25:00 11.1 C 5.84 g/m*3 11.1 C 4.8 km/h
487 27-03-2019 16:30:00 11.3 C 6.22 g/m*3 11.3 C 4.8 km/h
488 27-03-2019 16:35:00 11.6 C 6.03 g/m*3 11.6 C 8.1 km/h
489 27-03-2019 16:40:00 11.4 C 5.95 g/m*3 11.4 C 4.8 km/h
490 27-03-2019 16:45:00 11.4 C 6.06 g/m*3 11.4 C 4.8 km/h
491 27-03-2019 16:50:00 11.4 C 5.95 g/m*3 11.4 C 8.1 km/h
492 27-03-2019 16:55:00 11.3 C 5.81 g/m*3 11.3 C 4.8 km/h
493 27-03-2019 17:00:00 11.2 C 5.88 g/m*3 11.2 C 4.8 km/h
494 27-03-2019 17:05:00 11.2 C 5.88 g/m*3 11.2 C 6.4 km/h
495 27-03-2019 17:10:00 11.2 C 5.78 g/m*3 11.2 C 4.8 km/h
496 27-03-2019 17:15:00 11.2 C 5.88 g/m*3 11.2 C 4.8 km/h
497 27-03-2019 17:20:00 11.1 C 5.94 g/m*3 11.1 C 4.8 km/h
498 27-03-2019 17:25:00 11 C 6.01 g/m*3 10.52 C 6.4 km/h
499 27-03-2019 17:30:00 10.9 C 6.07 g/m*3 10.41 C 6.4 km/h
500 27-03-2019 17:35:00 10.8 C 6.03 g/m*3 10.8 C 4.8 km/h
Sensor: Nr:Datum:Temp:Abs-Feuchte:Windchill:Wind:
Aussen-T/F 501 27-03-2019 17:40:00 10.7 C 5.99 g/m*3 10.18 C 6.4 km/h
502 27-03-2019 17:45:00 10.7 C 6.09 g/m*3 10.18 C 6.4 km/h
503 27-03-2019 17:50:00 10.8 C 6.13 g/m*3 10.8 C 1.6 km/h
504 27-03-2019 17:55:00 10.9 C 6.17 g/m*3 10.41 C 6.4 km/h
505 27-03-2019 18:00:00 10.8 C 6.13 g/m*3 10.8 C 1.6 km/h
506 27-03-2019 18:05:00 10.7 C 6.09 g/m*3 10.7 C 0 km/h
507 27-03-2019 18:10:00 10.7 C 6.48 g/m*3 10.7 C 0 km/h
508 27-03-2019 18:15:00 10.5 C 6.4 g/m*3 10.5 C 1.6 km/h
509 27-03-2019 18:20:00 10.3 C 6.51 g/m*3 10.3 C 0 km/h
510 27-03-2019 18:25:00 10.1 C 6.71 g/m*3 10.1 C 0 km/h
511 27-03-2019 18:30:00 9.8 C 6.49 g/m*3 9.8 C 0 km/h
512 27-03-2019 18:35:00 9.4 C 6.42 g/m*3 9.4 C 0 km/h
513 27-03-2019 18:40:00 9.2 C 6.25 g/m*3 9.2 C 1.6 km/h
514 27-03-2019 18:45:00 9.1 C 6.39 g/m*3 9.1 C 0 km/h
515 27-03-2019 18:50:00 8.8 C 6.35 g/m*3 8.8 C 1.6 km/h
516 27-03-2019 18:55:00 8.6 C 6.19 g/m*3 8.6 C 3.2 km/h
517 27-03-2019 19:00:00 8.5 C 6.23 g/m*3 8.5 C 0 km/h
518 27-03-2019 19:05:00 8.3 C 6.32 g/m*3 8.3 C 3.2 km/h
519 27-03-2019 19:10:00 8.2 C 6.36 g/m*3 8.2 C 3.2 km/h
520 27-03-2019 19:15:00 7.9 C 6.24 g/m*3 7.9 C 3.2 km/h
521 27-03-2019 19:20:00 7.8 C 6.28 g/m*3 7.8 C 4.8 km/h
522 27-03-2019 19:25:00 7.6 C 6.2 g/m*3 7.6 C 4.8 km/h
523 27-03-2019 19:30:00 7.5 C 6.16 g/m*3 7.5 C 1.6 km/h
524 27-03-2019 19:35:00 7.4 C 6.2 g/m*3 7.4 C 3.2 km/h
525 27-03-2019 19:40:00 7.3 C 6.24 g/m*3 7.3 C 4.8 km/h
Sensor: Nr:Datum:Temp:Abs-Feuchte:Windchill:Wind:
Aussen-T/F 526 27-03-2019 19:45:00 7.2 C 6.2 g/m*3 7.2 C 4.8 km/h
527 27-03-2019 19:50:00 7.1 C 6.24 g/m*3 7.1 C 4.8 km/h
528 27-03-2019 19:55:00 6.9 C 6.16 g/m*3 6.9 C 3.2 km/h
529 27-03-2019 20:00:00 6.8 C 6.19 g/m*3 6.8 C 4.8 km/h
530 27-03-2019 20:05:00 6.6 C 6.11 g/m*3 6.6 C 3.2 km/h
531 27-03-2019 20:10:00 6.7 C 6.08 g/m*3 6.7 C 3.2 km/h
532 27-03-2019 20:15:00 6.7 C 6.15 g/m*3 6.7 C 3.2 km/h
533 27-03-2019 20:20:00 6.6 C 6.11 g/m*3 6.6 C 1.6 km/h
534 27-03-2019 20:25:00 6.6 C 6.11 g/m*3 6.6 C 0 km/h
535 27-03-2019 20:30:00 6.4 C 6.11 g/m*3 5.21 C 6.4 km/h
536 27-03-2019 20:35:00 6.4 C 6.11 g/m*3 6.4 C 4.8 km/h
537 27-03-2019 20:40:00 6.3 C 6.07 g/m*3 6.3 C 4.8 km/h
538 27-03-2019 20:45:00 6.3 C 6.14 g/m*3 6.3 C 4.8 km/h
539 27-03-2019 20:50:00 6.3 C 6.14 g/m*3 6.3 C 4.8 km/h
540 27-03-2019 20:55:00 6.2 C 6.1 g/m*3 6.2 C 4.8 km/h
541 27-03-2019 21:00:00 6.2 C 6.18 g/m*3 6.2 C 3.2 km/h
542 27-03-2019 21:05:00 6.1 C 6.14 g/m*3 6.1 C 3.2 km/h
543 27-03-2019 21:10:00 6 C 6.1 g/m*3 6 C 0 km/h
544 27-03-2019 21:15:00 5.9 C 6.06 g/m*3 5.9 C 0 km/h
545 27-03-2019 21:20:00 5.8 C 6.02 g/m*3 5.8 C 0 km/h
546 27-03-2019 21:25:00 5.7 C 6.05 g/m*3 5.7 C 0 km/h
547 27-03-2019 21:30:00 5.6 C 6.01 g/m*3 5.6 C 0 km/h
548 27-03-2019 21:35:00 5.5 C 5.97 g/m*3 5.5 C 0 km/h
549 27-03-2019 21:40:00 5.5 C 6.04 g/m*3 5.5 C 1.6 km/h
550 27-03-2019 21:45:00 5.4 C 6 g/m*3 5.4 C 0 km/h
Sensor: Nr:Datum:Temp:Abs-Feuchte:Windchill:Wind:
Aussen-T/F 551 27-03-2019 21:50:00 5.3 C 5.96 g/m*3 5.3 C 4.8 km/h
552 27-03-2019 21:55:00 5.3 C 5.96 g/m*3 5.3 C 3.2 km/h
553 27-03-2019 22:00:00 5.2 C 5.92 g/m*3 5.2 C 4.8 km/h
554 27-03-2019 22:05:00 5.2 C 5.99 g/m*3 5.2 C 0 km/h
555 27-03-2019 22:10:00 5.1 C 5.88 g/m*3 5.1 C 0 km/h
556 27-03-2019 22:15:00 5 C 5.84 g/m*3 5 C 0 km/h
557 27-03-2019 22:20:00 4.9 C 5.81 g/m*3 4.9 C 0 km/h
558 27-03-2019 22:25:00 4.8 C 5.77 g/m*3 4.8 C 0 km/h
559 27-03-2019 22:30:00 4.7 C 5.8 g/m*3 4.7 C 0 km/h
560 27-03-2019 22:35:00 4.6 C 5.76 g/m*3 4.6 C 0 km/h
561 27-03-2019 22:40:00 4.5 C 5.78 g/m*3 4.5 C 0 km/h
562 27-03-2019 22:45:00 4.4 C 5.75 g/m*3 4.4 C 0 km/h
563 27-03-2019 22:50:00 4.2 C 5.61 g/m*3 4.2 C 0 km/h
564 27-03-2019 22:55:00 4.1 C 5.63 g/m*3 4.1 C 0 km/h
565 27-03-2019 23:00:00 4 C 5.66 g/m*3 4 C 0 km/h
566 27-03-2019 23:05:00 3.9 C 5.62 g/m*3 3.9 C 0 km/h
567 27-03-2019 23:10:00 3.8 C 5.58 g/m*3 3.8 C 0 km/h
568 27-03-2019 23:15:00 3.7 C 5.55 g/m*3 3.7 C 0 km/h
569 27-03-2019 23:20:00 3.6 C 5.51 g/m*3 3.6 C 0 km/h
570 27-03-2019 23:25:00 3.4 C 5.5 g/m*3 3.4 C 0 km/h
571 27-03-2019 23:30:00 3.4 C 5.5 g/m*3 3.4 C 0 km/h
572 27-03-2019 23:35:00 3.3 C 5.46 g/m*3 3.3 C 0 km/h
573 27-03-2019 23:40:00 3.2 C 5.48 g/m*3 3.2 C 0 km/h
574 27-03-2019 23:45:00 3.2 C 5.48 g/m*3 3.2 C 0 km/h
575 27-03-2019 23:50:00 3.1 C 5.45 g/m*3 3.1 C 0 km/h
Sensor: Nr:Datum:Temp:Abs-Feuchte:Windchill:Wind:
Aussen-T/F 576 27-03-2019 23:55:00 3.1 C 5.45 g/m*3 3.1 C 0 km/h
577 28-03-2019 00:00:00 3 C 5.41 g/m*3 3 C 0 km/h
578 28-03-2019 00:05:00 3 C 5.41 g/m*3 3 C 0 km/h
579 28-03-2019 00:10:00 3 C 5.47 g/m*3 3 C 0 km/h
580 28-03-2019 00:15:00 2.9 C 5.43 g/m*3 2.9 C 0 km/h
581 28-03-2019 00:20:00 3 C 5.47 g/m*3 3 C 0 km/h
582 28-03-2019 00:25:00 2.9 C 5.43 g/m*3 2.9 C 0 km/h
583 28-03-2019 00:30:00 2.9 C 5.43 g/m*3 2.9 C 3.2 km/h
584 28-03-2019 00:35:00 2.9 C 5.43 g/m*3 2.9 C 3.2 km/h
585 28-03-2019 00:40:00 2.9 C 5.43 g/m*3 2.9 C 0 km/h
586 28-03-2019 00:45:00 2.9 C 5.43 g/m*3 2.9 C 0 km/h
587 28-03-2019 00:50:00 2.9 C 5.43 g/m*3 2.9 C 0 km/h
588 28-03-2019 00:55:00 2.8 C 5.4 g/m*3 2.8 C 0 km/h
589 28-03-2019 01:00:00 2.8 C 5.4 g/m*3 2.8 C 0 km/h
590 28-03-2019 01:05:00 2.7 C 5.36 g/m*3 2.7 C 0 km/h
591 28-03-2019 01:10:00 2.6 C 5.32 g/m*3 2.6 C 0 km/h
592 28-03-2019 01:15:00 2.5 C 5.29 g/m*3 2.5 C 0 km/h
593 28-03-2019 01:20:00 2.4 C 5.25 g/m*3 2.4 C 0 km/h
594 28-03-2019 01:25:00 2.5 C 5.29 g/m*3 2.5 C 0 km/h
595 28-03-2019 01:30:00 2.4 C 5.25 g/m*3 2.4 C 0 km/h
596 28-03-2019 01:35:00 2.3 C 5.22 g/m*3 2.3 C 0 km/h
597 28-03-2019 01:40:00 2.3 C 5.27 g/m*3 2.3 C 0 km/h
598 28-03-2019 01:45:00 2.4 C 5.31 g/m*3 2.4 C 0 km/h
599 28-03-2019 01:50:00 2.4 C 5.31 g/m*3 2.4 C 0 km/h
600 28-03-2019 01:55:00 2.4 C 5.31 g/m*3 2.4 C 0 km/h
Sensor: Nr:Datum:Temp:Abs-Feuchte:Windchill:Wind:
Aussen-T/F 601 28-03-2019 02:00:00 2.3 C 5.27 g/m*3 2.3 C 0 km/h
602 28-03-2019 02:05:00 2.2 C 5.24 g/m*3 2.2 C 0 km/h
603 28-03-2019 02:10:00 2.2 C 5.24 g/m*3 2.2 C 0 km/h
604 28-03-2019 02:15:00 2.1 C 5.2 g/m*3 2.1 C 0 km/h
605 28-03-2019 02:20:00 2 C 5.17 g/m*3 2 C 0 km/h
606 28-03-2019 02:25:00 2 C 5.17 g/m*3 2 C 0 km/h
607 28-03-2019 02:30:00 1.9 C 5.13 g/m*3 1.9 C 0 km/h
608 28-03-2019 02:35:00 1.9 C 5.13 g/m*3 1.9 C 0 km/h
609 28-03-2019 02:40:00 1.8 C 5.1 g/m*3 1.8 C 0 km/h
610 28-03-2019 02:45:00 1.8 C 5.1 g/m*3 1.8 C 0 km/h
611 28-03-2019 02:50:00 1.8 C 5.1 g/m*3 1.8 C 0 km/h
612 28-03-2019 02:55:00 1.7 C 5.06 g/m*3 1.7 C 0 km/h
613 28-03-2019 03:00:00 1.7 C 5.06 g/m*3 1.7 C 0 km/h
614 28-03-2019 03:05:00 1.7 C 5.06 g/m*3 1.7 C 0 km/h
615 28-03-2019 03:10:00 1.6 C 5.08 g/m*3 1.6 C 0 km/h
616 28-03-2019 03:15:00 1.6 C 5.08 g/m*3 1.6 C 0 km/h
617 28-03-2019 03:20:00 1.5 C 5.05 g/m*3 1.5 C 0 km/h
618 28-03-2019 03:25:00 1.6 C 5.08 g/m*3 1.6 C 0 km/h
619 28-03-2019 03:30:00 1.7 C 5.12 g/m*3 1.7 C 0 km/h
620 28-03-2019 03:35:00 1.8 C 5.15 g/m*3 1.8 C 0 km/h
621 28-03-2019 03:40:00 1.7 C 5.12 g/m*3 1.7 C 0 km/h
622 28-03-2019 03:45:00 1.6 C 5.08 g/m*3 1.6 C 0 km/h
623 28-03-2019 03:50:00 1.4 C 4.96 g/m*3 1.4 C 0 km/h
624 28-03-2019 03:55:00 1.4 C 5.01 g/m*3 1.4 C 0 km/h
625 28-03-2019 04:00:00 1.4 C 5.01 g/m*3 1.4 C 0 km/h
Sensor: Nr:Datum:Temp:Abs-Feuchte:Windchill:Wind:
Aussen-T/F 626 28-03-2019 04:05:00 1.6 C 5.08 g/m*3 1.6 C 0 km/h
627 28-03-2019 04:10:00 1.6 C 5.08 g/m*3 1.6 C 0 km/h
628 28-03-2019 04:15:00 1.5 C 5.05 g/m*3 1.5 C 0 km/h
629 28-03-2019 04:20:00 1.5 C 5.05 g/m*3 1.5 C 0 km/h
630 28-03-2019 04:25:00 1.4 C 5.01 g/m*3 1.4 C 0 km/h
631 28-03-2019 04:30:00 1.2 C 4.95 g/m*3 1.2 C 0 km/h
632 28-03-2019 04:35:00 1.2 C 4.95 g/m*3 1.2 C 1.6 km/h
633 28-03-2019 04:40:00 1.3 C 4.98 g/m*3 1.3 C 0 km/h
634 28-03-2019 04:45:00 1.3 C 4.98 g/m*3 1.3 C 0 km/h
635 28-03-2019 04:50:00 1.3 C 4.98 g/m*3 1.3 C 0 km/h
636 28-03-2019 04:55:00 1.2 C 4.95 g/m*3 1.2 C 0 km/h
637 28-03-2019 05:00:00 1.1 C 4.91 g/m*3 1.1 C 0 km/h
638 28-03-2019 05:05:00 1 C 4.88 g/m*3 1 C 0 km/h
639 28-03-2019 05:10:00 1 C 4.88 g/m*3 1 C 0 km/h
640 28-03-2019 05:15:00 1 C 4.88 g/m*3 1 C 0 km/h
641 28-03-2019 05:20:00 0.9 C 4.85 g/m*3 0.9 C 0 km/h
642 28-03-2019 05:25:00 0.9 C 4.85 g/m*3 0.9 C 0 km/h
643 28-03-2019 05:30:00 1 C 4.93 g/m*3 1 C 0 km/h
644 28-03-2019 05:35:00 1.2 C 5 g/m*3 1.2 C 0 km/h
645 28-03-2019 05:40:00 1.3 C 5.03 g/m*3 1.3 C 0 km/h
646 28-03-2019 05:45:00 1.4 C 5.07 g/m*3 1.4 C 0 km/h
647 28-03-2019 05:50:00 1.4 C 5.07 g/m*3 1.4 C 0 km/h
648 28-03-2019 05:55:00 1.4 C 5.07 g/m*3 1.4 C 0 km/h
649 28-03-2019 06:00:00 1.4 C 5.07 g/m*3 1.4 C 0 km/h
650 28-03-2019 06:05:00 1.4 C 5.07 g/m*3 1.4 C 0 km/h
Sensor: Nr:Datum:Temp:Abs-Feuchte:Windchill:Wind:
Aussen-T/F 651 28-03-2019 06:10:00 1.4 C 5.07 g/m*3 1.4 C 0 km/h
652 28-03-2019 06:15:00 1.6 C 5.14 g/m*3 1.6 C 0 km/h
653 28-03-2019 06:20:00 1.6 C 5.14 g/m*3 1.6 C 0 km/h
654 28-03-2019 06:25:00 1.6 C 5.14 g/m*3 1.6 C 0 km/h
655 28-03-2019 06:30:00 1.6 C 5.14 g/m*3 1.6 C 0 km/h
656 28-03-2019 06:35:00 1.6 C 5.14 g/m*3 1.6 C 0 km/h
657 28-03-2019 06:40:00 1.6 C 5.14 g/m*3 1.6 C 0 km/h
658 28-03-2019 06:45:00 1.7 C 5.17 g/m*3 1.7 C 0 km/h
659 28-03-2019 06:50:00 1.8 C 5.21 g/m*3 1.8 C 0 km/h
660 28-03-2019 06:55:00 1.8 C 5.21 g/m*3 1.8 C 0 km/h
661 28-03-2019 07:00:00 1.9 C 5.24 g/m*3 1.9 C 0 km/h
662 28-03-2019 07:05:00 1.9 C 5.24 g/m*3 1.9 C 0 km/h
663 28-03-2019 07:10:00 1.9 C 5.24 g/m*3 1.9 C 0 km/h
664 28-03-2019 07:15:00 2 C 5.28 g/m*3 2 C 0 km/h
665 28-03-2019 07:20:00 2 C 5.28 g/m*3 2 C 1.6 km/h
666 28-03-2019 07:25:00 2.1 C 5.31 g/m*3 2.1 C 0 km/h
667 28-03-2019 07:30:00 2.2 C 5.35 g/m*3 2.2 C 0 km/h
668 28-03-2019 07:35:00 2.2 C 5.35 g/m*3 2.2 C 1.6 km/h
669 28-03-2019 07:40:00 2.2 C 5.35 g/m*3 2.2 C 0 km/h
670 28-03-2019 07:45:00 2.3 C 5.39 g/m*3 2.3 C 0 km/h
671 28-03-2019 07:50:00 2.3 C 5.39 g/m*3 2.3 C 0 km/h
672 28-03-2019 07:55:00 2.4 C 5.42 g/m*3 2.4 C 0 km/h
673 28-03-2019 08:00:00 2.4 C 5.42 g/m*3 2.4 C 0 km/h
674 28-03-2019 08:05:00 2.6 C 5.5 g/m*3 2.6 C 1.6 km/h
675 28-03-2019 08:10:00 2.7 C 5.54 g/m*3 2.7 C 1.6 km/h
Sensor: Nr:Datum:Temp:Abs-Feuchte:Windchill:Wind:
Aussen-T/F 676 28-03-2019 08:15:00 2.7 C 5.54 g/m*3 2.7 C 3.2 km/h
677 28-03-2019 08:20:00 2.7 C 5.54 g/m*3 2.7 C 4.8 km/h
678 28-03-2019 08:25:00 2.7 C 5.48 g/m*3 2.7 C 4.8 km/h
679 28-03-2019 08:30:00 2.8 C 5.51 g/m*3 2.8 C 0 km/h
680 28-03-2019 08:35:00 2.8 C 5.57 g/m*3 2.8 C 0 km/h
681 28-03-2019 08:40:00 2.9 C 5.61 g/m*3 2.9 C 0 km/h
682 28-03-2019 08:45:00 2.9 C 5.55 g/m*3 2.9 C 0 km/h
683 28-03-2019 08:50:00 3.1 C 5.69 g/m*3 3.1 C 0 km/h
684 28-03-2019 08:55:00 3.2 C 5.72 g/m*3 3.2 C 0 km/h
685 28-03-2019 09:00:00 3.3 C 5.7 g/m*3 3.3 C 4.8 km/h
686 28-03-2019 09:05:00 3.6 C 5.88 g/m*3 3.6 C 4.8 km/h
687 28-03-2019 09:10:00 3.8 C 5.9 g/m*3 2.21 C 6.4 km/h
688 28-03-2019 09:15:00 3.9 C 5.94 g/m*3 3.9 C 3.2 km/h
689 28-03-2019 09:20:00 4.2 C 5.99 g/m*3 4.2 C 1.6 km/h
690 28-03-2019 09:25:00 4.3 C 6.03 g/m*3 4.3 C 3.2 km/h
691 28-03-2019 09:30:00 4.5 C 6.05 g/m*3 4.5 C 4.8 km/h
692 28-03-2019 09:35:00 4.7 C 6.13 g/m*3 4.7 C 3.2 km/h
693 28-03-2019 09:40:00 4.8 C 6.17 g/m*3 4.8 C 0 km/h
694 28-03-2019 09:45:00 5.1 C 6.29 g/m*3 5.1 C 0 km/h
695 28-03-2019 09:50:00 5.3 C 6.31 g/m*3 5.3 C 0 km/h
696 28-03-2019 09:55:00 5.6 C 6.43 g/m*3 5.6 C 0 km/h
697 28-03-2019 10:00:00 5.8 C 6.45 g/m*3 5.8 C 0 km/h
698 28-03-2019 10:05:00 6.1 C 6.5 g/m*3 6.1 C 0 km/h
699 28-03-2019 10:10:00 6.4 C 6.56 g/m*3 6.4 C 0 km/h
700 28-03-2019 10:15:00 6.8 C 6.65 g/m*3 6.8 C 0 km/h
Sensor: Nr:Datum:Temp:Abs-Feuchte:Windchill:Wind:
Aussen-T/F 701 28-03-2019 10:20:00 7 C 6.66 g/m*3 7 C 1.6 km/h
702 28-03-2019 10:25:00 7.3 C 6.72 g/m*3 7.3 C 1.6 km/h
703 28-03-2019 10:30:00 7.5 C 6.72 g/m*3 7.5 C 0 km/h
704 28-03-2019 10:35:00 7.7 C 6.73 g/m*3 7.7 C 0 km/h
705 28-03-2019 10:40:00 7.9 C 6.82 g/m*3 7.9 C 0 km/h
706 28-03-2019 10:45:00 8.1 C 6.74 g/m*3 8.1 C 0 km/h
707 28-03-2019 10:50:00 8.4 C 6.79 g/m*3 8.4 C 0 km/h
708 28-03-2019 10:55:00 8.7 C 6.92 g/m*3 8.7 C 1.6 km/h
709 28-03-2019 11:00:00 8.9 C 6.92 g/m*3 8.9 C 4.8 km/h
710 28-03-2019 11:05:00 9.2 C 6.97 g/m*3 9.2 C 3.2 km/h
711 28-03-2019 11:10:00 9.5 C 7.1 g/m*3 9.5 C 3.2 km/h
712 28-03-2019 11:15:00 9.7 C 7.19 g/m*3 9.7 C 3.2 km/h
713 28-03-2019 11:20:00 9.9 C 7.1 g/m*3 9.9 C 1.6 km/h
714 28-03-2019 11:25:00 10.2 C 7.23 g/m*3 10.2 C 3.2 km/h
715 28-03-2019 11:30:00 10.4 C 7.32 g/m*3 10.4 C 1.6 km/h
716 28-03-2019 11:35:00 10.6 C 7.42 g/m*3 10.6 C 1.6 km/h
717 28-03-2019 11:40:00 10.9 C 7.46 g/m*3 10.9 C 1.6 km/h
718 28-03-2019 11:45:00 11.2 C 7.6 g/m*3 11.2 C 3.2 km/h
719 28-03-2019 11:50:00 11.6 C 7.59 g/m*3 11.6 C 6.4 km/h
720 28-03-2019 11:55:00 11.8 C 7.37 g/m*3 11.8 C 8.1 km/h
721 28-03-2019 12:00:00 12 C 7.35 g/m*3 12 C 6.4 km/h
722 28-03-2019 12:05:00 12.2 C 7.34 g/m*3 12.2 C 11.3 km/h
723 28-03-2019 12:10:00 12.3 C 7.28 g/m*3 12.3 C 8.1 km/h
724 28-03-2019 12:15:00 12.5 C 7.37 g/m*3 12.5 C 8.1 km/h
725 28-03-2019 12:20:00 12.6 C 7.3 g/m*3 12.6 C 8.1 km/h
Sensor: Nr:Datum:Temp:Abs-Feuchte:Windchill:Wind:
Aussen-T/F 726 28-03-2019 12:25:00 12.6 C 7.3 g/m*3 12.6 C 6.4 km/h
727 28-03-2019 12:30:00 12.6 C 7.3 g/m*3 12.6 C 4.8 km/h
728 28-03-2019 12:35:00 12.6 C 7.19 g/m*3 12.6 C 3.2 km/h
729 28-03-2019 12:40:00 12.7 C 7.46 g/m*3 12.7 C 9.7 km/h
730 28-03-2019 12:45:00 12.7 C 7.46 g/m*3 12.7 C 8.1 km/h
731 28-03-2019 12:50:00 12.8 C 7.62 g/m*3 12.8 C 11.3 km/h
732 28-03-2019 12:55:00 12.8 C 7.39 g/m*3 12.8 C 14.5 km/h
733 28-03-2019 13:00:00 12.7 C 7.46 g/m*3 12.7 C 9.7 km/h
734 28-03-2019 13:05:00 12.8 C 7.5 g/m*3 12.8 C 9.7 km/h
735 28-03-2019 13:10:00 12.9 C 7.55 g/m*3 12.9 C 6.4 km/h
736 28-03-2019 13:15:00 13.2 C 7.69 g/m*3 13.2 C 8.1 km/h
737 28-03-2019 13:20:00 13.4 C 7.67 g/m*3 13.4 C 12.9 km/h
738 28-03-2019 13:25:00 13.4 C 7.44 g/m*3 13.4 C 12.9 km/h
739 28-03-2019 13:30:00 13.4 C 7.56 g/m*3 13.4 C 9.7 km/h
740 28-03-2019 13:35:00 13.2 C 7.35 g/m*3 13.2 C 8.1 km/h
741 28-03-2019 13:40:00 13.2 C 7.35 g/m*3 13.2 C 3.2 km/h
742 28-03-2019 13:45:00 13.2 C 7.81 g/m*3 13.2 C 0 km/h
743 28-03-2019 13:50:00 13.5 C 7.84 g/m*3 13.5 C 6.4 km/h
744 28-03-2019 13:55:00 13.7 C 7.58 g/m*3 13.7 C 12.9 km/h
745 28-03-2019 14:00:00 13.6 C 7.41 g/m*3 13.6 C 12.9 km/h
746 28-03-2019 14:05:00 13.5 C 7.49 g/m*3 13.5 C 14.5 km/h
747 28-03-2019 14:10:00 13.5 C 7.49 g/m*3 13.5 C 8.1 km/h
748 28-03-2019 14:15:00 13.4 C 7.44 g/m*3 13.4 C 11.3 km/h
749 28-03-2019 14:20:00 13.4 C 7.56 g/m*3 13.4 C 12.9 km/h
750 28-03-2019 14:25:00 13.4 C 7.44 g/m*3 13.4 C 4.8 km/h
Sensor: Nr:Datum:Temp:Abs-Feuchte:Windchill:Wind:
Aussen-T/F 751 28-03-2019 14:30:00 13.6 C 7.65 g/m*3 13.6 C 8.1 km/h
752 28-03-2019 14:35:00 13.7 C 7.7 g/m*3 13.7 C 11.3 km/h
753 28-03-2019 14:40:00 13.7 C 7.46 g/m*3 13.7 C 14.5 km/h
754 28-03-2019 14:45:00 13.5 C 7.49 g/m*3 13.5 C 11.3 km/h
755 28-03-2019 14:50:00 13.4 C 7.56 g/m*3 13.4 C 11.3 km/h
756 28-03-2019 14:55:00 13.3 C 7.51 g/m*3 13.3 C 8.1 km/h
757 28-03-2019 15:00:00 13.3 C 7.51 g/m*3 13.3 C 8.1 km/h
758 28-03-2019 15:05:00 13.3 C 7.39 g/m*3 13.3 C 11.3 km/h
759 28-03-2019 15:10:00 13.3 C 7.39 g/m*3 13.3 C 11.3 km/h
760 28-03-2019 15:15:00 13.4 C 7.44 g/m*3 13.4 C 8.1 km/h
761 28-03-2019 15:20:00 13.4 C 7.44 g/m*3 13.4 C 6.4 km/h
762 28-03-2019 15:25:00 13.4 C 7.44 g/m*3 13.4 C 6.4 km/h
763 28-03-2019 15:30:00 13.4 C 7.32 g/m*3 13.4 C 9.7 km/h
764 28-03-2019 15:35:00 13.4 C 7.32 g/m*3 13.4 C 8.1 km/h
765 28-03-2019 15:40:00 13.4 C 7.32 g/m*3 13.4 C 4.8 km/h
766 28-03-2019 15:45:00 13.5 C 7.49 g/m*3 13.5 C 9.7 km/h
767 28-03-2019 15:50:00 13.5 C 7.37 g/m*3 13.5 C 9.7 km/h
768 28-03-2019 15:55:00 13.5 C 7.37 g/m*3 13.5 C 9.7 km/h
769 28-03-2019 16:00:00 13.5 C 7.37 g/m*3 13.5 C 11.3 km/h
770 28-03-2019 16:05:00 13.5 C 7.37 g/m*3 13.5 C 8.1 km/h
771 28-03-2019 16:10:00 13.5 C 7.37 g/m*3 13.5 C 8.1 km/h
772 28-03-2019 16:15:00 13.6 C 7.3 g/m*3 13.6 C 12.9 km/h
773 28-03-2019 16:20:00 13.5 C 7.25 g/m*3 13.5 C 9.7 km/h
774 28-03-2019 16:25:00 13.5 C 7.37 g/m*3 13.5 C 6.4 km/h
775 28-03-2019 16:30:00 13.5 C 7.25 g/m*3 13.5 C 8.1 km/h
Sensor: Nr:Datum:Temp:Abs-Feuchte:Windchill:Wind:
Aussen-T/F 776 28-03-2019 16:35:00 13.5 C 7.37 g/m*3 13.5 C 6.4 km/h
777 28-03-2019 16:40:00 13.4 C 7.32 g/m*3 13.4 C 8.1 km/h
778 28-03-2019 16:45:00 13.4 C 7.32 g/m*3 13.4 C 8.1 km/h
779 28-03-2019 16:50:00 13.3 C 7.28 g/m*3 13.3 C 11.3 km/h
780 28-03-2019 16:55:00 13.3 C 7.28 g/m*3 13.3 C 9.7 km/h
781 28-03-2019 17:00:00 13.3 C 7.28 g/m*3 13.3 C 9.7 km/h
782 28-03-2019 17:05:00 13.3 C 7.39 g/m*3 13.3 C 6.4 km/h
783 28-03-2019 17:10:00 13.3 C 7.28 g/m*3 13.3 C 6.4 km/h
784 28-03-2019 17:15:00 13.3 C 7.28 g/m*3 13.3 C 8.1 km/h
785 28-03-2019 17:20:00 13.2 C 7.23 g/m*3 13.2 C 8.1 km/h
786 28-03-2019 17:25:00 13.2 C 7.23 g/m*3 13.2 C 8.1 km/h
787 28-03-2019 17:30:00 13.2 C 7.35 g/m*3 13.2 C 8.1 km/h
788 28-03-2019 17:35:00 13.2 C 7.35 g/m*3 13.2 C 4.8 km/h
789 28-03-2019 17:40:00 13.1 C 7.3 g/m*3 13.1 C 4.8 km/h
790 28-03-2019 17:45:00 13.1 C 7.42 g/m*3 13.1 C 4.8 km/h
791 28-03-2019 17:50:00 13.1 C 7.3 g/m*3 13.1 C 6.4 km/h
792 28-03-2019 17:55:00 13 C 7.37 g/m*3 13 C 4.8 km/h
793 28-03-2019 18:00:00 13 C 7.71 g/m*3 13 C 1.6 km/h
794 28-03-2019 18:05:00 12.9 C 7.44 g/m*3 12.9 C 3.2 km/h
795 28-03-2019 18:10:00 12.8 C 7.5 g/m*3 12.8 C 6.4 km/h
796 28-03-2019 18:15:00 12.8 C 7.5 g/m*3 12.8 C 3.2 km/h
797 28-03-2019 18:20:00 12.7 C 7.79 g/m*3 12.7 C 4.8 km/h
798 28-03-2019 18:25:00 12.6 C 7.74 g/m*3 12.6 C 3.2 km/h
799 28-03-2019 18:30:00 12.3 C 7.71 g/m*3 12.3 C 1.6 km/h
800 28-03-2019 18:35:00 12.1 C 7.72 g/m*3 12.1 C 1.6 km/h
Sensor: Nr:Datum:Temp:Abs-Feuchte:Windchill:Wind:
Aussen-T/F 801 28-03-2019 18:40:00 11.7 C 7.53 g/m*3 11.7 C 1.6 km/h
802 28-03-2019 18:45:00 11.3 C 7.45 g/m*3 11.3 C 0 km/h
803 28-03-2019 18:50:00 11 C 7.41 g/m*3 11 C 0 km/h
804 28-03-2019 18:55:00 10.8 C 7.41 g/m*3 10.8 C 3.2 km/h
805 28-03-2019 19:00:00 10.5 C 7.37 g/m*3 10.5 C 4.8 km/h
806 28-03-2019 19:05:00 10.4 C 7.42 g/m*3 10.4 C 0 km/h
807 28-03-2019 19:10:00 10.3 C 7.47 g/m*3 10.3 C 0 km/h
808 28-03-2019 19:15:00 10.3 C 7.47 g/m*3 10.3 C 0 km/h
809 28-03-2019 19:20:00 10.3 C 7.57 g/m*3 10.3 C 0 km/h
810 28-03-2019 19:25:00 10.3 C 7.57 g/m*3 10.3 C 1.6 km/h
811 28-03-2019 19:30:00 10.3 C 7.57 g/m*3 10.3 C 1.6 km/h
812 28-03-2019 19:35:00 10.3 C 7.57 g/m*3 10.3 C 0 km/h
813 28-03-2019 19:40:00 10.4 C 7.61 g/m*3 10.4 C 0 km/h
814 28-03-2019 19:45:00 10.4 C 7.52 g/m*3 10.4 C 0 km/h
815 28-03-2019 19:50:00 10.4 C 7.52 g/m*3 10.4 C 0 km/h
816 28-03-2019 19:55:00 10.5 C 7.57 g/m*3 10.5 C 3.2 km/h
817 28-03-2019 20:00:00 10.5 C 7.57 g/m*3 10.5 C 1.6 km/h
818 28-03-2019 20:05:00 10.5 C 7.57 g/m*3 10.5 C 1.6 km/h
819 28-03-2019 20:10:00 10.4 C 7.52 g/m*3 10.4 C 3.2 km/h
820 28-03-2019 20:15:00 10.4 C 7.52 g/m*3 10.4 C 0 km/h
821 28-03-2019 20:20:00 10.4 C 7.52 g/m*3 10.4 C 0 km/h
822 28-03-2019 20:25:00 10.3 C 7.47 g/m*3 10.3 C 0 km/h
823 28-03-2019 20:30:00 10.2 C 7.42 g/m*3 10.2 C 0 km/h
824 28-03-2019 20:35:00 10.1 C 7.38 g/m*3 10.1 C 0 km/h
825 28-03-2019 20:40:00 10.1 C 7.47 g/m*3 10.1 C 0 km/h
Sensor: Nr:Datum:Temp:Abs-Feuchte:Windchill:Wind:
Aussen-T/F 826 28-03-2019 20:45:00 10 C 7.42 g/m*3 10 C 0 km/h
827 28-03-2019 20:50:00 10 C 7.52 g/m*3 10 C 0 km/h
828 28-03-2019 20:55:00 9.9 C 7.47 g/m*3 9.9 C 0 km/h
829 28-03-2019 21:00:00 9.9 C 7.47 g/m*3 9.9 C 0 km/h
830 28-03-2019 21:05:00 9.9 C 7.47 g/m*3 9.9 C 0 km/h
831 28-03-2019 21:10:00 9.9 C 7.47 g/m*3 9.9 C 0 km/h
832 28-03-2019 21:15:00 9.8 C 7.42 g/m*3 9.8 C 0 km/h
833 28-03-2019 21:20:00 9.8 C 7.42 g/m*3 9.8 C 0 km/h
834 28-03-2019 21:25:00 9.7 C 7.38 g/m*3 9.7 C 0 km/h
835 28-03-2019 21:30:00 9.6 C 7.24 g/m*3 9.6 C 0 km/h
836 28-03-2019 21:35:00 9.4 C 7.15 g/m*3 9.4 C 0 km/h
837 28-03-2019 21:40:00 9.3 C 7.1 g/m*3 9.3 C 0 km/h
838 28-03-2019 21:45:00 9.1 C 7.1 g/m*3 9.1 C 0 km/h
839 28-03-2019 21:50:00 8.9 C 7.01 g/m*3 8.9 C 0 km/h
840 28-03-2019 21:55:00 8.8 C 7.05 g/m*3 8.8 C 0 km/h
841 28-03-2019 22:00:00 8.6 C 6.96 g/m*3 8.6 C 3.2 km/h
842 28-03-2019 22:05:00 8.4 C 6.96 g/m*3 8.4 C 1.6 km/h
843 28-03-2019 22:10:00 8.3 C 6.91 g/m*3 8.3 C 1.6 km/h
844 28-03-2019 22:15:00 8.2 C 6.95 g/m*3 8.2 C 0 km/h
845 28-03-2019 22:20:00 8.1 C 6.91 g/m*3 8.1 C 0 km/h
846 28-03-2019 22:25:00 7.9 C 6.9 g/m*3 7.9 C 0 km/h
847 28-03-2019 22:30:00 7.8 C 6.86 g/m*3 7.8 C 0 km/h
848 28-03-2019 22:35:00 7.7 C 6.89 g/m*3 7.7 C 0 km/h
849 28-03-2019 22:40:00 7.6 C 6.85 g/m*3 7.6 C 0 km/h
850 28-03-2019 22:45:00 7.4 C 6.76 g/m*3 7.4 C 0 km/h
Sensor: Nr:Datum:Temp:Abs-Feuchte:Windchill:Wind:
Aussen-T/F 851 28-03-2019 22:50:00 7.3 C 6.79 g/m*3 7.3 C 0 km/h
852 28-03-2019 22:55:00 7.3 C 6.79 g/m*3 7.3 C 0 km/h
853 28-03-2019 23:00:00 7.2 C 6.75 g/m*3 7.2 C 0 km/h
854 28-03-2019 23:05:00 7 C 6.66 g/m*3 7 C 0 km/h
855 28-03-2019 23:10:00 6.8 C 6.58 g/m*3 6.8 C 0 km/h
856 28-03-2019 23:15:00 6.5 C 6.45 g/m*3 6.5 C 0 km/h
857 28-03-2019 23:20:00 6.3 C 6.51 g/m*3 6.3 C 0 km/h
858 28-03-2019 23:25:00 6.3 C 6.51 g/m*3 6.3 C 0 km/h
859 28-03-2019 23:30:00 6.2 C 6.47 g/m*3 6.2 C 0 km/h
860 28-03-2019 23:35:00 6.1 C 6.43 g/m*3 6.1 C 0 km/h
861 28-03-2019 23:40:00 5.9 C 6.42 g/m*3 5.9 C 0 km/h
862 28-03-2019 23:45:00 5.8 C 6.38 g/m*3 5.8 C 0 km/h
863 28-03-2019 23:50:00 5.8 C 6.45 g/m*3 5.8 C 0 km/h
864 28-03-2019 23:55:00 5.7 C 6.4 g/m*3 5.7 C 0 km/h
865 29-03-2019 00:00:00 5.7 C 6.4 g/m*3 5.7 C 0 km/h
866 29-03-2019 00:05:00 5.6 C 6.36 g/m*3 5.6 C 0 km/h
867 29-03-2019 00:10:00 5.6 C 6.36 g/m*3 5.6 C 0 km/h
868 29-03-2019 00:15:00 5.4 C 6.28 g/m*3 5.4 C 0 km/h
869 29-03-2019 00:20:00 5.2 C 6.2 g/m*3 5.2 C 0 km/h
870 29-03-2019 00:25:00 5.3 C 6.31 g/m*3 5.3 C 0 km/h
871 29-03-2019 00:30:00 5.3 C 6.31 g/m*3 5.3 C 0 km/h
872 29-03-2019 00:35:00 5.2 C 6.27 g/m*3 5.2 C 0 km/h
873 29-03-2019 00:40:00 5.2 C 6.27 g/m*3 5.2 C 0 km/h
874 29-03-2019 00:45:00 5.1 C 6.22 g/m*3 5.1 C 0 km/h
875 29-03-2019 00:50:00 5 C 6.18 g/m*3 5 C 0 km/h
Sensor: Nr:Datum:Temp:Abs-Feuchte:Windchill:Wind:
Aussen-T/F 876 29-03-2019 00:55:00 4.8 C 6.1 g/m*3 4.8 C 0 km/h
877 29-03-2019 01:00:00 4.7 C 6.06 g/m*3 4.7 C 0 km/h
878 29-03-2019 01:05:00 4.6 C 6.09 g/m*3 4.6 C 0 km/h
879 29-03-2019 01:10:00 4.6 C 6.09 g/m*3 4.6 C 0 km/h
880 29-03-2019 01:15:00 4.5 C 6.05 g/m*3 4.5 C 0 km/h
881 29-03-2019 01:20:00 4.4 C 6.01 g/m*3 4.4 C 0 km/h
882 29-03-2019 01:25:00 4.3 C 5.97 g/m*3 4.3 C 0 km/h
883 29-03-2019 01:30:00 4.4 C 6.07 g/m*3 4.4 C 0 km/h
884 29-03-2019 01:35:00 4.3 C 6.03 g/m*3 4.3 C 0 km/h
885 29-03-2019 01:40:00 4.2 C 5.93 g/m*3 4.2 C 0 km/h
886 29-03-2019 01:45:00 4.1 C 5.89 g/m*3 4.1 C 0 km/h
887 29-03-2019 01:50:00 4 C 5.91 g/m*3 4 C 0 km/h
888 29-03-2019 01:55:00 4.1 C 5.95 g/m*3 4.1 C 0 km/h
889 29-03-2019 02:00:00 4.1 C 5.95 g/m*3 4.1 C 0 km/h
890 29-03-2019 02:05:00 3.9 C 5.87 g/m*3 3.9 C 0 km/h
891 29-03-2019 02:10:00 4 C 5.98 g/m*3 4 C 0 km/h
892 29-03-2019 02:15:00 4 C 5.91 g/m*3 4 C 0 km/h
893 29-03-2019 02:20:00 3.9 C 5.87 g/m*3 3.9 C 0 km/h
894 29-03-2019 02:25:00 3.8 C 5.83 g/m*3 3.8 C 0 km/h
895 29-03-2019 02:30:00 3.8 C 5.83 g/m*3 3.8 C 0 km/h
896 29-03-2019 02:35:00 3.9 C 5.94 g/m*3 3.9 C 0 km/h
897 29-03-2019 02:40:00 3.8 C 5.9 g/m*3 3.8 C 0 km/h
898 29-03-2019 02:45:00 3.8 C 5.9 g/m*3 3.8 C 0 km/h
899 29-03-2019 02:50:00 3.7 C 5.86 g/m*3 3.7 C 0 km/h
900 29-03-2019 02:55:00 3.6 C 5.82 g/m*3 3.6 C 0 km/h
Sensor: Nr:Datum:Temp:Abs-Feuchte:Windchill:Wind:
Aussen-T/F 901 29-03-2019 03:00:00 3.6 C 5.82 g/m*3 3.6 C 0 km/h
902 29-03-2019 03:05:00 3.5 C 5.78 g/m*3 3.5 C 0 km/h
903 29-03-2019 03:10:00 3.3 C 5.7 g/m*3 3.3 C 0 km/h
904 29-03-2019 03:15:00 3.2 C 5.66 g/m*3 3.2 C 0 km/h
905 29-03-2019 03:20:00 3.1 C 5.63 g/m*3 3.1 C 0 km/h
906 29-03-2019 03:25:00 2.9 C 5.55 g/m*3 2.9 C 0 km/h
907 29-03-2019 03:30:00 2.8 C 5.51 g/m*3 2.8 C 0 km/h
908 29-03-2019 03:35:00 2.8 C 5.51 g/m*3 2.8 C 0 km/h
909 29-03-2019 03:40:00 2.8 C 5.51 g/m*3 2.8 C 0 km/h
910 29-03-2019 03:45:00 2.9 C 5.55 g/m*3 2.9 C 0 km/h
911 29-03-2019 03:50:00 2.9 C 5.55 g/m*3 2.9 C 0 km/h
912 29-03-2019 03:55:00 2.9 C 5.55 g/m*3 2.9 C 0 km/h
913 29-03-2019 04:00:00 2.9 C 5.61 g/m*3 2.9 C 0 km/h
914 29-03-2019 04:05:00 2.9 C 5.61 g/m*3 2.9 C 0 km/h
915 29-03-2019 04:10:00 3 C 5.65 g/m*3 3 C 0 km/h
916 29-03-2019 04:15:00 3 C 5.65 g/m*3 3 C 0 km/h
917 29-03-2019 04:20:00 2.9 C 5.61 g/m*3 2.9 C 0 km/h
918 29-03-2019 04:25:00 2.8 C 5.57 g/m*3 2.8 C 0 km/h
919 29-03-2019 04:30:00 2.8 C 5.57 g/m*3 2.8 C 0 km/h
920 29-03-2019 04:35:00 2.9 C 5.61 g/m*3 2.9 C 0 km/h
921 29-03-2019 04:40:00 3.1 C 5.69 g/m*3 3.1 C 0 km/h
922 29-03-2019 04:45:00 2.9 C 5.61 g/m*3 2.9 C 0 km/h
923 29-03-2019 04:50:00 2.8 C 5.57 g/m*3 2.8 C 0 km/h
924 29-03-2019 04:55:00 2.7 C 5.54 g/m*3 2.7 C 0 km/h
925 29-03-2019 05:00:00 2.6 C 5.5 g/m*3 2.6 C 0 km/h
Sensor: Nr:Datum:Temp:Abs-Feuchte:Windchill:Wind:
Aussen-T/F 926 29-03-2019 05:05:00 2.5 C 5.46 g/m*3 2.5 C 0 km/h
927 29-03-2019 05:10:00 2.3 C 5.39 g/m*3 2.3 C 0 km/h
928 29-03-2019 05:15:00 2.3 C 5.39 g/m*3 2.3 C 0 km/h
929 29-03-2019 05:20:00 2.3 C 5.39 g/m*3 2.3 C 0 km/h
930 29-03-2019 05:25:00 2.2 C 5.35 g/m*3 2.2 C 0 km/h
931 29-03-2019 05:30:00 2.1 C 5.31 g/m*3 2.1 C 0 km/h
932 29-03-2019 05:35:00 2.2 C 5.35 g/m*3 2.2 C 0 km/h
933 29-03-2019 05:40:00 2.1 C 5.31 g/m*3 2.1 C 0 km/h
934 29-03-2019 05:45:00 1.9 C 5.24 g/m*3 1.9 C 0 km/h
935 29-03-2019 05:50:00 1.8 C 5.21 g/m*3 1.8 C 0 km/h
936 29-03-2019 05:55:00 1.9 C 5.24 g/m*3 1.9 C 0 km/h
937 29-03-2019 06:00:00 2 C 5.28 g/m*3 2 C 0 km/h
938 29-03-2019 06:05:00 2.1 C 5.31 g/m*3 2.1 C 0 km/h
939 29-03-2019 06:10:00 2.1 C 5.31 g/m*3 2.1 C 0 km/h
940 29-03-2019 06:15:00 2.1 C 5.31 g/m*3 2.1 C 0 km/h
941 29-03-2019 06:20:00 2 C 5.28 g/m*3 2 C 0 km/h
942 29-03-2019 06:25:00 2 C 5.28 g/m*3 2 C 0 km/h
943 29-03-2019 06:30:00 2.1 C 5.31 g/m*3 2.1 C 0 km/h
944 29-03-2019 06:35:00 2.1 C 5.31 g/m*3 2.1 C 0 km/h
945 29-03-2019 06:40:00 2.1 C 5.31 g/m*3 2.1 C 0 km/h
946 29-03-2019 06:45:00 2.1 C 5.31 g/m*3 2.1 C 0 km/h
947 29-03-2019 06:50:00 2.1 C 5.31 g/m*3 2.1 C 0 km/h
948 29-03-2019 06:55:00 2.1 C 5.31 g/m*3 2.1 C 0 km/h
949 29-03-2019 07:00:00 2.1 C 5.37 g/m*3 2.1 C 0 km/h
950 29-03-2019 07:05:00 2.1 C 5.31 g/m*3 2.1 C 0 km/h
Sensor: Nr:Datum:Temp:Abs-Feuchte:Windchill:Wind:
Aussen-T/F 951 29-03-2019 07:10:00 2 C 5.28 g/m*3 2 C 0 km/h
952 29-03-2019 07:15:00 2 C 5.33 g/m*3 2 C 0 km/h
953 29-03-2019 07:20:00 2 C 5.33 g/m*3 2 C 0 km/h
954 29-03-2019 07:25:00 2.1 C 5.37 g/m*3 2.1 C 0 km/h
955 29-03-2019 07:30:00 2.1 C 5.37 g/m*3 2.1 C 0 km/h
956 29-03-2019 07:35:00 2.2 C 5.41 g/m*3 2.2 C 0 km/h
957 29-03-2019 07:40:00 2.3 C 5.44 g/m*3 2.3 C 0 km/h
958 29-03-2019 07:45:00 2.4 C 5.48 g/m*3 2.4 C 0 km/h
959 29-03-2019 07:50:00 2.4 C 5.48 g/m*3 2.4 C 0 km/h
960 29-03-2019 07:55:00 2.4 C 5.48 g/m*3 2.4 C 0 km/h
961 29-03-2019 08:00:00 2.4 C 5.48 g/m*3 2.4 C 0 km/h
962 29-03-2019 08:05:00 2.5 C 5.52 g/m*3 2.5 C 0 km/h
963 29-03-2019 08:10:00 2.6 C 5.56 g/m*3 2.6 C 0 km/h
964 29-03-2019 08:15:00 2.7 C 5.59 g/m*3 2.7 C 0 km/h
965 29-03-2019 08:20:00 2.8 C 5.63 g/m*3 2.8 C 0 km/h
966 29-03-2019 08:25:00 2.8 C 5.63 g/m*3 2.8 C 0 km/h
967 29-03-2019 08:30:00 2.9 C 5.67 g/m*3 2.9 C 0 km/h
968 29-03-2019 08:35:00 3.1 C 5.75 g/m*3 3.1 C 0 km/h
969 29-03-2019 08:40:00 3.2 C 5.79 g/m*3 3.2 C 0 km/h
970 29-03-2019 08:45:00 3.3 C 5.82 g/m*3 3.3 C 0 km/h
971 29-03-2019 08:50:00 3.4 C 5.92 g/m*3 3.4 C 0 km/h
972 29-03-2019 08:55:00 3.5 C 5.9 g/m*3 3.5 C 0 km/h
973 29-03-2019 09:00:00 3.7 C 5.98 g/m*3 3.7 C 0 km/h
974 29-03-2019 09:05:00 3.9 C 6.13 g/m*3 3.9 C 0 km/h
975 29-03-2019 09:10:00 4.1 C 6.21 g/m*3 4.1 C 0 km/h
Sensor: Nr:Datum:Temp:Abs-Feuchte:Windchill:Wind:
Aussen-T/F 976 29-03-2019 09:15:00 4.3 C 6.29 g/m*3 4.3 C 0 km/h
977 29-03-2019 09:20:00 4.5 C 6.38 g/m*3 4.5 C 0 km/h
978 29-03-2019 09:25:00 4.7 C 6.46 g/m*3 4.7 C 0 km/h
979 29-03-2019 09:30:00 5 C 6.59 g/m*3 5 C 0 km/h
980 29-03-2019 09:35:00 5.3 C 6.72 g/m*3 5.3 C 0 km/h
981 29-03-2019 09:40:00 5.5 C 6.81 g/m*3 5.5 C 0 km/h
982 29-03-2019 09:45:00 5.8 C 6.95 g/m*3 5.8 C 0 km/h
983 29-03-2019 09:50:00 6.1 C 7.09 g/m*3 6.1 C 0 km/h
984 29-03-2019 09:55:00 6.4 C 7.23 g/m*3 6.4 C 0 km/h
985 29-03-2019 10:00:00 6.8 C 7.42 g/m*3 6.8 C 0 km/h
986 29-03-2019 10:05:00 7 C 7.52 g/m*3 7 C 0 km/h
987 29-03-2019 10:10:00 7.2 C 7.61 g/m*3 7.2 C 0 km/h
988 29-03-2019 10:15:00 7.4 C 7.71 g/m*3 7.4 C 0 km/h
989 29-03-2019 10:20:00 7.6 C 7.81 g/m*3 7.6 C 0 km/h
990 29-03-2019 10:25:00 7.8 C 7.92 g/m*3 7.8 C 0 km/h
991 29-03-2019 10:30:00 8.1 C 8.07 g/m*3 8.1 C 0 km/h
992 29-03-2019 10:35:00 8.4 C 8.14 g/m*3 8.4 C 0 km/h
993 29-03-2019 10:40:00 8.7 C 8.3 g/m*3 8.7 C 0 km/h
994 29-03-2019 10:45:00 9 C 8.38 g/m*3 9 C 1.6 km/h
995 29-03-2019 10:50:00 9.3 C 8.36 g/m*3 9.3 C 1.6 km/h
996 29-03-2019 10:55:00 9.8 C 8.54 g/m*3 9.8 C 3.2 km/h
997 29-03-2019 11:00:00 10.2 C 8.56 g/m*3 9.6 C 6.4 km/h
998 29-03-2019 11:05:00 10.8 C 8.6 g/m*3 9.93 C 8.1 km/h
999 29-03-2019 11:10:00 11.4 C 8.52 g/m*3 11.4 C 11.3 km/h
1000 29-03-2019 11:15:00 11.8 C 8.53 g/m*3 11.8 C 6.4 km/h
Sensor: Nr:Datum:Temp:Abs-Feuchte:Windchill:Wind:
Aussen-T/F 1001 29-03-2019 11:20:00 12.1 C 8.58 g/m*3 12.1 C 6.4 km/h
1002 29-03-2019 11:25:00 12.6 C 8.41 g/m*3 12.6 C 12.9 km/h
1003 29-03-2019 11:30:00 12.9 C 8.68 g/m*3 12.9 C 6.4 km/h
1004 29-03-2019 11:35:00 13.1 C 8.56 g/m*3 13.1 C 4.8 km/h
1005 29-03-2019 11:40:00 13.3 C 8.43 g/m*3 13.3 C 9.7 km/h
1006 29-03-2019 11:45:00 13.7 C 8.29 g/m*3 13.7 C 16.1 km/h
1007 29-03-2019 11:50:00 13.9 C 8.63 g/m*3 13.9 C 16.1 km/h
1008 29-03-2019 11:55:00 14 C 8.32 g/m*3 14 C 12.9 km/h
1009 29-03-2019 12:00:00 14.2 C 8.43 g/m*3 14.2 C 9.7 km/h
1010 29-03-2019 12:05:00 14.2 C 8.3 g/m*3 14.2 C 11.3 km/h
1011 29-03-2019 12:10:00 14.2 C 8.3 g/m*3 14.2 C 8.1 km/h
1012 29-03-2019 12:15:00 14.2 C 8.18 g/m*3 14.2 C 9.7 km/h
1013 29-03-2019 12:20:00 14.3 C 8.23 g/m*3 14.3 C 4.8 km/h
1014 29-03-2019 12:25:00 14.3 C 8.23 g/m*3 14.3 C 4.8 km/h
1015 29-03-2019 12:30:00 14.5 C 8.21 g/m*3 14.5 C 6.4 km/h
1016 29-03-2019 12:35:00 14.7 C 8.31 g/m*3 14.7 C 9.7 km/h
1017 29-03-2019 12:40:00 14.7 C 8.31 g/m*3 14.7 C 11.3 km/h
1018 29-03-2019 12:45:00 14.7 C 8.31 g/m*3 14.7 C 9.7 km/h
1019 29-03-2019 12:50:00 14.8 C 8.36 g/m*3 14.8 C 6.4 km/h
1020 29-03-2019 12:55:00 14.9 C 8.28 g/m*3 14.9 C 9.7 km/h
1021 29-03-2019 13:00:00 15 C 8.33 g/m*3 15 C 1.6 km/h
1022 29-03-2019 13:05:00 15.3 C 8.36 g/m*3 15.3 C 9.7 km/h
1023 29-03-2019 13:10:00 15.6 C 8.11 g/m*3 15.6 C 14.5 km/h
1024 29-03-2019 13:15:00 15.9 C 8.13 g/m*3 15.9 C 11.3 km/h
1025 29-03-2019 13:20:00 16 C 8.04 g/m*3 16 C 9.7 km/h
Sensor: Nr:Datum:Temp:Abs-Feuchte:Windchill:Wind:
Aussen-T/F 1026 29-03-2019 13:25:00 16 C 8.31 g/m*3 16 C 11.3 km/h
1027 29-03-2019 13:30:00 16 C 8.17 g/m*3 16 C 8.1 km/h
1028 29-03-2019 13:35:00 16.1 C 8.09 g/m*3 16.1 C 9.7 km/h
1029 29-03-2019 13:40:00 16.2 C 8 g/m*3 16.2 C 9.7 km/h
1030 29-03-2019 13:45:00 16.3 C 7.91 g/m*3 16.3 C 16.1 km/h
1031 29-03-2019 13:50:00 16.3 C 8.19 g/m*3 16.3 C 9.7 km/h
1032 29-03-2019 13:55:00 16.5 C 8 g/m*3 16.5 C 11.3 km/h
1033 29-03-2019 14:00:00 16.6 C 7.91 g/m*3 16.6 C 9.7 km/h
1034 29-03-2019 14:05:00 16.7 C 7.96 g/m*3 16.7 C 8.1 km/h
1035 29-03-2019 14:10:00 16.7 C 8.1 g/m*3 16.7 C 9.7 km/h
1036 29-03-2019 14:15:00 16.8 C 8.15 g/m*3 16.8 C 11.3 km/h
1037 29-03-2019 14:20:00 16.9 C 7.77 g/m*3 16.9 C 11.3 km/h
1038 29-03-2019 14:25:00 16.8 C 7.72 g/m*3 16.8 C 14.5 km/h
1039 29-03-2019 14:30:00 16.8 C 7.72 g/m*3 16.8 C 12.9 km/h
1040 29-03-2019 14:35:00 16.8 C 7.86 g/m*3 16.8 C 12.9 km/h
1041 29-03-2019 14:40:00 16.9 C 8.05 g/m*3 16.9 C 4.8 km/h
1042 29-03-2019 14:45:00 17 C 7.96 g/m*3 17 C 11.3 km/h
1043 29-03-2019 14:50:00 17.1 C 8.01 g/m*3 17.1 C 9.7 km/h
1044 29-03-2019 14:55:00 16.9 C 7.77 g/m*3 16.9 C 14.5 km/h
1045 29-03-2019 15:00:00 16.9 C 7.77 g/m*3 16.9 C 6.4 km/h
1046 29-03-2019 15:05:00 17.1 C 7.86 g/m*3 17.1 C 11.3 km/h
1047 29-03-2019 15:10:00 17.1 C 7.86 g/m*3 17.1 C 6.4 km/h
1048 29-03-2019 15:15:00 17.2 C 7.91 g/m*3 17.2 C 9.7 km/h
1049 29-03-2019 15:20:00 17.3 C 7.81 g/m*3 17.3 C 9.7 km/h
1050 29-03-2019 15:25:00 17.4 C 7.85 g/m*3 17.4 C 11.3 km/h
Sensor: Nr:Datum:Temp:Abs-Feuchte:Windchill:Wind:
Aussen-T/F 1051 29-03-2019 15:30:00 17.5 C 7.75 g/m*3 17.5 C 9.7 km/h
1052 29-03-2019 15:35:00 17.7 C 7.85 g/m*3 17.7 C 9.7 km/h
1053 29-03-2019 15:40:00 17.8 C 7.89 g/m*3 17.8 C 11.3 km/h
1054 29-03-2019 15:45:00 17.9 C 7.63 g/m*3 17.9 C 11.3 km/h
1055 29-03-2019 15:50:00 17.9 C 7.63 g/m*3 17.9 C 9.7 km/h
1056 29-03-2019 15:55:00 17.9 C 7.79 g/m*3 17.9 C 9.7 km/h
1057 29-03-2019 16:00:00 17.9 C 7.63 g/m*3 17.9 C 8.1 km/h
1058 29-03-2019 16:05:00 18 C 7.68 g/m*3 18 C 6.4 km/h
1059 29-03-2019 16:10:00 18.1 C 7.73 g/m*3 18.1 C 11.3 km/h
1060 29-03-2019 16:15:00 18.1 C 7.88 g/m*3 18.1 C 12.9 km/h
1061 29-03-2019 16:20:00 18.3 C 7.82 g/m*3 18.3 C 6.4 km/h
1062 29-03-2019 16:25:00 18.5 C 7.91 g/m*3 18.5 C 6.4 km/h
1063 29-03-2019 16:30:00 18.8 C 7.89 g/m*3 18.8 C 6.4 km/h
1064 29-03-2019 16:35:00 18.7 C 7.68 g/m*3 18.7 C 12.9 km/h
1065 29-03-2019 16:40:00 18.4 C 7.86 g/m*3 18.4 C 12.9 km/h
1066 29-03-2019 16:45:00 18.4 C 7.55 g/m*3 18.4 C 9.7 km/h
1067 29-03-2019 16:50:00 18.7 C 8.17 g/m*3 18.7 C 4.8 km/h
1068 29-03-2019 16:55:00 19.1 C 8.03 g/m*3 19.1 C 6.4 km/h
1069 29-03-2019 17:00:00 19 C 7.66 g/m*3 19 C 6.4 km/h
1070 29-03-2019 17:05:00 18.9 C 7.78 g/m*3 18.9 C 6.4 km/h
1071 29-03-2019 17:10:00 18.7 C 7.52 g/m*3 18.7 C 4.8 km/h
1072 29-03-2019 17:15:00 18.8 C 8.37 g/m*3 18.8 C 0 km/h
1073 29-03-2019 17:20:00 19.1 C 7.7 g/m*3 19.1 C 6.4 km/h
1074 29-03-2019 17:25:00 19.2 C 7.91 g/m*3 19.2 C 3.2 km/h
1075 29-03-2019 17:30:00 19.1 C 7.54 g/m*3 19.1 C 6.4 km/h
Sensor: Nr:Datum:Temp:Abs-Feuchte:Windchill:Wind:
Aussen-T/F 1076 29-03-2019 17:35:00 19.1 C 7.54 g/m*3 19.1 C 4.8 km/h
1077 29-03-2019 17:40:00 19.1 C 7.38 g/m*3 19.1 C 3.2 km/h
1078 29-03-2019 17:45:00 18.9 C 7.45 g/m*3 18.9 C 6.4 km/h
1079 29-03-2019 17:50:00 18.7 C 7.52 g/m*3 18.7 C 1.6 km/h
1080 29-03-2019 17:55:00 18.7 C 8.01 g/m*3 18.7 C 4.8 km/h
1081 29-03-2019 18:00:00 18.6 C 7.64 g/m*3 18.6 C 8.1 km/h
1082 29-03-2019 18:05:00 18.4 C 8.18 g/m*3 18.4 C 4.8 km/h
1083 29-03-2019 18:10:00 18.3 C 7.35 g/m*3 18.3 C 6.4 km/h
1084 29-03-2019 18:15:00 18.1 C 7.26 g/m*3 18.1 C 3.2 km/h
1085 29-03-2019 18:20:00 17.9 C 7.94 g/m*3 17.9 C 0 km/h
1086 29-03-2019 18:25:00 17.7 C 8 g/m*3 17.7 C 3.2 km/h
1087 29-03-2019 18:30:00 17.3 C 7.81 g/m*3 17.3 C 1.6 km/h
1088 29-03-2019 18:35:00 16.9 C 7.91 g/m*3 16.9 C 3.2 km/h
1089 29-03-2019 18:40:00 16.3 C 7.77 g/m*3 16.3 C 1.6 km/h
1090 29-03-2019 18:45:00 15.4 C 7.75 g/m*3 15.4 C 0 km/h
1091 29-03-2019 18:50:00 14.7 C 7.68 g/m*3 14.7 C 0 km/h
1092 29-03-2019 18:55:00 13.9 C 7.55 g/m*3 13.9 C 0 km/h
1093 29-03-2019 19:00:00 13.2 C 7.35 g/m*3 13.2 C 0 km/h
1094 29-03-2019 19:05:00 12.7 C 7.46 g/m*3 12.7 C 4.8 km/h
1095 29-03-2019 19:10:00 12.3 C 7.38 g/m*3 12.3 C 4.8 km/h
1096 29-03-2019 19:15:00 11.9 C 7.31 g/m*3 11.9 C 4.8 km/h
1097 29-03-2019 19:20:00 11.6 C 7.28 g/m*3 11.6 C 6.4 km/h
1098 29-03-2019 19:25:00 11.4 C 7.29 g/m*3 11.4 C 6.4 km/h
1099 29-03-2019 19:30:00 11.2 C 7.2 g/m*3 11.2 C 6.4 km/h
1100 29-03-2019 19:35:00 11.1 C 7.25 g/m*3 11.1 C 6.4 km/h
Sensor: Nr:Datum:Temp:Abs-Feuchte:Windchill:Wind:
Aussen-T/F 1101 29-03-2019 19:40:00 10.9 C 7.16 g/m*3 10.41 C 6.4 km/h
1102 29-03-2019 19:45:00 10.8 C 7.12 g/m*3 10.29 C 6.4 km/h
1103 29-03-2019 19:50:00 10.8 C 7.12 g/m*3 10.29 C 6.4 km/h
1104 29-03-2019 19:55:00 10.7 C 7.17 g/m*3 10.18 C 6.4 km/h
1105 29-03-2019 20:00:00 10.6 C 7.12 g/m*3 10.06 C 6.4 km/h
1106 29-03-2019 20:05:00 10.5 C 7.18 g/m*3 9.95 C 6.4 km/h
1107 29-03-2019 20:10:00 10.4 C 7.13 g/m*3 10.4 C 4.8 km/h
1108 29-03-2019 20:15:00 10.3 C 7.18 g/m*3 10.3 C 1.6 km/h
1109 29-03-2019 20:20:00 10.1 C 7.09 g/m*3 10.1 C 0 km/h
1110 29-03-2019 20:25:00 9.9 C 7.1 g/m*3 9.9 C 0 km/h
1111 29-03-2019 20:30:00 9.8 C 7.14 g/m*3 9.8 C 0 km/h
1112 29-03-2019 20:35:00 9.7 C 7.19 g/m*3 9.7 C 0 km/h
1113 29-03-2019 20:40:00 9.5 C 7.01 g/m*3 9.5 C 0 km/h
1114 29-03-2019 20:45:00 9.3 C 7.01 g/m*3 9.3 C 0 km/h
1115 29-03-2019 20:50:00 9.2 C 7.05 g/m*3 9.2 C 0 km/h
1116 29-03-2019 20:55:00 9.1 C 7.01 g/m*3 9.1 C 0 km/h
1117 29-03-2019 21:00:00 8.9 C 7.01 g/m*3 8.9 C 0 km/h
1118 29-03-2019 21:05:00 8.8 C 6.88 g/m*3 8.8 C 0 km/h
1119 29-03-2019 21:10:00 8.6 C 6.87 g/m*3 8.6 C 0 km/h
1120 29-03-2019 21:15:00 8.6 C 6.96 g/m*3 8.6 C 0 km/h
1121 29-03-2019 21:20:00 8.4 C 6.87 g/m*3 8.4 C 0 km/h
1122 29-03-2019 21:25:00 8.2 C 6.78 g/m*3 8.2 C 0 km/h
1123 29-03-2019 21:30:00 8 C 6.7 g/m*3 8 C 0 km/h
1124 29-03-2019 21:35:00 7.8 C 6.69 g/m*3 7.8 C 0 km/h
1125 29-03-2019 21:40:00 7.8 C 6.69 g/m*3 7.8 C 0 km/h
Sensor: Nr:Datum:Temp:Abs-Feuchte:Windchill:Wind:
Aussen-T/F 1126 29-03-2019 21:45:00 7.6 C 6.61 g/m*3 7.6 C 0 km/h
1127 29-03-2019 21:50:00 7.3 C 6.56 g/m*3 7.3 C 0 km/h
1128 29-03-2019 21:55:00 7.3 C 6.64 g/m*3 7.3 C 0 km/h
1129 29-03-2019 22:00:00 7.2 C 6.59 g/m*3 7.2 C 0 km/h
1130 29-03-2019 22:05:00 7.1 C 6.47 g/m*3 7.1 C 0 km/h
1131 29-03-2019 22:10:00 7.1 C 6.55 g/m*3 7.1 C 0 km/h
1132 29-03-2019 22:15:00 6.9 C 6.47 g/m*3 6.9 C 0 km/h
1133 29-03-2019 22:20:00 6.8 C 6.42 g/m*3 6.8 C 0 km/h
1134 29-03-2019 22:25:00 6.8 C 6.5 g/m*3 6.8 C 0 km/h
1135 29-03-2019 22:30:00 6.7 C 6.46 g/m*3 6.7 C 0 km/h
1136 29-03-2019 22:35:00 6.6 C 6.42 g/m*3 6.6 C 0 km/h
1137 29-03-2019 22:40:00 6.4 C 6.33 g/m*3 6.4 C 0 km/h
1138 29-03-2019 22:45:00 6.3 C 6.29 g/m*3 6.3 C 0 km/h
1139 29-03-2019 22:50:00 6.3 C 6.29 g/m*3 6.3 C 0 km/h
1140 29-03-2019 22:55:00 6.2 C 6.25 g/m*3 6.2 C 0 km/h
1141 29-03-2019 23:00:00 6.1 C 6.28 g/m*3 6.1 C 0 km/h
1142 29-03-2019 23:05:00 5.9 C 6.2 g/m*3 5.9 C 0 km/h
1143 29-03-2019 23:10:00 5.8 C 6.16 g/m*3 5.8 C 0 km/h
1144 29-03-2019 23:15:00 5.8 C 6.23 g/m*3 5.8 C 0 km/h
1145 29-03-2019 23:20:00 5.8 C 6.23 g/m*3 5.8 C 0 km/h
1146 29-03-2019 23:25:00 5.7 C 6.19 g/m*3 5.7 C 0 km/h
1147 29-03-2019 23:30:00 5.6 C 6.15 g/m*3 5.6 C 0 km/h
1148 29-03-2019 23:35:00 5.4 C 6.07 g/m*3 5.4 C 0 km/h
1149 29-03-2019 23:40:00 5.3 C 6.1 g/m*3 5.3 C 0 km/h
1150 29-03-2019 23:45:00 5.2 C 6.06 g/m*3 5.2 C 0 km/h
Sensor: Nr:Datum:Temp:Abs-Feuchte:Windchill:Wind:
Aussen-T/F 1151 29-03-2019 23:50:00 5.2 C 6.13 g/m*3 5.2 C 0 km/h
1152 29-03-2019 23:55:00 5.1 C 6.02 g/m*3 5.1 C 0 km/h
1153 30-03-2019 00:00:00 4.9 C 5.94 g/m*3 4.9 C 0 km/h
1154 30-03-2019 00:05:00 4.8 C 5.97 g/m*3 4.8 C 0 km/h
1155 30-03-2019 00:10:00 4.8 C 5.97 g/m*3 4.8 C 0 km/h
1156 30-03-2019 00:15:00 4.7 C 5.93 g/m*3 4.7 C 0 km/h
1157 30-03-2019 00:20:00 4.7 C 6 g/m*3 4.7 C 0 km/h
1158 30-03-2019 00:25:00 4.6 C 5.96 g/m*3 4.6 C 0 km/h
1159 30-03-2019 00:30:00 4.6 C 5.96 g/m*3 4.6 C 0 km/h
1160 30-03-2019 00:35:00 4.5 C 5.92 g/m*3 4.5 C 0 km/h
1161 30-03-2019 00:40:00 4.4 C 5.88 g/m*3 4.4 C 0 km/h
1162 30-03-2019 00:45:00 4.4 C 5.94 g/m*3 4.4 C 0 km/h
1163 30-03-2019 00:50:00 4.4 C 5.94 g/m*3 4.4 C 0 km/h
1164 30-03-2019 00:55:00 4.3 C 5.9 g/m*3 4.3 C 0 km/h
1165 30-03-2019 01:00:00 4.3 C 5.9 g/m*3 4.3 C 0 km/h
1166 30-03-2019 01:05:00 4.2 C 5.86 g/m*3 4.2 C 0 km/h
1167 30-03-2019 01:10:00 4.1 C 5.82 g/m*3 4.1 C 0 km/h
1168 30-03-2019 01:15:00 4 C 5.79 g/m*3 4 C 0 km/h
1169 30-03-2019 01:20:00 3.9 C 5.75 g/m*3 3.9 C 0 km/h
1170 30-03-2019 01:25:00 4 C 5.85 g/m*3 4 C 0 km/h
1171 30-03-2019 01:30:00 4 C 5.85 g/m*3 4 C 0 km/h
1172 30-03-2019 01:35:00 4 C 5.85 g/m*3 4 C 0 km/h
1173 30-03-2019 01:40:00 3.9 C 5.81 g/m*3 3.9 C 0 km/h
1174 30-03-2019 01:45:00 3.9 C 5.81 g/m*3 3.9 C 0 km/h
1175 30-03-2019 01:50:00 3.9 C 5.81 g/m*3 3.9 C 0 km/h
Sensor: Nr:Datum:Temp:Abs-Feuchte:Windchill:Wind:
Aussen-T/F 1176 30-03-2019 01:55:00 3.8 C 5.77 g/m*3 3.8 C 0 km/h
1177 30-03-2019 02:00:00 3.8 C 5.77 g/m*3 3.8 C 0 km/h
1178 30-03-2019 02:05:00 3.8 C 5.77 g/m*3 3.8 C 0 km/h
1179 30-03-2019 02:10:00 3.7 C 5.73 g/m*3 3.7 C 0 km/h
1180 30-03-2019 02:15:00 3.6 C 5.69 g/m*3 3.6 C 0 km/h
1181 30-03-2019 02:20:00 3.4 C 5.62 g/m*3 3.4 C 0 km/h
1182 30-03-2019 02:25:00 3.3 C 5.58 g/m*3 3.3 C 0 km/h
1183 30-03-2019 02:30:00 3.4 C 5.68 g/m*3 3.4 C 0 km/h
1184 30-03-2019 02:35:00 3.4 C 5.68 g/m*3 3.4 C 0 km/h
1185 30-03-2019 02:40:00 3.4 C 5.68 g/m*3 3.4 C 0 km/h
1186 30-03-2019 02:45:00 3.3 C 5.58 g/m*3 3.3 C 0 km/h
1187 30-03-2019 02:50:00 3.2 C 5.54 g/m*3 3.2 C 0 km/h
1188 30-03-2019 02:55:00 3.1 C 5.57 g/m*3 3.1 C 0 km/h
1189 30-03-2019 03:00:00 3 C 5.53 g/m*3 3 C 0 km/h
1190 30-03-2019 03:05:00 2.9 C 5.49 g/m*3 2.9 C 0 km/h
1191 30-03-2019 03:10:00 2.8 C 5.46 g/m*3 2.8 C 0 km/h
1192 30-03-2019 03:15:00 2.8 C 5.46 g/m*3 2.8 C 0 km/h
1193 30-03-2019 03:20:00 2.8 C 5.51 g/m*3 2.8 C 0 km/h
1194 30-03-2019 03:25:00 2.9 C 5.55 g/m*3 2.9 C 0 km/h
1195 30-03-2019 03:30:00 2.8 C 5.51 g/m*3 2.8 C 0 km/h
1196 30-03-2019 03:35:00 2.8 C 5.46 g/m*3 2.8 C 0 km/h
1197 30-03-2019 03:40:00 2.8 C 5.51 g/m*3 2.8 C 0 km/h
1198 30-03-2019 03:45:00 2.7 C 5.48 g/m*3 2.7 C 0 km/h
1199 30-03-2019 03:50:00 2.7 C 5.48 g/m*3 2.7 C 0 km/h
1200 30-03-2019 03:55:00 2.6 C 5.44 g/m*3 2.6 C 0 km/h
Sensor: Nr:Datum:Temp:Abs-Feuchte:Windchill:Wind:
Aussen-T/F 1201 30-03-2019 04:00:00 2.6 C 5.44 g/m*3 2.6 C 0 km/h
1202 30-03-2019 04:05:00 2.5 C 5.4 g/m*3 2.5 C 0 km/h
1203 30-03-2019 04:10:00 2.4 C 5.37 g/m*3 2.4 C 0 km/h
1204 30-03-2019 04:15:00 2.7 C 5.48 g/m*3 2.7 C 0 km/h
1205 30-03-2019 04:20:00 2.7 C 5.48 g/m*3 2.7 C 0 km/h
1206 30-03-2019 04:25:00 2.7 C 5.48 g/m*3 2.7 C 0 km/h
1207 30-03-2019 04:30:00 2.7 C 5.48 g/m*3 2.7 C 0 km/h
1208 30-03-2019 04:35:00 2.6 C 5.44 g/m*3 2.6 C 0 km/h
1209 30-03-2019 04:40:00 2.4 C 5.37 g/m*3 2.4 C 0 km/h
1210 30-03-2019 04:45:00 2.3 C 5.33 g/m*3 2.3 C 0 km/h
1211 30-03-2019 04:50:00 2.1 C 5.26 g/m*3 2.1 C 0 km/h
1212 30-03-2019 04:55:00 2.1 C 5.26 g/m*3 2.1 C 0 km/h
1213 30-03-2019 05:00:00 2 C 5.22 g/m*3 2 C 0 km/h
1214 30-03-2019 05:05:00 2.1 C 5.26 g/m*3 2.1 C 0 km/h
1215 30-03-2019 05:10:00 2.2 C 5.29 g/m*3 2.2 C 0 km/h
1216 30-03-2019 05:15:00 2.1 C 5.26 g/m*3 2.1 C 0 km/h
1217 30-03-2019 05:20:00 1.9 C 5.19 g/m*3 1.9 C 0 km/h
1218 30-03-2019 05:25:00 1.8 C 5.15 g/m*3 1.8 C 0 km/h
1219 30-03-2019 05:30:00 1.8 C 5.15 g/m*3 1.8 C 0 km/h
1220 30-03-2019 05:35:00 1.7 C 5.12 g/m*3 1.7 C 0 km/h
1221 30-03-2019 05:40:00 1.7 C 5.12 g/m*3 1.7 C 0 km/h
1222 30-03-2019 05:45:00 1.7 C 5.17 g/m*3 1.7 C 0 km/h
1223 30-03-2019 05:50:00 1.7 C 5.17 g/m*3 1.7 C 0 km/h
1224 30-03-2019 05:55:00 1.8 C 5.21 g/m*3 1.8 C 0 km/h
1225 30-03-2019 06:00:00 2 C 5.28 g/m*3 2 C 0 km/h
Sensor: Nr:Datum:Temp:Abs-Feuchte:Windchill:Wind:
Aussen-T/F 1226 30-03-2019 06:05:00 1.9 C 5.24 g/m*3 1.9 C 0 km/h
1227 30-03-2019 06:10:00 1.9 C 5.24 g/m*3 1.9 C 0 km/h
1228 30-03-2019 06:15:00 1.9 C 5.24 g/m*3 1.9 C 0 km/h
1229 30-03-2019 06:20:00 1.7 C 5.17 g/m*3 1.7 C 0 km/h
1230 30-03-2019 06:25:00 1.7 C 5.17 g/m*3 1.7 C 0 km/h
1231 30-03-2019 06:30:00 1.6 C 5.14 g/m*3 1.6 C 0 km/h
1232 30-03-2019 06:35:00 1.6 C 5.14 g/m*3 1.6 C 0 km/h
1233 30-03-2019 06:40:00 1.7 C 5.17 g/m*3 1.7 C 0 km/h
1234 30-03-2019 06:45:00 1.6 C 5.14 g/m*3 1.6 C 0 km/h
1235 30-03-2019 06:50:00 1.6 C 5.14 g/m*3 1.6 C 0 km/h
1236 30-03-2019 06:55:00 1.6 C 5.14 g/m*3 1.6 C 0 km/h
1237 30-03-2019 07:00:00 1.7 C 5.17 g/m*3 1.7 C 0 km/h
1238 30-03-2019 07:05:00 1.8 C 5.21 g/m*3 1.8 C 0 km/h
1239 30-03-2019 07:10:00 1.8 C 5.21 g/m*3 1.8 C 0 km/h
1240 30-03-2019 07:15:00 1.8 C 5.21 g/m*3 1.8 C 0 km/h
1241 30-03-2019 07:20:00 1.9 C 5.3 g/m*3 1.9 C 0 km/h
1242 30-03-2019 07:25:00 2.1 C 5.37 g/m*3 2.1 C 0 km/h
1243 30-03-2019 07:30:00 2.2 C 5.41 g/m*3 2.2 C 0 km/h
1244 30-03-2019 07:35:00 2.2 C 5.41 g/m*3 2.2 C 0 km/h
1245 30-03-2019 07:40:00 2.3 C 5.44 g/m*3 2.3 C 1.6 km/h
1246 30-03-2019 07:45:00 2.4 C 5.48 g/m*3 2.4 C 0 km/h
1247 30-03-2019 07:50:00 2.6 C 5.56 g/m*3 2.6 C 0 km/h
1248 30-03-2019 07:55:00 2.6 C 5.56 g/m*3 2.6 C 0 km/h
1249 30-03-2019 08:00:00 2.7 C 5.59 g/m*3 2.7 C 0 km/h
1250 30-03-2019 08:05:00 2.7 C 5.59 g/m*3 2.7 C 0 km/h
Sensor: Nr:Datum:Temp:Abs-Feuchte:Windchill:Wind:
Aussen-T/F 1251 30-03-2019 08:10:00 2.8 C 5.63 g/m*3 2.8 C 0 km/h
1252 30-03-2019 08:15:00 2.9 C 5.67 g/m*3 2.9 C 0 km/h
1253 30-03-2019 08:20:00 3.1 C 5.75 g/m*3 3.1 C 1.6 km/h
1254 30-03-2019 08:25:00 3.2 C 5.79 g/m*3 3.2 C 0 km/h
1255 30-03-2019 08:30:00 3.3 C 5.82 g/m*3 3.3 C 0 km/h
1256 30-03-2019 08:35:00 3.6 C 5.94 g/m*3 3.6 C 0 km/h
1257 30-03-2019 08:40:00 3.7 C 5.98 g/m*3 3.7 C 1.6 km/h
1258 30-03-2019 08:45:00 3.9 C 6.06 g/m*3 3.9 C 0 km/h
1259 30-03-2019 08:50:00 4.1 C 6.21 g/m*3 4.1 C 0 km/h
1260 30-03-2019 08:55:00 4.3 C 6.23 g/m*3 4.3 C 0 km/h
1261 30-03-2019 09:00:00 4.3 C 6.23 g/m*3 4.3 C 0 km/h
1262 30-03-2019 09:05:00 4.4 C 6.27 g/m*3 4.4 C 0 km/h
1263 30-03-2019 09:10:00 4.7 C 6.39 g/m*3 4.7 C 0 km/h
1264 30-03-2019 09:15:00 4.9 C 6.55 g/m*3 4.9 C 0 km/h
1265 30-03-2019 09:20:00 5.1 C 6.63 g/m*3 5.1 C 0 km/h
1266 30-03-2019 09:25:00 5.3 C 6.72 g/m*3 5.3 C 0 km/h
1267 30-03-2019 09:30:00 5.5 C 6.81 g/m*3 5.5 C 0 km/h
1268 30-03-2019 09:35:00 5.7 C 6.9 g/m*3 5.7 C 0 km/h
1269 30-03-2019 09:40:00 5.9 C 6.99 g/m*3 5.9 C 0 km/h
1270 30-03-2019 09:45:00 6.2 C 7.13 g/m*3 6.2 C 0 km/h
1271 30-03-2019 09:50:00 6.6 C 7.32 g/m*3 6.6 C 0 km/h
1272 30-03-2019 09:55:00 6.8 C 7.34 g/m*3 6.8 C 0 km/h
1273 30-03-2019 10:00:00 7.2 C 7.54 g/m*3 7.2 C 0 km/h
1274 30-03-2019 10:05:00 7.4 C 7.55 g/m*3 7.4 C 0 km/h
1275 30-03-2019 10:10:00 7.7 C 7.7 g/m*3 7.7 C 0 km/h
Sensor: Nr:Datum:Temp:Abs-Feuchte:Windchill:Wind:
Aussen-T/F 1276 30-03-2019 10:15:00 8 C 7.77 g/m*3 8 C 0 km/h
1277 30-03-2019 10:20:00 8.3 C 7.84 g/m*3 8.3 C 0 km/h
1278 30-03-2019 10:25:00 8.6 C 7.91 g/m*3 8.6 C 0 km/h
1279 30-03-2019 10:30:00 8.9 C 7.97 g/m*3 8.9 C 0 km/h
1280 30-03-2019 10:35:00 9.2 C 7.95 g/m*3 9.2 C 0 km/h
1281 30-03-2019 10:40:00 9.6 C 8.15 g/m*3 9.6 C 0 km/h
1282 30-03-2019 10:45:00 10 C 8.17 g/m*3 10 C 0 km/h
1283 30-03-2019 10:50:00 10.4 C 8.19 g/m*3 10.4 C 0 km/h
1284 30-03-2019 10:55:00 10.8 C 8.3 g/m*3 10.8 C 0 km/h
1285 30-03-2019 11:00:00 11.2 C 8.31 g/m*3 11.2 C 0 km/h
1286 30-03-2019 11:05:00 11.6 C 8.32 g/m*3 11.6 C 0 km/h
1287 30-03-2019 11:10:00 12 C 8.53 g/m*3 12 C 0 km/h
1288 30-03-2019 11:15:00 12.4 C 8.3 g/m*3 12.4 C 0 km/h
1289 30-03-2019 11:20:00 12.9 C 8.23 g/m*3 12.9 C 6.4 km/h
1290 30-03-2019 11:25:00 13.5 C 8.42 g/m*3 13.5 C 6.4 km/h
1291 30-03-2019 11:30:00 14.1 C 8.37 g/m*3 14.1 C 6.4 km/h
1292 30-03-2019 11:35:00 14.6 C 8.38 g/m*3 14.6 C 4.8 km/h
1293 30-03-2019 11:40:00 15 C 8.59 g/m*3 15 C 6.4 km/h
1294 30-03-2019 11:45:00 15.5 C 8.2 g/m*3 15.5 C 11.3 km/h
1295 30-03-2019 11:50:00 15.9 C 7.99 g/m*3 15.9 C 9.7 km/h
1296 30-03-2019 11:55:00 16.2 C 8 g/m*3 16.2 C 11.3 km/h
1297 30-03-2019 12:00:00 16.6 C 7.91 g/m*3 16.6 C 11.3 km/h
1298 30-03-2019 12:05:00 16.9 C 7.77 g/m*3 16.9 C 17.7 km/h
1299 30-03-2019 12:10:00 17.1 C 7.86 g/m*3 17.1 C 12.9 km/h
1300 30-03-2019 12:15:00 17.2 C 7.61 g/m*3 17.2 C 14.5 km/h
Sensor: Nr:Datum:Temp:Abs-Feuchte:Windchill:Wind:
Aussen-T/F 1301 30-03-2019 12:20:00 17.4 C 7.41 g/m*3 17.4 C 16.1 km/h
1302 30-03-2019 12:25:00 17.6 C 7.5 g/m*3 17.6 C 11.3 km/h
1303 30-03-2019 12:30:00 17.8 C 7.59 g/m*3 17.8 C 14.5 km/h
1304 30-03-2019 12:35:00 17.9 C 7.33 g/m*3 17.9 C 14.5 km/h
1305 30-03-2019 12:40:00 18 C 7.53 g/m*3 18 C 14.5 km/h
1306 30-03-2019 12:45:00 18.2 C 7.31 g/m*3 18.2 C 17.7 km/h
1307 30-03-2019 12:50:00 18.2 C 7.15 g/m*3 18.2 C 14.5 km/h
1308 30-03-2019 12:55:00 18.3 C 6.88 g/m*3 18.3 C 17.7 km/h
1309 30-03-2019 13:00:00 18.5 C 6.96 g/m*3 18.5 C 16.1 km/h
1310 30-03-2019 13:05:00 18.7 C 6.72 g/m*3 18.7 C 12.9 km/h
1311 30-03-2019 13:10:00 18.8 C 6.76 g/m*3 18.8 C 17.7 km/h
1312 30-03-2019 13:15:00 18.9 C 6.64 g/m*3 18.9 C 16.1 km/h
1313 30-03-2019 13:20:00 19.1 C 6.88 g/m*3 19.1 C 14.5 km/h
1314 30-03-2019 13:25:00 19.3 C 6.8 g/m*3 19.3 C 17.7 km/h
1315 30-03-2019 13:30:00 19.4 C 6.67 g/m*3 19.4 C 12.9 km/h
1316 30-03-2019 13:35:00 19.6 C 6.75 g/m*3 19.6 C 16.1 km/h
1317 30-03-2019 13:40:00 19.7 C 6.96 g/m*3 19.7 C 16.1 km/h
1318 30-03-2019 13:45:00 19.8 C 7 g/m*3 19.8 C 12.9 km/h
1319 30-03-2019 13:50:00 19.9 C 6.87 g/m*3 19.9 C 12.9 km/h
1320 30-03-2019 13:55:00 20 C 7.09 g/m*3 20 C 11.3 km/h
1321 30-03-2019 14:00:00 19.9 C 6.87 g/m*3 19.9 C 14.5 km/h
1322 30-03-2019 14:05:00 20 C 6.74 g/m*3 20 C 8.1 km/h
1323 30-03-2019 14:10:00 20.1 C 6.95 g/m*3 20.1 C 17.7 km/h
1324 30-03-2019 14:15:00 20 C 6.57 g/m*3 20 C 22.5 km/h
1325 30-03-2019 14:20:00 19.9 C 6.53 g/m*3 19.9 C 17.7 km/h
Sensor: Nr:Datum:Temp:Abs-Feuchte:Windchill:Wind:
Aussen-T/F 1326 30-03-2019 14:25:00 19.9 C 6.36 g/m*3 19.9 C 17.7 km/h
1327 30-03-2019 14:30:00 19.9 C 6.53 g/m*3 19.9 C 19.3 km/h
1328 30-03-2019 14:35:00 19.9 C 6.36 g/m*3 19.9 C 14.5 km/h
1329 30-03-2019 14:40:00 19.9 C 6.36 g/m*3 19.9 C 19.3 km/h
1330 30-03-2019 14:45:00 19.9 C 6.53 g/m*3 19.9 C 14.5 km/h
1331 30-03-2019 14:50:00 19.9 C 6.53 g/m*3 19.9 C 12.9 km/h
1332 30-03-2019 14:55:00 19.9 C 6.53 g/m*3 19.9 C 20.9 km/h
1333 30-03-2019 15:00:00 19.9 C 6.53 g/m*3 19.9 C 19.3 km/h
1334 30-03-2019 15:05:00 19.9 C 6.53 g/m*3 19.9 C 16.1 km/h
1335 30-03-2019 15:10:00 19.9 C 6.53 g/m*3 19.9 C 12.9 km/h
1336 30-03-2019 15:15:00 20 C 6.39 g/m*3 20 C 14.5 km/h
1337 30-03-2019 15:20:00 20.2 C 6.47 g/m*3 20.2 C 12.9 km/h
1338 30-03-2019 15:25:00 20.4 C 6.72 g/m*3 20.4 C 11.3 km/h
1339 30-03-2019 15:30:00 20.6 C 6.62 g/m*3 20.6 C 14.5 km/h
1340 30-03-2019 15:35:00 20.6 C 6.62 g/m*3 20.6 C 17.7 km/h
1341 30-03-2019 15:40:00 20.7 C 6.48 g/m*3 20.7 C 11.3 km/h
1342 30-03-2019 15:45:00 20.8 C 6.34 g/m*3 20.8 C 12.9 km/h
1343 30-03-2019 15:50:00 21 C 6.78 g/m*3 21 C 8.1 km/h
1344 30-03-2019 15:55:00 21 C 6.59 g/m*3 21 C 16.1 km/h
1345 30-03-2019 16:00:00 20.9 C 6.74 g/m*3 20.9 C 11.3 km/h
1346 30-03-2019 16:05:00 21.2 C 6.86 g/m*3 21.2 C 16.1 km/h
1347 30-03-2019 16:10:00 21.5 C 6.6 g/m*3 21.5 C 12.9 km/h
1348 30-03-2019 16:15:00 21.7 C 7.06 g/m*3 21.7 C 17.7 km/h
1349 30-03-2019 16:20:00 21.4 C 6.75 g/m*3 21.4 C 16.1 km/h
1350 30-03-2019 16:25:00 20.8 C 6.52 g/m*3 20.8 C 12.9 km/h
Sensor: Nr:Datum:Temp:Abs-Feuchte:Windchill:Wind:
Aussen-T/F 1351 30-03-2019 16:30:00 20.3 C 6.68 g/m*3 20.3 C 6.4 km/h
1352 30-03-2019 16:35:00 19.9 C 7.22 g/m*3 19.9 C 6.4 km/h
1353 30-03-2019 16:40:00 19.7 C 7.3 g/m*3 19.7 C 0 km/h
1354 30-03-2019 16:45:00 19.6 C 7.26 g/m*3 19.6 C 1.6 km/h
1355 30-03-2019 16:50:00 19.7 C 6.96 g/m*3 19.7 C 0 km/h
1356 30-03-2019 16:55:00 19.8 C 7.17 g/m*3 19.8 C 4.8 km/h
1357 30-03-2019 17:00:00 19.8 C 6.83 g/m*3 19.8 C 6.4 km/h
1358 30-03-2019 17:05:00 20.1 C 6.61 g/m*3 20.1 C 8.1 km/h
1359 30-03-2019 17:10:00 20.1 C 6.95 g/m*3 20.1 C 8.1 km/h
1360 30-03-2019 17:15:00 19.9 C 7.39 g/m*3 19.9 C 6.4 km/h
1361 30-03-2019 17:20:00 19.9 C 6.87 g/m*3 19.9 C 8.1 km/h
1362 30-03-2019 17:25:00 19.9 C 7.04 g/m*3 19.9 C 6.4 km/h
1363 30-03-2019 17:30:00 19.7 C 7.3 g/m*3 19.7 C 3.2 km/h
1364 30-03-2019 17:35:00 19.4 C 7.17 g/m*3 19.4 C 0 km/h
1365 30-03-2019 17:40:00 19.2 C 7.59 g/m*3 19.2 C 1.6 km/h
1366 30-03-2019 17:45:00 18.8 C 7.41 g/m*3 18.8 C 1.6 km/h
1367 30-03-2019 17:50:00 18.5 C 7.28 g/m*3 18.5 C 1.6 km/h
1368 30-03-2019 17:55:00 18.3 C 7.97 g/m*3 18.3 C 0 km/h
1369 30-03-2019 18:00:00 18.4 C 7.86 g/m*3 18.4 C 1.6 km/h
1370 30-03-2019 18:05:00 18.4 C 8.02 g/m*3 18.4 C 0 km/h
1371 30-03-2019 18:10:00 18.3 C 7.97 g/m*3 18.3 C 0 km/h
1372 30-03-2019 18:15:00 18.1 C 8.03 g/m*3 18.1 C 0 km/h
1373 30-03-2019 18:20:00 17.7 C 7.85 g/m*3 17.7 C 1.6 km/h
1374 30-03-2019 18:25:00 17.4 C 8 g/m*3 17.4 C 3.2 km/h
1375 30-03-2019 18:30:00 17.2 C 8.05 g/m*3 17.2 C 1.6 km/h
Sensor: Nr:Datum:Temp:Abs-Feuchte:Windchill:Wind:
Aussen-T/F 1376 30-03-2019 18:35:00 16.9 C 7.77 g/m*3 16.9 C 1.6 km/h
1377 30-03-2019 18:40:00 16.7 C 7.67 g/m*3 16.7 C 1.6 km/h
1378 30-03-2019 18:45:00 16.5 C 7.86 g/m*3 16.5 C 4.8 km/h
1379 30-03-2019 18:50:00 16.2 C 7.72 g/m*3 16.2 C 3.2 km/h
1380 30-03-2019 18:55:00 15.9 C 7.72 g/m*3 15.9 C 3.2 km/h
1381 30-03-2019 19:00:00 15.7 C 7.63 g/m*3 15.7 C 1.6 km/h
1382 30-03-2019 19:05:00 15.4 C 7.62 g/m*3 15.4 C 3.2 km/h
1383 30-03-2019 19:10:00 15.1 C 7.48 g/m*3 15.1 C 4.8 km/h
1384 30-03-2019 19:15:00 14.9 C 7.52 g/m*3 14.9 C 0 km/h
1385 30-03-2019 19:20:00 14.7 C 7.55 g/m*3 14.7 C 0 km/h
1386 30-03-2019 19:25:00 14.6 C 7.38 g/m*3 14.6 C 0 km/h
1387 30-03-2019 19:30:00 14.7 C 7.43 g/m*3 14.7 C 0 km/h
1388 30-03-2019 19:35:00 14.7 C 7.55 g/m*3 14.7 C 0 km/h
1389 30-03-2019 19:40:00 14.8 C 7.47 g/m*3 14.8 C 0 km/h
1390 30-03-2019 19:45:00 14.8 C 7.6 g/m*3 14.8 C 0 km/h
1391 30-03-2019 19:50:00 14.7 C 7.81 g/m*3 14.7 C 0 km/h
1392 30-03-2019 19:55:00 14.5 C 7.59 g/m*3 14.5 C 0 km/h
1393 30-03-2019 20:00:00 14.4 C 7.66 g/m*3 14.4 C 0 km/h
1394 30-03-2019 20:05:00 14.2 C 7.69 g/m*3 14.2 C 4.8 km/h
1395 30-03-2019 20:10:00 14.1 C 7.65 g/m*3 14.1 C 4.8 km/h
1396 30-03-2019 20:15:00 13.9 C 7.67 g/m*3 13.9 C 4.8 km/h
1397 30-03-2019 20:20:00 13.8 C 7.74 g/m*3 13.8 C 3.2 km/h
1398 30-03-2019 20:25:00 13.8 C 7.63 g/m*3 13.8 C 0 km/h
1399 30-03-2019 20:30:00 13.7 C 7.7 g/m*3 13.7 C 1.6 km/h
1400 30-03-2019 20:35:00 13.7 C 7.7 g/m*3 13.7 C 4.8 km/h
Sensor: Nr:Datum:Temp:Abs-Feuchte:Windchill:Wind:
Aussen-T/F 1401 30-03-2019 20:40:00 13.7 C 7.82 g/m*3 13.7 C 1.6 km/h
1402 30-03-2019 20:45:00 13.5 C 7.6 g/m*3 13.5 C 3.2 km/h
1403 30-03-2019 20:50:00 13.4 C 7.56 g/m*3 13.4 C 3.2 km/h
1404 30-03-2019 20:55:00 13.3 C 7.51 g/m*3 13.3 C 0 km/h
1405 30-03-2019 21:00:00 13.1 C 7.53 g/m*3 13.1 C 0 km/h
1406 30-03-2019 21:05:00 12.9 C 7.44 g/m*3 12.9 C 3.2 km/h
1407 30-03-2019 21:10:00 12.7 C 7.46 g/m*3 12.7 C 3.2 km/h
1408 30-03-2019 21:15:00 12.6 C 7.52 g/m*3 12.6 C 3.2 km/h
1409 30-03-2019 21:20:00 12.4 C 7.43 g/m*3 12.4 C 0 km/h
1410 30-03-2019 21:25:00 12.4 C 7.65 g/m*3 12.4 C 1.6 km/h
1411 30-03-2019 21:30:00 12.3 C 7.71 g/m*3 12.3 C 0 km/h
1412 30-03-2019 21:35:00 12.3 C 7.71 g/m*3 12.3 C 0 km/h
1413 30-03-2019 21:40:00 12.2 C 7.77 g/m*3 12.2 C 0 km/h
1414 30-03-2019 21:45:00 12.2 C 7.77 g/m*3 12.2 C 0 km/h
1415 30-03-2019 21:50:00 11.9 C 7.63 g/m*3 11.9 C 0 km/h
1416 30-03-2019 21:55:00 11.8 C 7.58 g/m*3 11.8 C 0 km/h
1417 30-03-2019 22:00:00 11.7 C 7.64 g/m*3 11.7 C 0 km/h
1418 30-03-2019 22:05:00 11.6 C 7.69 g/m*3 11.6 C 0 km/h
1419 30-03-2019 22:10:00 11.3 C 7.65 g/m*3 11.3 C 0 km/h
1420 30-03-2019 22:15:00 11.2 C 7.6 g/m*3 11.2 C 0 km/h
1421 30-03-2019 22:20:00 11.1 C 7.55 g/m*3 11.1 C 0 km/h
1422 30-03-2019 22:25:00 11.1 C 7.55 g/m*3 11.1 C 0 km/h
1423 30-03-2019 22:30:00 11 C 7.51 g/m*3 11 C 0 km/h
1424 30-03-2019 22:35:00 10.9 C 7.46 g/m*3 10.9 C 0 km/h
1425 30-03-2019 22:40:00 10.9 C 7.46 g/m*3 10.9 C 0 km/h
Sensor: Nr:Datum:Temp:Abs-Feuchte:Windchill:Wind:
Aussen-T/F 1426 30-03-2019 22:45:00 10.9 C 7.46 g/m*3 10.9 C 0 km/h
1427 30-03-2019 22:50:00 10.9 C 7.56 g/m*3 10.9 C 0 km/h
1428 30-03-2019 22:55:00 10.9 C 7.66 g/m*3 10.9 C 0 km/h
1429 30-03-2019 23:00:00 10.9 C 7.56 g/m*3 10.9 C 0 km/h
1430 30-03-2019 23:05:00 10.9 C 7.46 g/m*3 10.9 C 0 km/h
1431 30-03-2019 23:10:00 10.9 C 7.56 g/m*3 10.9 C 0 km/h
1432 30-03-2019 23:15:00 10.9 C 7.46 g/m*3 10.9 C 0 km/h
1433 30-03-2019 23:20:00 10.9 C 7.56 g/m*3 10.9 C 0 km/h
1434 30-03-2019 23:25:00 10.9 C 7.56 g/m*3 10.9 C 0 km/h
1435 30-03-2019 23:30:00 10.9 C 7.56 g/m*3 10.9 C 0 km/h
1436 30-03-2019 23:35:00 10.9 C 7.46 g/m*3 10.9 C 0 km/h
1437 30-03-2019 23:40:00 10.8 C 7.41 g/m*3 10.8 C 0 km/h
1438 30-03-2019 23:45:00 10.7 C 7.37 g/m*3 10.7 C 0 km/h
1439 30-03-2019 23:50:00 10.6 C 7.42 g/m*3 10.6 C 0 km/h
1440 30-03-2019 23:55:00 10.4 C 7.32 g/m*3 10.4 C 0 km/h
1441 31-03-2019 00:00:00 10.3 C 7.28 g/m*3 10.3 C 3.2 km/h
1442 31-03-2019 00:05:00 10.3 C 7.37 g/m*3 10.3 C 1.6 km/h
1443 31-03-2019 00:10:00 10.2 C 7.23 g/m*3 10.2 C 0 km/h
1444 31-03-2019 00:15:00 10 C 7.14 g/m*3 10 C 0 km/h
1445 31-03-2019 00:20:00 9.8 C 7.05 g/m*3 9.8 C 0 km/h
1446 31-03-2019 00:25:00 9.7 C 7.01 g/m*3 9.7 C 0 km/h
1447 31-03-2019 00:30:00 9.5 C 7.01 g/m*3 9.5 C 0 km/h
1448 31-03-2019 00:35:00 9.3 C 6.92 g/m*3 9.3 C 0 km/h
1449 31-03-2019 00:40:00 9.2 C 6.88 g/m*3 9.2 C 0 km/h
1450 31-03-2019 00:45:00 8.9 C 6.83 g/m*3 8.9 C 0 km/h
Sensor: Nr:Datum:Temp:Abs-Feuchte:Windchill:Wind:
Aussen-T/F 1451 31-03-2019 00:50:00 8.8 C 6.88 g/m*3 8.8 C 0 km/h
1452 31-03-2019 00:55:00 8.7 C 6.92 g/m*3 8.7 C 0 km/h
1453 31-03-2019 01:00:00 8.6 C 6.96 g/m*3 8.6 C 0 km/h
1454 31-03-2019 01:05:00 8.6 C 6.96 g/m*3 8.6 C 0 km/h
1455 31-03-2019 01:10:00 8.6 C 7.05 g/m*3 8.6 C 0 km/h
1456 31-03-2019 01:15:00 8.6 C 7.05 g/m*3 8.6 C 0 km/h
1457 31-03-2019 01:20:00 8.6 C 7.05 g/m*3 8.6 C 0 km/h
1458 31-03-2019 01:25:00 8.5 C 7 g/m*3 8.5 C 0 km/h
1459 31-03-2019 01:30:00 8.5 C 7 g/m*3 8.5 C 0 km/h
1460 31-03-2019 01:35:00 8.4 C 6.96 g/m*3 8.4 C 0 km/h
1461 31-03-2019 01:40:00 8.3 C 6.91 g/m*3 8.3 C 0 km/h
1462 31-03-2019 01:45:00 8.1 C 6.74 g/m*3 8.1 C 0 km/h
1463 31-03-2019 01:50:00 8 C 6.78 g/m*3 8 C 0 km/h
1464 31-03-2019 01:55:00 7.8 C 6.69 g/m*3 7.8 C 0 km/h
1465 31-03-2019 02:00:00 7.7 C 6.65 g/m*3 7.7 C 0 km/h
1466 31-03-2019 02:05:00 7.5 C 6.56 g/m*3 7.5 C 0 km/h
1467 31-03-2019 02:10:00 7.4 C 6.68 g/m*3 7.4 C 0 km/h
1468 31-03-2019 02:15:00 7.5 C 6.8 g/m*3 7.5 C 3.2 km/h
1469 31-03-2019 02:20:00 7.6 C 6.77 g/m*3 7.6 C 0 km/h
1470 31-03-2019 02:25:00 7.6 C 6.77 g/m*3 7.6 C 0 km/h
1471 31-03-2019 02:30:00 7.4 C 6.6 g/m*3 7.4 C 0 km/h
1472 31-03-2019 02:35:00 7.2 C 6.59 g/m*3 7.2 C 0 km/h
1473 31-03-2019 02:40:00 7.1 C 6.55 g/m*3 7.1 C 0 km/h
1474 31-03-2019 02:45:00 6.9 C 6.54 g/m*3 6.9 C 0 km/h
1475 31-03-2019 02:50:00 6.9 C 6.62 g/m*3 6.9 C 1.6 km/h
Sensor: Nr:Datum:Temp:Abs-Feuchte:Windchill:Wind:
Aussen-T/F 1476 31-03-2019 02:55:00 6.9 C 6.54 g/m*3 6.9 C 0 km/h
1477 31-03-2019 04:00:00 6.9 C 6.54 g/m*3 6.9 C 0 km/h
1478 31-03-2019 04:05:00 6.7 C 6.46 g/m*3 6.7 C 0 km/h
1479 31-03-2019 04:10:00 6.6 C 6.42 g/m*3 6.6 C 0 km/h
1480 31-03-2019 04:15:00 6.6 C 6.49 g/m*3 6.6 C 0 km/h
1481 31-03-2019 04:20:00 6.5 C 6.45 g/m*3 6.5 C 0 km/h
1482 31-03-2019 04:25:00 6.5 C 6.52 g/m*3 6.5 C 1.6 km/h
1483 31-03-2019 04:30:00 6.6 C 6.49 g/m*3 6.6 C 0 km/h
1484 31-03-2019 04:35:00 6.4 C 6.41 g/m*3 6.4 C 0 km/h
1485 31-03-2019 04:40:00 6.4 C 6.41 g/m*3 6.4 C 0 km/h
1486 31-03-2019 04:45:00 6.3 C 6.37 g/m*3 6.3 C 0 km/h
1487 31-03-2019 04:50:00 6.1 C 6.28 g/m*3 6.1 C 0 km/h
1488 31-03-2019 04:55:00 5.8 C 6.16 g/m*3 5.8 C 0 km/h
1489 31-03-2019 05:00:00 5.7 C 6.19 g/m*3 5.7 C 0 km/h
1490 31-03-2019 05:05:00 5.6 C 6.15 g/m*3 5.6 C 0 km/h
1491 31-03-2019 05:10:00 5.4 C 6.14 g/m*3 5.4 C 0 km/h
1492 31-03-2019 05:15:00 5.3 C 6.1 g/m*3 5.3 C 0 km/h
1493 31-03-2019 05:20:00 5.2 C 6.06 g/m*3 5.2 C 0 km/h
1494 31-03-2019 05:25:00 5.1 C 6.09 g/m*3 5.1 C 0 km/h
1495 31-03-2019 05:30:00 5 C 6.05 g/m*3 5 C 0 km/h
1496 31-03-2019 05:35:00 4.9 C 6.01 g/m*3 4.9 C 0 km/h
1497 31-03-2019 05:40:00 4.9 C 6.08 g/m*3 4.9 C 0 km/h
1498 31-03-2019 05:45:00 4.8 C 6.04 g/m*3 4.8 C 0 km/h
1499 31-03-2019 05:50:00 4.8 C 6.04 g/m*3 4.8 C 0 km/h
1500 31-03-2019 05:55:00 5.1 C 6.22 g/m*3 5.1 C 1.6 km/h
Sensor: Nr:Datum:Temp:Abs-Feuchte:Windchill:Wind:
Aussen-T/F 1501 31-03-2019 06:00:00 5.1 C 6.22 g/m*3 5.1 C 0 km/h
1502 31-03-2019 06:05:00 5.2 C 6.27 g/m*3 5.2 C 0 km/h
1503 31-03-2019 06:10:00 5.2 C 6.2 g/m*3 5.2 C 0 km/h
1504 31-03-2019 06:15:00 5.1 C 6.16 g/m*3 5.1 C 0 km/h
1505 31-03-2019 06:20:00 5 C 6.12 g/m*3 5 C 0 km/h
1506 31-03-2019 06:25:00 4.8 C 5.97 g/m*3 4.8 C 3.2 km/h
1507 31-03-2019 06:30:00 4.8 C 6.04 g/m*3 4.8 C 1.6 km/h
1508 31-03-2019 06:35:00 4.9 C 6.14 g/m*3 4.9 C 0 km/h
1509 31-03-2019 06:40:00 4.9 C 6.14 g/m*3 4.9 C 0 km/h
1510 31-03-2019 06:45:00 4.8 C 6.1 g/m*3 4.8 C 0 km/h
1511 31-03-2019 06:50:00 4.8 C 6.1 g/m*3 4.8 C 0 km/h
1512 31-03-2019 06:55:00 4.8 C 6.1 g/m*3 4.8 C 0 km/h
1513 31-03-2019 07:00:00 4.8 C 6.1 g/m*3 4.8 C 0 km/h
1514 31-03-2019 07:05:00 4.8 C 6.1 g/m*3 4.8 C 0 km/h
1515 31-03-2019 07:10:00 4.9 C 6.14 g/m*3 4.9 C 1.6 km/h
1516 31-03-2019 07:15:00 5 C 6.18 g/m*3 5 C 1.6 km/h
1517 31-03-2019 07:20:00 4.9 C 6.14 g/m*3 4.9 C 0 km/h
1518 31-03-2019 07:25:00 4.9 C 6.14 g/m*3 4.9 C 0 km/h
1519 31-03-2019 07:30:00 4.9 C 6.14 g/m*3 4.9 C 0 km/h
1520 31-03-2019 07:35:00 4.9 C 6.14 g/m*3 4.9 C 0 km/h
1521 31-03-2019 07:40:00 4.7 C 6 g/m*3 4.7 C 0 km/h
1522 31-03-2019 07:45:00 4.6 C 5.96 g/m*3 4.6 C 0 km/h
1523 31-03-2019 07:50:00 4.5 C 5.98 g/m*3 4.5 C 0 km/h
1524 31-03-2019 07:55:00 4.5 C 5.98 g/m*3 4.5 C 1.6 km/h
1525 31-03-2019 08:00:00 4.6 C 6.02 g/m*3 4.6 C 0 km/h
Sensor: Nr:Datum:Temp:Abs-Feuchte:Windchill:Wind:
Aussen-T/F 1526 31-03-2019 08:05:00 4.6 C 6.09 g/m*3 4.6 C 0 km/h
1527 31-03-2019 08:10:00 4.6 C 6.09 g/m*3 4.6 C 0 km/h
1528 31-03-2019 08:15:00 4.7 C 6.13 g/m*3 4.7 C 0 km/h
1529 31-03-2019 08:20:00 4.6 C 6.09 g/m*3 4.6 C 0 km/h
1530 31-03-2019 08:25:00 4.7 C 6.13 g/m*3 4.7 C 0 km/h
1531 31-03-2019 08:30:00 4.7 C 6.13 g/m*3 4.7 C 0 km/h
1532 31-03-2019 08:35:00 4.8 C 6.17 g/m*3 4.8 C 0 km/h
1533 31-03-2019 08:40:00 4.8 C 6.17 g/m*3 4.8 C 0 km/h
1534 31-03-2019 08:45:00 4.8 C 6.17 g/m*3 4.8 C 0 km/h
1535 31-03-2019 08:50:00 4.8 C 6.17 g/m*3 4.8 C 0 km/h
1536 31-03-2019 08:55:00 4.8 C 6.17 g/m*3 4.8 C 0 km/h
1537 31-03-2019 09:00:00 4.9 C 6.21 g/m*3 4.9 C 0 km/h
1538 31-03-2019 09:05:00 4.9 C 6.28 g/m*3 4.9 C 0 km/h
1539 31-03-2019 09:10:00 5.1 C 6.36 g/m*3 5.1 C 0 km/h
1540 31-03-2019 09:15:00 5.2 C 6.4 g/m*3 5.2 C 0 km/h
1541 31-03-2019 09:20:00 5.3 C 6.45 g/m*3 5.3 C 0 km/h
1542 31-03-2019 09:25:00 5.4 C 6.49 g/m*3 5.4 C 0 km/h
1543 31-03-2019 09:30:00 5.5 C 6.53 g/m*3 5.5 C 0 km/h
1544 31-03-2019 09:35:00 5.7 C 6.62 g/m*3 5.7 C 0 km/h
1545 31-03-2019 09:40:00 5.8 C 6.66 g/m*3 5.8 C 0 km/h
1546 31-03-2019 09:45:00 5.9 C 6.71 g/m*3 5.9 C 0 km/h
1547 31-03-2019 09:50:00 6.1 C 6.79 g/m*3 6.1 C 0 km/h
1548 31-03-2019 09:55:00 6.3 C 6.88 g/m*3 6.3 C 0 km/h
1549 31-03-2019 10:00:00 6.6 C 7.02 g/m*3 6.6 C 0 km/h
1550 31-03-2019 10:05:00 6.9 C 7.16 g/m*3 6.9 C 0 km/h
Sensor: Nr:Datum:Temp:Abs-Feuchte:Windchill:Wind:
Aussen-T/F 1551 31-03-2019 10:10:00 7.2 C 7.3 g/m*3 7.2 C 0 km/h
1552 31-03-2019 10:15:00 7.4 C 7.4 g/m*3 7.4 C 0 km/h
1553 31-03-2019 10:20:00 7.7 C 7.46 g/m*3 7.7 C 0 km/h
1554 31-03-2019 10:25:00 7.9 C 7.56 g/m*3 7.9 C 0 km/h
1555 31-03-2019 10:30:00 8.1 C 7.57 g/m*3 8.1 C 0 km/h
1556 31-03-2019 10:35:00 8.3 C 7.59 g/m*3 8.3 C 0 km/h
1557 31-03-2019 10:40:00 8.6 C 7.73 g/m*3 8.6 C 0 km/h
1558 31-03-2019 10:45:00 8.8 C 7.83 g/m*3 8.8 C 0 km/h
1559 31-03-2019 10:50:00 9.1 C 7.9 g/m*3 9.1 C 0 km/h
1560 31-03-2019 10:55:00 9.4 C 7.96 g/m*3 9.4 C 0 km/h
1561 31-03-2019 11:00:00 9.7 C 7.93 g/m*3 9.7 C 0 km/h
1562 31-03-2019 11:05:00 10 C 7.89 g/m*3 10 C 0 km/h
1563 31-03-2019 11:10:00 10.5 C 8.05 g/m*3 10.5 C 0 km/h
1564 31-03-2019 11:15:00 10.9 C 8.26 g/m*3 10.9 C 0 km/h
1565 31-03-2019 11:20:00 11.2 C 8.11 g/m*3 11.2 C 0 km/h
1566 31-03-2019 11:25:00 11.4 C 8.21 g/m*3 11.4 C 0 km/h
1567 31-03-2019 11:30:00 11.7 C 8.16 g/m*3 11.7 C 0 km/h
1568 31-03-2019 11:35:00 11.9 C 8.05 g/m*3 11.9 C 0 km/h
1569 31-03-2019 11:40:00 12.2 C 7.99 g/m*3 12.2 C 1.6 km/h
1570 31-03-2019 11:45:00 12.6 C 8.19 g/m*3 12.6 C 0 km/h
1571 31-03-2019 11:50:00 12.9 C 8.34 g/m*3 12.9 C 0 km/h
1572 31-03-2019 11:55:00 13.2 C 8.15 g/m*3 13.2 C 1.6 km/h
1573 31-03-2019 12:00:00 13.3 C 8.09 g/m*3 13.3 C 0 km/h
1574 31-03-2019 12:05:00 13.6 C 8.12 g/m*3 13.6 C 1.6 km/h
1575 31-03-2019 12:10:00 13.8 C 8.1 g/m*3 13.8 C 3.2 km/h
Sensor: Nr:Datum:Temp:Abs-Feuchte:Windchill:Wind:
Aussen-T/F 1576 31-03-2019 12:15:00 14.1 C 8.13 g/m*3 14.1 C 3.2 km/h
1577 31-03-2019 12:20:00 14.3 C 8.11 g/m*3 14.3 C 3.2 km/h
1578 31-03-2019 12:25:00 14.5 C 8.33 g/m*3 14.5 C 3.2 km/h
1579 31-03-2019 12:30:00 14.7 C 8.31 g/m*3 14.7 C 3.2 km/h
1580 31-03-2019 12:35:00 14.9 C 8.28 g/m*3 14.9 C 3.2 km/h
1581 31-03-2019 12:40:00 15.2 C 8.31 g/m*3 15.2 C 3.2 km/h
1582 31-03-2019 12:45:00 15.3 C 8.23 g/m*3 15.3 C 4.8 km/h
1583 31-03-2019 12:50:00 15.4 C 8.28 g/m*3 15.4 C 4.8 km/h
1584 31-03-2019 12:55:00 15.7 C 8.43 g/m*3 15.7 C 4.8 km/h
1585 31-03-2019 13:00:00 15.8 C 8.21 g/m*3 15.8 C 4.8 km/h
1586 31-03-2019 13:05:00 16.1 C 8.22 g/m*3 16.1 C 3.2 km/h
1587 31-03-2019 13:10:00 16.2 C 8.14 g/m*3 16.2 C 1.6 km/h
1588 31-03-2019 13:15:00 16.3 C 8.05 g/m*3 16.3 C 3.2 km/h
1589 31-03-2019 13:20:00 16.5 C 8.14 g/m*3 16.5 C 4.8 km/h
1590 31-03-2019 13:25:00 16.7 C 7.96 g/m*3 16.7 C 6.4 km/h
1591 31-03-2019 13:30:00 16.8 C 7.86 g/m*3 16.8 C 3.2 km/h
1592 31-03-2019 13:35:00 17 C 7.67 g/m*3 17 C 8.1 km/h
1593 31-03-2019 13:40:00 17.2 C 7.76 g/m*3 17.2 C 8.1 km/h
1594 31-03-2019 13:45:00 17.3 C 7.66 g/m*3 17.3 C 9.7 km/h
1595 31-03-2019 13:50:00 17.4 C 7.71 g/m*3 17.4 C 9.7 km/h
1596 31-03-2019 13:55:00 17.6 C 7.65 g/m*3 17.6 C 6.4 km/h
1597 31-03-2019 14:00:00 17.6 C 7.8 g/m*3 17.6 C 4.8 km/h
1598 31-03-2019 14:05:00 17.7 C 7.85 g/m*3 17.7 C 4.8 km/h
1599 31-03-2019 14:10:00 17.9 C 7.79 g/m*3 17.9 C 4.8 km/h
1600 31-03-2019 14:15:00 18.1 C 7.57 g/m*3 18.1 C 11.3 km/h
Sensor: Nr:Datum:Temp:Abs-Feuchte:Windchill:Wind:
Aussen-T/F 1601 31-03-2019 14:20:00 18.2 C 7.93 g/m*3 18.2 C 12.9 km/h
1602 31-03-2019 14:25:00 18.3 C 8.29 g/m*3 18.3 C 4.8 km/h
1603 31-03-2019 14:30:00 18.5 C 8.07 g/m*3 18.5 C 11.3 km/h
1604 31-03-2019 14:35:00 18.5 C 7.91 g/m*3 18.5 C 11.3 km/h
1605 31-03-2019 14:40:00 18.6 C 7.96 g/m*3 18.6 C 1.6 km/h
1606 31-03-2019 14:45:00 18.7 C 8.01 g/m*3 18.7 C 9.7 km/h
1607 31-03-2019 14:50:00 18.9 C 7.94 g/m*3 18.9 C 12.9 km/h
1608 31-03-2019 14:55:00 19.1 C 7.7 g/m*3 19.1 C 4.8 km/h
1609 31-03-2019 15:00:00 19.3 C 7.96 g/m*3 19.3 C 3.2 km/h
1610 31-03-2019 15:05:00 19.5 C 8.06 g/m*3 19.5 C 11.3 km/h
1611 31-03-2019 15:10:00 19.7 C 8.15 g/m*3 19.7 C 8.1 km/h
1612 31-03-2019 15:15:00 19.8 C 8.2 g/m*3 19.8 C 11.3 km/h
1613 31-03-2019 15:20:00 19.4 C 7.51 g/m*3 19.4 C 12.9 km/h
1614 31-03-2019 15:25:00 19 C 7.66 g/m*3 19 C 16.1 km/h
1615 31-03-2019 15:30:00 18.7 C 7.52 g/m*3 18.7 C 8.1 km/h
1616 31-03-2019 15:35:00 18.4 C 7.71 g/m*3 18.4 C 8.1 km/h
1617 31-03-2019 15:40:00 18.3 C 7.66 g/m*3 18.3 C 11.3 km/h
1618 31-03-2019 15:45:00 18.1 C 7.57 g/m*3 18.1 C 9.7 km/h
1619 31-03-2019 15:50:00 17.9 C 7.63 g/m*3 17.9 C 6.4 km/h
1620 31-03-2019 15:55:00 17.8 C 7.59 g/m*3 17.8 C 11.3 km/h
1621 31-03-2019 16:00:00 17.7 C 7.69 g/m*3 17.7 C 12.9 km/h
1622 31-03-2019 16:05:00 17.5 C 7.75 g/m*3 17.5 C 12.9 km/h
1623 31-03-2019 16:10:00 17.3 C 8.1 g/m*3 17.3 C 14.5 km/h
1624 31-03-2019 16:15:00 16.9 C 8.92 g/m*3 16.9 C 16.1 km/h
1625 31-03-2019 16:20:00 16.4 C 10.47 g/m*3 16.4 C 3.2 km/h
Sensor: Nr:Datum:Temp:Abs-Feuchte:Windchill:Wind:
Aussen-T/F 1626 31-03-2019 16:25:00 15.9 C 10.56 g/m*3 15.9 C 4.8 km/h
1627 31-03-2019 16:30:00 15.6 C 10.64 g/m*3 15.6 C 6.4 km/h
1628 31-03-2019 16:35:00 15.4 C 11.04 g/m*3 15.4 C 1.6 km/h
1629 31-03-2019 16:40:00 15.1 C 10.71 g/m*3 15.1 C 0 km/h
1630 31-03-2019 16:45:00 14.8 C 10.64 g/m*3 14.8 C 3.2 km/h
1631 31-03-2019 16:50:00 14.4 C 10.51 g/m*3 14.4 C 3.2 km/h
1632 31-03-2019 16:55:00 14.1 C 10.32 g/m*3 14.1 C 4.8 km/h
1633 31-03-2019 17:00:00 13.7 C 10.18 g/m*3 13.7 C 4.8 km/h
1634 31-03-2019 17:05:00 13.5 C 10.18 g/m*3 13.5 C 3.2 km/h
1635 31-03-2019 17:10:00 13.3 C 10.17 g/m*3 13.3 C 3.2 km/h
1636 31-03-2019 17:15:00 13.3 C 10.4 g/m*3 13.3 C 3.2 km/h
1637 31-03-2019 17:20:00 13.6 C 10.83 g/m*3 13.6 C 3.2 km/h
1638 31-03-2019 17:25:00 13.9 C 11.15 g/m*3 13.9 C 1.6 km/h
1639 31-03-2019 17:30:00 14.3 C 11.43 g/m*3 14.3 C 0 km/h
1640 31-03-2019 17:35:00 14.6 C 11.51 g/m*3 14.6 C 0 km/h
1641 31-03-2019 17:40:00 14.7 C 11.33 g/m*3 14.7 C 0 km/h
1642 31-03-2019 17:45:00 14.9 C 11.6 g/m*3 14.9 C 0 km/h
1643 31-03-2019 17:50:00 15.2 C 11.55 g/m*3 15.2 C 0 km/h
1644 31-03-2019 17:55:00 15.4 C 11.17 g/m*3 15.4 C 3.2 km/h
1645 31-03-2019 18:00:00 15.6 C 10.37 g/m*3 15.6 C 3.2 km/h
1646 31-03-2019 18:05:00 15.6 C 10.37 g/m*3 15.6 C 1.6 km/h
1647 31-03-2019 18:10:00 15.6 C 10.51 g/m*3 15.6 C 4.8 km/h
1648 31-03-2019 18:15:00 15.5 C 10.18 g/m*3 15.5 C 4.8 km/h
1649 31-03-2019 18:20:00 15.4 C 9.85 g/m*3 15.4 C 8.1 km/h
1650 31-03-2019 18:25:00 15.4 C 9.85 g/m*3 15.4 C 4.8 km/h
Sensor: Nr:Datum:Temp:Abs-Feuchte:Windchill:Wind:
Aussen-T/F 1651 31-03-2019 18:30:00 15.3 C 9.66 g/m*3 15.3 C 4.8 km/h
1652 31-03-2019 18:35:00 15.2 C 9.86 g/m*3 15.2 C 0 km/h
1653 31-03-2019 18:40:00 15.2 C 9.86 g/m*3 15.2 C 4.8 km/h
1654 31-03-2019 18:45:00 15 C 9.87 g/m*3 15 C 4.8 km/h
1655 31-03-2019 18:50:00 14.9 C 9.69 g/m*3 14.9 C 4.8 km/h
1656 31-03-2019 18:55:00 14.7 C 9.07 g/m*3 14.7 C 12.9 km/h
1657 31-03-2019 19:00:00 14.4 C 9.15 g/m*3 14.4 C 1.6 km/h
1658 31-03-2019 19:05:00 14.2 C 9.16 g/m*3 14.2 C 3.2 km/h
1659 31-03-2019 19:10:00 13.8 C 9.29 g/m*3 13.8 C 4.8 km/h
1660 31-03-2019 19:15:00 13.4 C 9.07 g/m*3 13.4 C 4.8 km/h
1661 31-03-2019 19:20:00 13.2 C 9.07 g/m*3 13.2 C 3.2 km/h
1662 31-03-2019 19:25:00 12.9 C 9.13 g/m*3 12.9 C 0 km/h
1663 31-03-2019 19:30:00 12.6 C 9.07 g/m*3 12.6 C 3.2 km/h
1664 31-03-2019 19:35:00 12.3 C 9.01 g/m*3 12.3 C 3.2 km/h
1665 31-03-2019 19:40:00 12 C 8.95 g/m*3 12 C 0 km/h
1666 31-03-2019 19:45:00 11.7 C 8.79 g/m*3 11.7 C 4.8 km/h
1667 31-03-2019 19:50:00 11.3 C 8.67 g/m*3 11.3 C 3.2 km/h
1668 31-03-2019 19:55:00 11.1 C 8.56 g/m*3 11.1 C 3.2 km/h
1669 31-03-2019 20:00:00 10.9 C 8.55 g/m*3 10.9 C 3.2 km/h
1670 31-03-2019 20:05:00 10.7 C 8.45 g/m*3 10.7 C 4.8 km/h
1671 31-03-2019 20:10:00 10.6 C 8.49 g/m*3 10.6 C 3.2 km/h
1672 31-03-2019 20:15:00 10.4 C 8.38 g/m*3 10.4 C 4.8 km/h
1673 31-03-2019 20:20:00 10.3 C 8.33 g/m*3 10.3 C 4.8 km/h
1674 31-03-2019 20:25:00 10.2 C 8.28 g/m*3 10.2 C 3.2 km/h
1675 31-03-2019 20:30:00 10 C 8.17 g/m*3 10 C 4.8 km/h
Sensor: Nr:Datum:Temp:Abs-Feuchte:Windchill:Wind:
Aussen-T/F 1676 31-03-2019 20:35:00 9.8 C 8.07 g/m*3 9.14 C 6.4 km/h
1677 31-03-2019 20:40:00 9.8 C 8.07 g/m*3 9.8 C 4.8 km/h
1678 31-03-2019 20:45:00 9.7 C 8.11 g/m*3 9.7 C 4.8 km/h
1679 31-03-2019 20:50:00 9.6 C 7.97 g/m*3 9.6 C 4.8 km/h
1680 31-03-2019 20:55:00 9.4 C 7.96 g/m*3 9.4 C 3.2 km/h
1681 31-03-2019 21:00:00 9.3 C 7.91 g/m*3 9.3 C 1.6 km/h
1682 31-03-2019 21:05:00 9.2 C 7.86 g/m*3 9.2 C 3.2 km/h
1683 31-03-2019 21:10:00 9.2 C 7.86 g/m*3 9.2 C 3.2 km/h
1684 31-03-2019 21:15:00 9.1 C 7.81 g/m*3 9.1 C 1.6 km/h
1685 31-03-2019 21:20:00 9.1 C 7.81 g/m*3 9.1 C 3.2 km/h
1686 31-03-2019 21:25:00 8.9 C 7.71 g/m*3 8.9 C 1.6 km/h
1687 31-03-2019 21:30:00 8.9 C 7.71 g/m*3 8.9 C 1.6 km/h
1688 31-03-2019 21:35:00 8.9 C 7.71 g/m*3 8.9 C 0 km/h
1689 31-03-2019 21:40:00 8.8 C 7.66 g/m*3 8.8 C 1.6 km/h
1690 31-03-2019 21:45:00 8.7 C 7.61 g/m*3 8.7 C 1.6 km/h
1691 31-03-2019 21:50:00 8.7 C 7.52 g/m*3 8.7 C 3.2 km/h
1692 31-03-2019 21:55:00 8.6 C 7.48 g/m*3 8.6 C 3.2 km/h
1693 31-03-2019 22:00:00 8.5 C 7.43 g/m*3 8.5 C 1.6 km/h
1694 31-03-2019 22:05:00 8.4 C 7.47 g/m*3 8.4 C 1.6 km/h
1695 31-03-2019 22:10:00 8.3 C 7.33 g/m*3 8.3 C 3.2 km/h
1696 31-03-2019 22:15:00 8.2 C 7.37 g/m*3 8.2 C 1.6 km/h
1697 31-03-2019 22:20:00 8.1 C 7.32 g/m*3 8.1 C 1.6 km/h
1698 31-03-2019 22:25:00 8.1 C 7.32 g/m*3 8.1 C 3.2 km/h
1699 31-03-2019 22:30:00 8 C 7.28 g/m*3 8 C 1.6 km/h
1700 31-03-2019 22:35:00 7.9 C 7.15 g/m*3 7.9 C 3.2 km/h
Sensor: Nr:Datum:Temp:Abs-Feuchte:Windchill:Wind:
Aussen-T/F 1701 31-03-2019 22:40:00 7.9 C 7.23 g/m*3 7.9 C 1.6 km/h
1702 31-03-2019 22:45:00 7.8 C 7.18 g/m*3 7.8 C 1.6 km/h
1703 31-03-2019 22:50:00 7.7 C 7.14 g/m*3 7.7 C 1.6 km/h
1704 31-03-2019 22:55:00 7.6 C 7.09 g/m*3 7.6 C 1.6 km/h
1705 31-03-2019 23:00:00 7.5 C 7.04 g/m*3 7.5 C 1.6 km/h
1706 31-03-2019 23:05:00 7.4 C 7 g/m*3 7.4 C 3.2 km/h
1707 31-03-2019 23:10:00 7.4 C 7 g/m*3 7.4 C 3.2 km/h
1708 31-03-2019 23:15:00 7.4 C 7 g/m*3 7.4 C 1.6 km/h
1709 31-03-2019 23:20:00 7.4 C 7 g/m*3 7.4 C 0 km/h
1710 31-03-2019 23:25:00 7.4 C 7 g/m*3 7.4 C 0 km/h
1711 31-03-2019 23:30:00 7.3 C 6.95 g/m*3 7.3 C 0 km/h
1712 31-03-2019 23:35:00 7.2 C 6.91 g/m*3 7.2 C 0 km/h
1713 31-03-2019 23:40:00 7.1 C 6.86 g/m*3 7.1 C 0 km/h
1714 31-03-2019 23:45:00 6.9 C 6.77 g/m*3 6.9 C 0 km/h
1715 31-03-2019 23:50:00 6.8 C 6.73 g/m*3 6.8 C 0 km/h
1716 31-03-2019 23:55:00 6.8 C 6.73 g/m*3 6.8 C 0 km/h
1717 01-04-2019 00:00:00 6.7 C 6.76 g/m*3 6.7 C 0 km/h
1718 01-04-2019 00:05:00 6.6 C 6.72 g/m*3 6.6 C 0 km/h
1719 01-04-2019 00:10:00 6.6 C 6.72 g/m*3 6.6 C 0 km/h
1720 01-04-2019 00:15:00 6.5 C 6.67 g/m*3 6.5 C 0 km/h
1721 01-04-2019 00:20:00 6.4 C 6.63 g/m*3 6.4 C 0 km/h
1722 01-04-2019 00:25:00 6.4 C 6.63 g/m*3 6.4 C 0 km/h
1723 01-04-2019 00:30:00 6.3 C 6.59 g/m*3 6.3 C 0 km/h
1724 01-04-2019 00:35:00 6.3 C 6.59 g/m*3 6.3 C 0 km/h
1725 01-04-2019 00:40:00 6.2 C 6.55 g/m*3 6.2 C 0 km/h
Sensor: Nr:Datum:Temp:Abs-Feuchte:Windchill:Wind:
Aussen-T/F 1726 01-04-2019 00:45:00 6.2 C 6.55 g/m*3 6.2 C 0 km/h
1727 01-04-2019 00:50:00 6.1 C 6.5 g/m*3 6.1 C 0 km/h
1728 01-04-2019 00:55:00 6.1 C 6.5 g/m*3 6.1 C 0 km/h
1729 01-04-2019 01:00:00 6 C 6.46 g/m*3 6 C 0 km/h
1730 01-04-2019 01:05:00 6 C 6.46 g/m*3 6 C 0 km/h
1731 01-04-2019 01:10:00 5.9 C 6.42 g/m*3 5.9 C 0 km/h
1732 01-04-2019 01:15:00 5.9 C 6.42 g/m*3 5.9 C 0 km/h
1733 01-04-2019 01:20:00 5.8 C 6.38 g/m*3 5.8 C 0 km/h
1734 01-04-2019 01:25:00 5.8 C 6.38 g/m*3 5.8 C 0 km/h
1735 01-04-2019 01:30:00 5.7 C 6.33 g/m*3 5.7 C 0 km/h
1736 01-04-2019 01:35:00 5.6 C 6.29 g/m*3 5.6 C 0 km/h
1737 01-04-2019 01:40:00 5.6 C 6.36 g/m*3 5.6 C 0 km/h
1738 01-04-2019 01:45:00 5.6 C 6.36 g/m*3 5.6 C 0 km/h
1739 01-04-2019 01:50:00 5.5 C 6.32 g/m*3 5.5 C 0 km/h
1740 01-04-2019 01:55:00 5.5 C 6.32 g/m*3 5.5 C 3.2 km/h
1741 01-04-2019 02:00:00 5.5 C 6.32 g/m*3 5.5 C 3.2 km/h
1742 01-04-2019 02:05:00 5.4 C 6.28 g/m*3 5.4 C 1.6 km/h
1743 01-04-2019 02:10:00 5.4 C 6.28 g/m*3 5.4 C 3.2 km/h
1744 01-04-2019 02:15:00 5.4 C 6.28 g/m*3 5.4 C 0 km/h
1745 01-04-2019 02:20:00 5.3 C 6.24 g/m*3 5.3 C 0 km/h
1746 01-04-2019 02:25:00 5.3 C 6.24 g/m*3 5.3 C 1.6 km/h
1747 01-04-2019 02:30:00 5.3 C 6.24 g/m*3 5.3 C 1.6 km/h
1748 01-04-2019 02:35:00 5.2 C 6.2 g/m*3 5.2 C 3.2 km/h
1749 01-04-2019 02:40:00 5.2 C 6.2 g/m*3 5.2 C 1.6 km/h
1750 01-04-2019 02:45:00 5.1 C 6.16 g/m*3 5.1 C 3.2 km/h
Sensor: Nr:Datum:Temp:Abs-Feuchte:Windchill:Wind:
Aussen-T/F 1751 01-04-2019 02:50:00 5 C 6.12 g/m*3 5 C 0 km/h
1752 01-04-2019 02:55:00 4.9 C 6.08 g/m*3 4.9 C 3.2 km/h
1753 01-04-2019 03:00:00 4.9 C 6.08 g/m*3 4.9 C 3.2 km/h
1754 01-04-2019 03:05:00 4.8 C 6.04 g/m*3 4.8 C 3.2 km/h
1755 01-04-2019 03:10:00 4.8 C 6.1 g/m*3 4.8 C 3.2 km/h
1756 01-04-2019 03:15:00 4.8 C 6.1 g/m*3 4.8 C 1.6 km/h
1757 01-04-2019 03:20:00 4.8 C 6.1 g/m*3 4.8 C 3.2 km/h
1758 01-04-2019 03:25:00 4.7 C 6.06 g/m*3 4.7 C 3.2 km/h
1759 01-04-2019 03:30:00 4.7 C 6 g/m*3 4.7 C 3.2 km/h
1760 01-04-2019 03:35:00 4.6 C 5.96 g/m*3 4.6 C 4.8 km/h
1761 01-04-2019 03:40:00 4.6 C 6.02 g/m*3 4.6 C 3.2 km/h
1762 01-04-2019 03:45:00 4.6 C 6.02 g/m*3 4.6 C 1.6 km/h
1763 01-04-2019 03:50:00 4.5 C 5.98 g/m*3 4.5 C 3.2 km/h
1764 01-04-2019 03:55:00 4.5 C 5.98 g/m*3 4.5 C 0 km/h
1765 01-04-2019 04:00:00 4.4 C 5.94 g/m*3 4.4 C 1.6 km/h
1766 01-04-2019 04:05:00 4.4 C 5.88 g/m*3 4.4 C 0 km/h
1767 01-04-2019 04:10:00 4.4 C 5.94 g/m*3 4.4 C 3.2 km/h
1768 01-04-2019 04:15:00 4.3 C 5.9 g/m*3 4.3 C 0 km/h
1769 01-04-2019 04:20:00 4.3 C 5.9 g/m*3 4.3 C 1.6 km/h
1770 01-04-2019 04:25:00 4.3 C 5.9 g/m*3 4.3 C 0 km/h
1771 01-04-2019 04:30:00 4.3 C 5.9 g/m*3 4.3 C 0 km/h
1772 01-04-2019 04:35:00 4.3 C 5.9 g/m*3 4.3 C 3.2 km/h
1773 01-04-2019 04:40:00 4.3 C 5.9 g/m*3 4.3 C 3.2 km/h
1774 01-04-2019 04:45:00 4.3 C 5.9 g/m*3 4.3 C 1.6 km/h
1775 01-04-2019 04:50:00 4.2 C 5.86 g/m*3 4.2 C 3.2 km/h
Sensor: Nr:Datum:Temp:Abs-Feuchte:Windchill:Wind:
Aussen-T/F 1776 01-04-2019 04:55:00 4.3 C 5.9 g/m*3 4.3 C 3.2 km/h
1777 01-04-2019 05:00:00 4.3 C 5.9 g/m*3 4.3 C 1.6 km/h
1778 01-04-2019 05:05:00 4.2 C 5.86 g/m*3 4.2 C 0 km/h
1779 01-04-2019 05:10:00 4.2 C 5.86 g/m*3 4.2 C 1.6 km/h
1780 01-04-2019 05:15:00 4.2 C 5.86 g/m*3 4.2 C 0 km/h
1781 01-04-2019 05:20:00 4.1 C 5.82 g/m*3 4.1 C 0 km/h
1782 01-04-2019 05:25:00 4 C 5.79 g/m*3 4 C 1.6 km/h
1783 01-04-2019 05:30:00 3.9 C 5.75 g/m*3 3.9 C 0 km/h
1784 01-04-2019 05:35:00 3.8 C 5.71 g/m*3 3.8 C 0 km/h
1785 01-04-2019 05:40:00 3.8 C 5.71 g/m*3 3.8 C 0 km/h
1786 01-04-2019 05:45:00 3.8 C 5.71 g/m*3 3.8 C 0 km/h
1787 01-04-2019 05:50:00 3.7 C 5.67 g/m*3 3.7 C 1.6 km/h
1788 01-04-2019 05:55:00 3.7 C 5.73 g/m*3 3.7 C 3.2 km/h
1789 01-04-2019 06:00:00 3.7 C 5.73 g/m*3 3.7 C 1.6 km/h
1790 01-04-2019 06:05:00 3.7 C 5.73 g/m*3 3.7 C 0 km/h
1791 01-04-2019 06:10:00 3.7 C 5.73 g/m*3 3.7 C 3.2 km/h
1792 01-04-2019 06:15:00 3.7 C 5.67 g/m*3 3.7 C 0 km/h
1793 01-04-2019 06:20:00 3.6 C 5.63 g/m*3 3.6 C 0 km/h
1794 01-04-2019 06:25:00 3.6 C 5.63 g/m*3 3.6 C 0 km/h
1795 01-04-2019 06:30:00 3.6 C 5.69 g/m*3 3.6 C 0 km/h
1796 01-04-2019 06:35:00 3.5 C 5.66 g/m*3 3.5 C 0 km/h
1797 01-04-2019 06:40:00 3.5 C 5.66 g/m*3 3.5 C 0 km/h
1798 01-04-2019 06:45:00 3.4 C 5.62 g/m*3 3.4 C 0 km/h
1799 01-04-2019 06:50:00 3.4 C 5.62 g/m*3 3.4 C 0 km/h
1800 01-04-2019 06:55:00 3.4 C 5.62 g/m*3 3.4 C 0 km/h
Sensor: Nr:Datum:Temp:Abs-Feuchte:Windchill:Wind:
Aussen-T/F 1801 01-04-2019 07:00:00 3.3 C 5.58 g/m*3 3.3 C 0 km/h
1802 01-04-2019 07:05:00 3.3 C 5.58 g/m*3 3.3 C 0 km/h
1803 01-04-2019 07:10:00 3.2 C 5.54 g/m*3 3.2 C 0 km/h
1804 01-04-2019 07:15:00 3.2 C 5.54 g/m*3 3.2 C 3.2 km/h
1805 01-04-2019 07:20:00 3.2 C 5.54 g/m*3 3.2 C 1.6 km/h
1806 01-04-2019 07:25:00 3.1 C 5.51 g/m*3 3.1 C 3.2 km/h
1807 01-04-2019 07:30:00 3.1 C 5.51 g/m*3 3.1 C 0 km/h
1808 01-04-2019 07:35:00 3.1 C 5.51 g/m*3 3.1 C 0 km/h
1809 01-04-2019 07:40:00 3 C 5.47 g/m*3 3 C 1.6 km/h
1810 01-04-2019 07:45:00 3.1 C 5.57 g/m*3 3.1 C 0 km/h
1811 01-04-2019 07:50:00 3.1 C 5.57 g/m*3 3.1 C 0 km/h
1812 01-04-2019 07:55:00 3.1 C 5.57 g/m*3 3.1 C 0 km/h
1813 01-04-2019 08:00:00 3 C 5.53 g/m*3 3 C 0 km/h
1814 01-04-2019 08:05:00 3.1 C 5.57 g/m*3 3.1 C 0 km/h
1815 01-04-2019 08:10:00 3.1 C 5.57 g/m*3 3.1 C 0 km/h
1816 01-04-2019 08:15:00 3.1 C 5.57 g/m*3 3.1 C 0 km/h
1817 01-04-2019 08:20:00 3.1 C 5.57 g/m*3 3.1 C 0 km/h
1818 01-04-2019 08:25:00 3.1 C 5.57 g/m*3 3.1 C 0 km/h
1819 01-04-2019 08:30:00 3.1 C 5.57 g/m*3 3.1 C 0 km/h
1820 01-04-2019 08:35:00 3.2 C 5.6 g/m*3 3.2 C 0 km/h
1821 01-04-2019 08:40:00 3.2 C 5.6 g/m*3 3.2 C 0 km/h
1822 01-04-2019 08:45:00 3.3 C 5.7 g/m*3 3.3 C 0 km/h
1823 01-04-2019 08:50:00 3.3 C 5.7 g/m*3 3.3 C 0 km/h
1824 01-04-2019 08:55:00 3.4 C 5.74 g/m*3 3.4 C 0 km/h
1825 01-04-2019 09:00:00 3.6 C 5.82 g/m*3 3.6 C 0 km/h
Sensor: Nr:Datum:Temp:Abs-Feuchte:Windchill:Wind:
Aussen-T/F 1826 01-04-2019 09:05:00 3.7 C 5.86 g/m*3 3.7 C 1.6 km/h
1827 01-04-2019 09:10:00 3.8 C 5.9 g/m*3 3.8 C 1.6 km/h
1828 01-04-2019 09:15:00 4 C 5.98 g/m*3 4 C 3.2 km/h
1829 01-04-2019 09:20:00 4.1 C 5.95 g/m*3 4.1 C 1.6 km/h
1830 01-04-2019 09:25:00 4.2 C 5.99 g/m*3 4.2 C 0 km/h
1831 01-04-2019 09:30:00 4.4 C 6.07 g/m*3 4.4 C 0 km/h
1832 01-04-2019 09:35:00 4.5 C 6.05 g/m*3 4.5 C 0 km/h
1833 01-04-2019 09:40:00 4.6 C 6.09 g/m*3 4.6 C 0 km/h
1834 01-04-2019 09:45:00 4.7 C 6.13 g/m*3 4.7 C 0 km/h
1835 01-04-2019 09:50:00 4.9 C 6.14 g/m*3 4.9 C 0 km/h
1836 01-04-2019 09:55:00 5 C 6.18 g/m*3 5 C 0 km/h
1837 01-04-2019 10:00:00 5.2 C 6.2 g/m*3 5.2 C 3.2 km/h
1838 01-04-2019 10:05:00 5.4 C 6.21 g/m*3 5.4 C 3.2 km/h
1839 01-04-2019 10:10:00 5.7 C 6.26 g/m*3 5.7 C 4.8 km/h
1840 01-04-2019 10:15:00 5.8 C 6.23 g/m*3 4.05 C 8.1 km/h
1841 01-04-2019 10:20:00 6.1 C 6.28 g/m*3 4.4 C 8.1 km/h
1842 01-04-2019 10:25:00 6.4 C 6.18 g/m*3 4.08 C 11.3 km/h
1843 01-04-2019 10:30:00 6.9 C 6.16 g/m*3 4.99 C 9.7 km/h
1844 01-04-2019 10:35:00 7.2 C 6.44 g/m*3 5.69 C 8.1 km/h
1845 01-04-2019 10:40:00 7.4 C 6.36 g/m*3 5.93 C 8.1 km/h
1846 01-04-2019 10:45:00 7.6 C 6.53 g/m*3 7.6 C 0 km/h
1847 01-04-2019 10:50:00 7.9 C 6.41 g/m*3 6.94 C 6.4 km/h
1848 01-04-2019 10:55:00 8.2 C 6.53 g/m*3 8.2 C 4.8 km/h
1849 01-04-2019 11:00:00 8.4 C 6.45 g/m*3 7.52 C 6.4 km/h
1850 01-04-2019 11:05:00 8.7 C 6.4 g/m*3 7.46 C 8.1 km/h
Sensor: Nr:Datum:Temp:Abs-Feuchte:Windchill:Wind:
Aussen-T/F 1851 01-04-2019 11:10:00 8.9 C 6.31 g/m*3 7.37 C 9.7 km/h
1852 01-04-2019 11:15:00 9.2 C 6.43 g/m*3 7.73 C 9.7 km/h
1853 01-04-2019 11:20:00 9.4 C 6.78 g/m*3 7.7 C 11.3 km/h
1854 01-04-2019 11:25:00 9.5 C 6.46 g/m*3 8.79 C 6.4 km/h
1855 01-04-2019 11:30:00 9.7 C 6.45 g/m*3 8.33 C 9.7 km/h
1856 01-04-2019 11:35:00 9.9 C 6.54 g/m*3 8.06 C 12.9 km/h
1857 01-04-2019 11:40:00 10 C 6.48 g/m*3 8.19 C 12.9 km/h
1858 01-04-2019 11:45:00 10.1 C 6.52 g/m*3 8.54 C 11.3 km/h
1859 01-04-2019 11:50:00 10.3 C 6.51 g/m*3 8.78 C 11.3 km/h
1860 01-04-2019 11:55:00 10.3 C 6.61 g/m*3 10.3 C 3.2 km/h
1861 01-04-2019 12:00:00 10.5 C 6.69 g/m*3 9.57 C 8.1 km/h
1862 01-04-2019 12:05:00 10.7 C 6.58 g/m*3 9.04 C 12.9 km/h
1863 01-04-2019 12:10:00 10.8 C 6.62 g/m*3 9.38 C 11.3 km/h
1864 01-04-2019 12:15:00 10.9 C 6.56 g/m*3 9.08 C 14.5 km/h
1865 01-04-2019 12:20:00 11.1 C 6.65 g/m*3 11.1 C 14.5 km/h
1866 01-04-2019 12:25:00 11.2 C 6.69 g/m*3 11.2 C 11.3 km/h
1867 01-04-2019 12:30:00 11.3 C 6.73 g/m*3 11.3 C 9.7 km/h
1868 01-04-2019 12:35:00 11.5 C 6.71 g/m*3 11.5 C 6.4 km/h
1869 01-04-2019 12:40:00 11.7 C 6.69 g/m*3 11.7 C 8.1 km/h
1870 01-04-2019 12:45:00 11.8 C 6.74 g/m*3 11.8 C 9.7 km/h
1871 01-04-2019 12:50:00 11.9 C 6.88 g/m*3 11.9 C 4.8 km/h
1872 01-04-2019 12:55:00 12 C 6.82 g/m*3 12 C 9.7 km/h
1873 01-04-2019 13:00:00 12.2 C 6.69 g/m*3 12.2 C 12.9 km/h
1874 01-04-2019 13:05:00 12.3 C 6.84 g/m*3 12.3 C 8.1 km/h
1875 01-04-2019 13:10:00 12.4 C 6.77 g/m*3 12.4 C 8.1 km/h
Sensor: Nr:Datum:Temp:Abs-Feuchte:Windchill:Wind:
Aussen-T/F 1876 01-04-2019 13:15:00 12.6 C 6.97 g/m*3 12.6 C 6.4 km/h
1877 01-04-2019 13:20:00 12.7 C 6.9 g/m*3 12.7 C 9.7 km/h
1878 01-04-2019 13:25:00 12.8 C 6.94 g/m*3 12.8 C 8.1 km/h
1879 01-04-2019 13:30:00 13.1 C 6.96 g/m*3 13.1 C 14.5 km/h
1880 01-04-2019 13:35:00 13.3 C 7.05 g/m*3 13.3 C 8.1 km/h
1881 01-04-2019 13:40:00 13.4 C 6.97 g/m*3 13.4 C 8.1 km/h
1882 01-04-2019 13:45:00 13.6 C 7.18 g/m*3 13.6 C 8.1 km/h
1883 01-04-2019 13:50:00 13.8 C 7.15 g/m*3 13.8 C 8.1 km/h
1884 01-04-2019 13:55:00 13.9 C 7.07 g/m*3 13.9 C 9.7 km/h
1885 01-04-2019 14:00:00 14.1 C 7.28 g/m*3 14.1 C 8.1 km/h
1886 01-04-2019 14:05:00 14.3 C 7.13 g/m*3 14.3 C 11.3 km/h
1887 01-04-2019 14:10:00 14.4 C 7.17 g/m*3 14.4 C 14.5 km/h
1888 01-04-2019 14:15:00 14.6 C 7.26 g/m*3 14.6 C 9.7 km/h
1889 01-04-2019 14:20:00 14.8 C 7.35 g/m*3 14.8 C 11.3 km/h
1890 01-04-2019 14:25:00 14.9 C 7.26 g/m*3 14.9 C 9.7 km/h
1891 01-04-2019 14:30:00 15 C 7.18 g/m*3 15 C 8.1 km/h
1892 01-04-2019 14:35:00 15.1 C 7.22 g/m*3 15.1 C 11.3 km/h
1893 01-04-2019 14:40:00 15.2 C 7.14 g/m*3 15.2 C 14.5 km/h
1894 01-04-2019 14:45:00 15.3 C 7.31 g/m*3 15.3 C 8.1 km/h
1895 01-04-2019 14:50:00 15.5 C 7.4 g/m*3 15.5 C 12.9 km/h
1896 01-04-2019 14:55:00 15.8 C 7.4 g/m*3 15.8 C 8.1 km/h
1897 01-04-2019 15:00:00 15.9 C 7.72 g/m*3 15.9 C 12.9 km/h
1898 01-04-2019 15:05:00 16 C 7.22 g/m*3 16 C 9.7 km/h
1899 01-04-2019 15:10:00 16.1 C 7.4 g/m*3 16.1 C 8.1 km/h
1900 01-04-2019 15:15:00 16.1 C 7.4 g/m*3 16.1 C 11.3 km/h
Sensor: Nr:Datum:Temp:Abs-Feuchte:Windchill:Wind:
Aussen-T/F 1901 01-04-2019 15:20:00 16.2 C 7.58 g/m*3 16.2 C 6.4 km/h
1902 01-04-2019 15:25:00 16.3 C 7.49 g/m*3 16.3 C 6.4 km/h
1903 01-04-2019 15:30:00 16.4 C 7.68 g/m*3 16.4 C 8.1 km/h
1904 01-04-2019 15:35:00 16.6 C 7.63 g/m*3 16.6 C 6.4 km/h
1905 01-04-2019 15:40:00 16.6 C 7.49 g/m*3 16.6 C 8.1 km/h
1906 01-04-2019 15:45:00 16.8 C 7.43 g/m*3 16.8 C 4.8 km/h
1907 01-04-2019 15:50:00 16.9 C 7.48 g/m*3 16.9 C 8.1 km/h
1908 01-04-2019 15:55:00 16.8 C 7.43 g/m*3 16.8 C 14.5 km/h
1909 01-04-2019 16:00:00 16.8 C 7.29 g/m*3 16.8 C 6.4 km/h
1910 01-04-2019 16:05:00 16.9 C 7.34 g/m*3 16.9 C 8.1 km/h
1911 01-04-2019 16:10:00 16.9 C 7.48 g/m*3 16.9 C 8.1 km/h
1912 01-04-2019 16:15:00 17 C 7.52 g/m*3 17 C 4.8 km/h
1913 01-04-2019 16:20:00 17.2 C 7.76 g/m*3 17.2 C 4.8 km/h
1914 01-04-2019 16:25:00 17.6 C 7.8 g/m*3 17.6 C 3.2 km/h
1915 01-04-2019 16:30:00 17.8 C 7.74 g/m*3 17.8 C 6.4 km/h
1916 01-04-2019 16:35:00 17.8 C 7.29 g/m*3 17.8 C 4.8 km/h
1917 01-04-2019 16:40:00 17.8 C 7.44 g/m*3 17.8 C 6.4 km/h
1918 01-04-2019 16:45:00 17.9 C 7.79 g/m*3 17.9 C 6.4 km/h
1919 01-04-2019 16:50:00 18.2 C 7.46 g/m*3 18.2 C 6.4 km/h
1920 01-04-2019 16:55:00 18.1 C 7.42 g/m*3 18.1 C 8.1 km/h
1921 01-04-2019 17:00:00 18 C 7.53 g/m*3 18 C 6.4 km/h
1922 01-04-2019 17:05:00 18.2 C 7.62 g/m*3 18.2 C 4.8 km/h
1923 01-04-2019 17:10:00 18.3 C 7.35 g/m*3 18.3 C 8.1 km/h
1924 01-04-2019 17:15:00 18.3 C 7.51 g/m*3 18.3 C 6.4 km/h
1925 01-04-2019 17:20:00 18.5 C 7.91 g/m*3 18.5 C 4.8 km/h
Sensor: Nr:Datum:Temp:Abs-Feuchte:Windchill:Wind:
Aussen-T/F 1926 01-04-2019 17:25:00 18.7 C 7.68 g/m*3 18.7 C 11.3 km/h
1927 01-04-2019 17:30:00 18.5 C 7.44 g/m*3 18.5 C 9.7 km/h
1928 01-04-2019 17:35:00 18.3 C 7.51 g/m*3 18.3 C 9.7 km/h
1929 01-04-2019 17:40:00 18.2 C 7.15 g/m*3 18.2 C 9.7 km/h
1930 01-04-2019 17:45:00 18.1 C 7.26 g/m*3 18.1 C 11.3 km/h
1931 01-04-2019 17:50:00 18.1 C 7.26 g/m*3 18.1 C 9.7 km/h
1932 01-04-2019 17:55:00 18.1 C 7.11 g/m*3 18.1 C 9.7 km/h
1933 01-04-2019 18:00:00 18 C 7.22 g/m*3 18 C 9.7 km/h
1934 01-04-2019 18:05:00 18 C 7.22 g/m*3 18 C 8.1 km/h
1935 01-04-2019 18:10:00 18.2 C 7.31 g/m*3 18.2 C 4.8 km/h
1936 01-04-2019 18:15:00 18.3 C 7.35 g/m*3 18.3 C 8.1 km/h
1937 01-04-2019 18:20:00 18.1 C 7.11 g/m*3 18.1 C 6.4 km/h
1938 01-04-2019 18:25:00 18 C 7.22 g/m*3 18 C 11.3 km/h
1939 01-04-2019 18:30:00 17.9 C 7.33 g/m*3 17.9 C 4.8 km/h
1940 01-04-2019 18:35:00 17.9 C 7.18 g/m*3 17.9 C 6.4 km/h
1941 01-04-2019 18:40:00 17.8 C 7.13 g/m*3 17.8 C 8.1 km/h
1942 01-04-2019 18:45:00 17.6 C 7.05 g/m*3 17.6 C 9.7 km/h
1943 01-04-2019 18:50:00 17.4 C 7.11 g/m*3 17.4 C 8.1 km/h
1944 01-04-2019 18:55:00 17.3 C 7.37 g/m*3 17.3 C 6.4 km/h
1945 01-04-2019 19:00:00 17.3 C 7.22 g/m*3 17.3 C 6.4 km/h
1946 01-04-2019 19:05:00 17.2 C 7.61 g/m*3 17.2 C 9.7 km/h
1947 01-04-2019 19:10:00 17.1 C 7.13 g/m*3 17.1 C 8.1 km/h
1948 01-04-2019 19:15:00 16.9 C 7.34 g/m*3 16.9 C 4.8 km/h
1949 01-04-2019 19:20:00 16.9 C 7.91 g/m*3 16.9 C 0 km/h
1950 01-04-2019 19:25:00 16.7 C 7.96 g/m*3 16.7 C 0 km/h
Sensor: Nr:Datum:Temp:Abs-Feuchte:Windchill:Wind:
Aussen-T/F 1951 01-04-2019 19:30:00 16.3 C 7.91 g/m*3 16.3 C 3.2 km/h
1952 01-04-2019 19:35:00 15.8 C 7.4 g/m*3 15.8 C 4.8 km/h
1953 01-04-2019 19:40:00 15.3 C 7.7 g/m*3 15.3 C 3.2 km/h
1954 01-04-2019 19:45:00 14.7 C 7.68 g/m*3 14.7 C 3.2 km/h
1955 01-04-2019 19:50:00 14.1 C 7.65 g/m*3 14.1 C 0 km/h
1956 01-04-2019 19:55:00 13.7 C 7.58 g/m*3 13.7 C 4.8 km/h
1957 01-04-2019 20:00:00 13.2 C 7.58 g/m*3 13.2 C 4.8 km/h
1958 01-04-2019 20:05:00 12.8 C 7.5 g/m*3 12.8 C 6.4 km/h
1959 01-04-2019 20:10:00 12.5 C 7.48 g/m*3 12.5 C 4.8 km/h
1960 01-04-2019 20:15:00 12.2 C 7.45 g/m*3 12.2 C 4.8 km/h
1961 01-04-2019 20:20:00 12 C 7.46 g/m*3 12 C 4.8 km/h
1962 01-04-2019 20:25:00 11.7 C 7.43 g/m*3 11.7 C 4.8 km/h
1963 01-04-2019 20:30:00 11.6 C 7.38 g/m*3 11.6 C 4.8 km/h
1964 01-04-2019 20:35:00 11.3 C 7.34 g/m*3 11.3 C 6.4 km/h
1965 01-04-2019 20:40:00 11.2 C 7.3 g/m*3 11.2 C 6.4 km/h
1966 01-04-2019 20:45:00 11.1 C 7.35 g/m*3 11.1 C 4.8 km/h
1967 01-04-2019 20:50:00 10.9 C 7.26 g/m*3 10.9 C 4.8 km/h
1968 01-04-2019 20:55:00 10.8 C 7.31 g/m*3 10.8 C 4.8 km/h
1969 01-04-2019 21:00:00 10.7 C 7.27 g/m*3 10.18 C 6.4 km/h
1970 01-04-2019 21:05:00 10.6 C 7.32 g/m*3 10.06 C 6.4 km/h
1971 01-04-2019 21:10:00 10.4 C 7.23 g/m*3 10.4 C 4.8 km/h
1972 01-04-2019 21:15:00 10.3 C 7.18 g/m*3 10.3 C 4.8 km/h
1973 01-04-2019 21:20:00 10.3 C 7.18 g/m*3 10.3 C 4.8 km/h
1974 01-04-2019 21:25:00 10.2 C 7.23 g/m*3 10.2 C 4.8 km/h
1975 01-04-2019 21:30:00 10.1 C 7.19 g/m*3 10.1 C 4.8 km/h
Sensor: Nr:Datum:Temp:Abs-Feuchte:Windchill:Wind:
Aussen-T/F 1976 01-04-2019 21:35:00 10 C 7.14 g/m*3 10 C 4.8 km/h
1977 01-04-2019 21:40:00 9.9 C 7.1 g/m*3 9.9 C 4.8 km/h
1978 01-04-2019 21:45:00 9.9 C 7.1 g/m*3 9.9 C 4.8 km/h
1979 01-04-2019 21:50:00 9.8 C 7.14 g/m*3 9.8 C 0 km/h
1980 01-04-2019 21:55:00 9.7 C 7.1 g/m*3 9.7 C 4.8 km/h
1981 01-04-2019 22:00:00 9.7 C 7.1 g/m*3 9.7 C 3.2 km/h
1982 01-04-2019 22:05:00 9.6 C 7.05 g/m*3 9.6 C 3.2 km/h
1983 01-04-2019 22:10:00 9.5 C 7.01 g/m*3 9.5 C 0 km/h
1984 01-04-2019 22:15:00 9.4 C 6.96 g/m*3 8.68 C 6.4 km/h
1985 01-04-2019 22:20:00 9.4 C 6.96 g/m*3 9.4 C 4.8 km/h
1986 01-04-2019 22:25:00 9.4 C 6.96 g/m*3 9.4 C 1.6 km/h
1987 01-04-2019 22:30:00 9.3 C 6.92 g/m*3 9.3 C 0 km/h
1988 01-04-2019 22:35:00 9.2 C 6.97 g/m*3 9.2 C 0 km/h
1989 01-04-2019 22:40:00 9.2 C 6.88 g/m*3 9.2 C 0 km/h
1990 01-04-2019 22:45:00 9.1 C 6.83 g/m*3 9.1 C 0 km/h
1991 01-04-2019 22:50:00 9.2 C 6.88 g/m*3 9.2 C 3.2 km/h
1992 01-04-2019 22:55:00 9.2 C 6.88 g/m*3 9.2 C 4.8 km/h
1993 01-04-2019 23:00:00 9.2 C 6.79 g/m*3 9.2 C 3.2 km/h
1994 01-04-2019 23:05:00 9.1 C 6.74 g/m*3 9.1 C 3.2 km/h
1995 01-04-2019 23:10:00 9 C 6.79 g/m*3 9 C 4.8 km/h
1996 01-04-2019 23:15:00 8.9 C 6.75 g/m*3 8.9 C 3.2 km/h
1997 01-04-2019 23:20:00 8.9 C 6.75 g/m*3 8.9 C 1.6 km/h
1998 01-04-2019 23:25:00 8.8 C 6.7 g/m*3 8.8 C 0 km/h
1999 01-04-2019 23:30:00 8.8 C 6.7 g/m*3 8.8 C 0 km/h
2000 01-04-2019 23:35:00 8.7 C 6.75 g/m*3 8.7 C 0 km/h
Sensor: Nr:Datum:Temp:Abs-Feuchte:Windchill:Wind:
Aussen-T/F 2001 01-04-2019 23:40:00 8.6 C 6.7 g/m*3 8.6 C 3.2 km/h
2002 01-04-2019 23:45:00 8.6 C 6.7 g/m*3 8.6 C 3.2 km/h
2003 01-04-2019 23:50:00 8.5 C 6.74 g/m*3 8.5 C 0 km/h
2004 01-04-2019 23:55:00 8.4 C 6.7 g/m*3 8.4 C 0 km/h

Legende:
   Min
   Max


Maximal/Minimal-Werte vom 26.03.2019 - 01.04.2019

Sensor Min Max Avg
Temp
(Aussen-T/F)
0.9 °C
28-03-2019  05:20:00
21.7 °C
30-03-2019  16:15:00
8.56 °C
Abs-Feuchte
(Aussen-T/F)
4.85 g/m*3
28-03-2019  05:20:00
11.6 g/m*3
31-03-2019  17:45:00
6.62 g/m*3
Windchill
(Aussen-T/F)
0.9 C
28-03-2019  05:20:00
21.7 C
30-03-2019  16:15:00
8.42 C

Die Daten stammen von einer Davis Vantage Pro 2 Wetter-Station und werden unter Linux mit der Software wview2wettercgi und aufbereitet. Alle Angaben erfolgen ohne Gewähr für ihre Vollständigkeit oder Richtigkeit.
Kontakt: Rainer Krienke krienke@uni-koblenz.de . Meine Webseiten an der Uni Koblenz oder privat.
Version: $Revision: 0.78 $